Wetterdaten: Montag, 01.05.2017
Datum Zeit Temp. A. Pool Temp. Feuchte A. Luftdruck Regen Wind Richtung Richtung Sonnenschein ET UV Solar Taupunkt Windchill Windben Empfang
01.05.2017 00:00 8,6 C 11,1 C 67 % 1008,8 hPa 0,0 l/m 18,2 km/h (3 Bft) O-NO 76 0 min 0,000 mm 0,0 UV-I 0 W/m 2,8 C 2,1 C 24,1 km/h (4 Bft) 93,18 %
01.05.2017 00:02 8,6 C 11,1 C 67 % 1008,7 hPa 0,0 l/m 17,9 km/h (3 Bft) O-NO 57 0 min 0,000 mm 0,0 UV-I 0 W/m 2,8 C 2,2 C 24,1 km/h (4 Bft) 95,35 %
01.05.2017 00:04 8,5 C 11,1 C 67 % 1008,7 hPa 0,0 l/m 18,7 km/h (3 Bft) O-NO 59 0 min 0,000 mm 0,0 UV-I 0 W/m 2,7 C 1,8 C 27,4 km/h (4 Bft) 97,56 %
01.05.2017 00:06 8,5 C 11,1 C 68 % 1008,7 hPa 0,0 l/m 17,3 km/h (3 Bft) O-NO 70 0 min 0,000 mm 0,0 UV-I 0 W/m 2,9 C 2,3 C 22,5 km/h (4 Bft) 96,23 %
01.05.2017 00:08 8,4 C 11,1 C 68 % 1008,7 hPa 0,0 l/m 15,7 km/h (3 Bft) NO 53 0 min 0,000 mm 0,0 UV-I 0 W/m 2,8 C 2,9 C 25,7 km/h (4 Bft) 97,87 %
01.05.2017 00:10 8,4 C 11,1 C 68 % 1008,7 hPa 0,0 l/m 17,4 km/h (3 Bft) NO 34 0 min 0,000 mm 0,0 UV-I 0 W/m 2,8 C 2,2 C 24,1 km/h (4 Bft) 97,56 %
01.05.2017 00:12 8,4 C 11,1 C 68 % 1008,7 hPa 0,0 l/m 18,4 km/h (3 Bft) O-NO 57 0 min 0,000 mm 0,0 UV-I 0 W/m 2,8 C 1,8 C 25,7 km/h (4 Bft) 100,00 %
01.05.2017 00:14 8,4 C 11,1 C 68 % 1008,6 hPa 0,0 l/m 15,4 km/h (3 Bft) NO 36 0 min 0,000 mm 0,0 UV-I 0 W/m 2,8 C 3,0 C 20,9 km/h (4 Bft) 96,00 %
01.05.2017 00:16 8,3 C 11,1 C 68 % 1008,6 hPa 0,0 l/m 18,6 km/h (3 Bft) NO 49 0 min 0,000 mm 0,0 UV-I 0 W/m 2,7 C 1,6 C 27,4 km/h (4 Bft) 97,44 %
01.05.2017 00:18 8,3 C 11,1 C 68 % 1008,6 hPa 0,0 l/m 18,3 km/h (3 Bft) O-NO 67 0 min 0,000 mm 0,0 UV-I 0 W/m 2,7 C 1,7 C 24,1 km/h (4 Bft) 98,08 %
01.05.2017 00:20 8,3 C 11,1 C 68 % 1008,6 hPa 0,0 l/m 15,9 km/h (3 Bft) O-NO 69 0 min 0,000 mm 0,0 UV-I 0 W/m 2,7 C 2,7 C 24,1 km/h (4 Bft) 95,83 %
01.05.2017 00:22 8,3 C 11,1 C 68 % 1008,6 hPa 0,0 l/m 16,2 km/h (3 Bft) NO 55 0 min 0,000 mm 0,0 UV-I 0 W/m 2,7 C 2,6 C 22,5 km/h (4 Bft) 97,87 %
01.05.2017 00:24 8,3 C 10,6 C 68 % 1008,6 hPa 0,0 l/m 16,3 km/h (3 Bft) NO 47 0 min 0,000 mm 0,0 UV-I 0 W/m 2,7 C 2,5 C 20,9 km/h (4 Bft) 97,56 %
01.05.2017 00:26 8,2 C 10,6 C 68 % 1008,6 hPa 0,0 l/m 14,9 km/h (3 Bft) O-NO 66 0 min 0,000 mm 0,0 UV-I 0 W/m 2,7 C 3,0 C 19,3 km/h (3 Bft) 100,00 %
01.05.2017 00:28 8,2 C 10,6 C 68 % 1008,6 hPa 0,0 l/m 17,0 km/h (3 Bft) O 87 0 min 0,000 mm 0,0 UV-I 0 W/m 2,7 C 2,1 C 24,1 km/h (4 Bft) 97,73 %
01.05.2017 00:30 8,2 C 10,6 C 68 % 1008,6 hPa 0,0 l/m 19,5 km/h (3 Bft) O-NO 64 0 min 0,000 mm 0,0 UV-I 0 W/m 2,7 C 1,1 C 27,4 km/h (4 Bft) 100,00 %
01.05.2017 00:32 8,2 C 11,1 C 68 % 1008,5 hPa 0,0 l/m 17,6 km/h (3 Bft) NO 52 0 min 0,000 mm 0,0 UV-I 0 W/m 2,7 C 1,9 C 22,5 km/h (4 Bft) 98,53 %
01.05.2017 00:34 8,2 C 10,6 C 68 % 1008,5 hPa 0,0 l/m 19,0 km/h (3 Bft) O-NO 63 0 min 0,000 mm 0,0 UV-I 0 W/m 2,7 C 1,3 C 24,1 km/h (4 Bft) 97,37 %
01.05.2017 00:36 8,1 C 10,6 C 69 % 1008,5 hPa 0,0 l/m 17,4 km/h (3 Bft) O-NO 63 0 min 0,000 mm 0,0 UV-I 0 W/m 2,8 C 1,8 C 22,5 km/h (4 Bft) 100,00 %
01.05.2017 00:38 8,1 C 10,6 C 69 % 1008,5 hPa 0,0 l/m 16,6 km/h (3 Bft) O-NO 59 0 min 0,000 mm 0,0 UV-I 0 W/m 2,8 C 2,1 C 20,9 km/h (4 Bft) 100,00 %
01.05.2017 00:40 8,1 C 10,6 C 69 % 1008,5 hPa 0,0 l/m 18,0 km/h (3 Bft) O-NO 67 0 min 0,000 mm 0,0 UV-I 0 W/m 2,8 C 1,6 C 22,5 km/h (4 Bft) 100,00 %
01.05.2017 00:42 8,0 C 10,6 C 69 % 1008,4 hPa 0,0 l/m 18,0 km/h (3 Bft) O-NO 59 0 min 0,000 mm 0,0 UV-I 0 W/m 2,7 C 1,4 C 25,7 km/h (4 Bft) 97,56 %
01.05.2017 00:44 8,0 C 10,6 C 69 % 1008,5 hPa 0,0 l/m 16,5 km/h (3 Bft) NO 48 0 min 0,000 mm 0,0 UV-I 0 W/m 2,7 C 2,1 C 22,5 km/h (4 Bft) 100,00 %
01.05.2017 00:46 7,9 C 10,6 C 69 % 1008,4 hPa 0,0 l/m 17,2 km/h (3 Bft) O-NO 68 0 min 0,000 mm 0,0 UV-I 0 W/m 2,6 C 1,6 C 25,7 km/h (4 Bft) 100,00 %
01.05.2017 00:48 7,9 C 10,6 C 69 % 1008,5 hPa 0,0 l/m 13,9 km/h (3 Bft) NO 49 0 min 0,000 mm 0,0 UV-I 0 W/m 2,6 C 3,1 C 19,3 km/h (3 Bft) 100,00 %
01.05.2017 00:50 7,8 C 10,6 C 70 % 1008,5 hPa 0,0 l/m 16,1 km/h (3 Bft) NO 55 0 min 0,000 mm 0,0 UV-I 0 W/m 2,7 C 2,0 C 20,9 km/h (4 Bft) 96,00 %
01.05.2017 00:52 7,8 C 10,6 C 70 % 1008,4 hPa 0,0 l/m 13,6 km/h (3 Bft) O 79 0 min 0,000 mm 0,0 UV-I 0 W/m 2,7 C 3,1 C 17,7 km/h (3 Bft) 100,00 %
01.05.2017 00:54 7,8 C 10,6 C 70 % 1008,4 hPa 0,0 l/m 12,7 km/h (3 Bft) NO 47 0 min 0,000 mm 0,0 UV-I 0 W/m 2,7 C 3,6 C 17,7 km/h (3 Bft) 97,62 %
01.05.2017 00:56 7,8 C 10,6 C 70 % 1008,4 hPa 0,0 l/m 16,1 km/h (3 Bft) O-NO 63 0 min 0,000 mm 0,0 UV-I 0 W/m 2,7 C 2,0 C 22,5 km/h (4 Bft) 98,18 %
01.05.2017 00:58 7,7 C 10,6 C 70 % 1008,4 hPa 0,0 l/m 14,6 km/h (3 Bft) O-NO 70 0 min 0,000 mm 0,0 UV-I 0 W/m 2,6 C 2,5 C 19,3 km/h (3 Bft) 97,44 %
01.05.2017 01:00 7,7 C 10,6 C 70 % 1008,4 hPa 0,0 l/m 14,2 km/h (3 Bft) O-NO 63 0 min 0,051 mm 0,0 UV-I 0 W/m 2,6 C 2,7 C 20,9 km/h (4 Bft) 100,00 %
01.05.2017 01:02 7,7 C 10,6 C 70 % 1008,3 hPa 0,0 l/m 15,3 km/h (3 Bft) O-NO 57 0 min 0,000 mm 0,0 UV-I 0 W/m 2,6 C 2,2 C 20,9 km/h (4 Bft) 98,11 %
01.05.2017 01:04 7,7 C 10,6 C 70 % 1008,3 hPa 0,0 l/m 13,6 km/h (3 Bft) NO 39 0 min 0,000 mm 0,0 UV-I 0 W/m 2,6 C 3,0 C 22,5 km/h (4 Bft) 97,87 %
01.05.2017 01:06 7,7 C 10,6 C 70 % 1008,3 hPa 0,0 l/m 15,4 km/h (3 Bft) O-NO 76 0 min 0,000 mm 0,0 UV-I 0 W/m 2,6 C 2,2 C 20,9 km/h (4 Bft) 96,43 %
01.05.2017 01:08 7,7 C 10,6 C 70 % 1008,3 hPa 0,0 l/m 12,9 km/h (3 Bft) O-NO 74 0 min 0,000 mm 0,0 UV-I 0 W/m 2,6 C 3,4 C 17,7 km/h (3 Bft) 95,12 %
01.05.2017 01:10 7,7 C 10,6 C 70 % 1008,4 hPa 0,0 l/m 13,3 km/h (3 Bft) NO 56 0 min 0,000 mm 0,0 UV-I 0 W/m 2,6 C 3,2 C 20,9 km/h (4 Bft) 98,00 %
01.05.2017 01:12 7,6 C 10,6 C 71 % 1008,4 hPa 0,0 l/m 13,0 km/h (3 Bft) O-NO 63 0 min 0,000 mm 0,0 UV-I 0 W/m 2,7 C 3,2 C 19,3 km/h (3 Bft) 92,68 %
01.05.2017 01:14 7,6 C 10,6 C 71 % 1008,4 hPa 0,0 l/m 14,7 km/h (3 Bft) O-NO 76 0 min 0,000 mm 0,0 UV-I 0 W/m 2,7 C 2,4 C 19,3 km/h (3 Bft) 94,34 %
01.05.2017 01:16 7,6 C 10,6 C 71 % 1008,3 hPa 0,0 l/m 13,9 km/h (3 Bft) O-NO 58 0 min 0,000 mm 0,0 UV-I 0 W/m 2,7 C 2,8 C 19,3 km/h (3 Bft) 95,12 %
01.05.2017 01:18 7,5 C 10,6 C 71 % 1008,3 hPa 0,0 l/m 15,0 km/h (3 Bft) O-NO 75 0 min 0,000 mm 0,0 UV-I 0 W/m 2,6 C 2,1 C 19,3 km/h (3 Bft) 95,74 %
01.05.2017 01:20 7,5 C 10,6 C 71 % 1008,3 hPa 0,0 l/m 13,6 km/h (3 Bft) O-NO 67 0 min 0,000 mm 0,0 UV-I 0 W/m 2,6 C 2,8 C 20,9 km/h (4 Bft) 96,00 %
01.05.2017 01:22 7,4 C 10,6 C 71 % 1008,3 hPa 0,0 l/m 13,8 km/h (3 Bft) O-NO 65 0 min 0,000 mm 0,0 UV-I 0 W/m 2,5 C 2,6 C 20,9 km/h (4 Bft) 98,11 %
01.05.2017 01:24 7,4 C 10,6 C 71 % 1008,3 hPa 0,0 l/m 15,1 km/h (3 Bft) O-NO 60 0 min 0,000 mm 0,0 UV-I 0 W/m 2,5 C 1,9 C 19,3 km/h (3 Bft) 94,74 %
01.05.2017 01:26 7,4 C 10,6 C 72 % 1008,3 hPa 0,0 l/m 12,5 km/h (3 Bft) NO 47 0 min 0,000 mm 0,0 UV-I 0 W/m 2,7 C 3,2 C 16,1 km/h (3 Bft) 95,12 %
01.05.2017 01:28 7,4 C 10,6 C 72 % 1008,3 hPa 0,0 l/m 12,1 km/h (2 Bft) O-NO 59 0 min 0,000 mm 0,0 UV-I 0 W/m 2,7 C 3,5 C 17,7 km/h (3 Bft) 98,31 %
01.05.2017 01:30 7,4 C 10,6 C 72 % 1008,2 hPa 0,0 l/m 13,2 km/h (3 Bft) O-NO 65 0 min 0,000 mm 0,0 UV-I 0 W/m 2,7 C 2,9 C 20,9 km/h (4 Bft) 95,45 %
01.05.2017 01:32 7,3 C 10,6 C 72 % 1008,2 hPa 0,0 l/m 12,2 km/h (2 Bft) NO 47 0 min 0,000 mm 0,0 UV-I 0 W/m 2,6 C 3,3 C 19,3 km/h (3 Bft) 93,62 %
01.05.2017 01:34 7,3 C 10,6 C 72 % 1008,2 hPa 0,0 l/m 12,8 km/h (3 Bft) O 83 0 min 0,000 mm 0,0 UV-I 0 W/m 2,6 C 3,0 C 19,3 km/h (3 Bft) 97,44 %
01.05.2017 01:36 7,3 C 10,6 C 72 % 1008,2 hPa 0,0 l/m 11,9 km/h (2 Bft) O-NO 64 0 min 0,000 mm 0,0 UV-I 0 W/m 2,6 C 3,5 C 17,7 km/h (3 Bft) 94,83 %
01.05.2017 01:38 7,2 C 10,6 C 72 % 1008,2 hPa 0,0 l/m 12,0 km/h (2 Bft) O-NO 74 0 min 0,000 mm 0,0 UV-I 0 W/m 2,5 C 3,3 C 14,5 km/h (3 Bft) 97,62 %
01.05.2017 01:40 7,2 C 10,6 C 72 % 1008,2 hPa 0,0 l/m 10,6 km/h (2 Bft) O-NO 65 0 min 0,000 mm 0,0 UV-I 0 W/m 2,5 C 4,1 C 16,1 km/h (3 Bft) 100,00 %
01.05.2017 01:42 7,2 C 10,6 C 72 % 1008,2 hPa 0,0 l/m 11,0 km/h (2 Bft) O-NO 61 0 min 0,000 mm 0,0 UV-I 0 W/m 2,5 C 3,9 C 16,1 km/h (3 Bft) 98,11 %
01.05.2017 01:44 7,2 C 10,6 C 72 % 1008,2 hPa 0,0 l/m 12,3 km/h (3 Bft) O-NO 78 0 min 0,000 mm 0,0 UV-I 0 W/m 2,5 C 3,1 C 19,3 km/h (3 Bft) 97,56 %
01.05.2017 01:46 7,2 C 10,6 C 73 % 1008,2 hPa 0,0 l/m 12,7 km/h (3 Bft) O-NO 77 0 min 0,000 mm 0,0 UV-I 0 W/m 2,7 C 2,9 C 17,7 km/h (3 Bft) 98,00 %
01.05.2017 01:48 7,1 C 10,6 C 73 % 1008,3 hPa 0,0 l/m 11,0 km/h (2 Bft) O-NO 70 0 min 0,000 mm 0,0 UV-I 0 W/m 2,6 C 3,8 C 14,5 km/h (3 Bft) 98,11 %
01.05.2017 01:50 7,1 C 10,6 C 73 % 1008,2 hPa 0,0 l/m 10,1 km/h (2 Bft) O-NO 62 0 min 0,000 mm 0,0 UV-I 0 W/m 2,6 C 4,3 C 16,1 km/h (3 Bft) 100,00 %
01.05.2017 01:52 7,0 C 10,6 C 73 % 1008,2 hPa 0,0 l/m 9,6 km/h (2 Bft) NO 53 0 min 0,000 mm 0,0 UV-I 0 W/m 2,5 C 4,5 C 14,5 km/h (3 Bft) 98,00 %
01.05.2017 01:54 6,9 C 10,6 C 73 % 1008,2 hPa 0,0 l/m 10,2 km/h (2 Bft) O-NO 69 0 min 0,000 mm 0,0 UV-I 0 W/m 2,4 C 4,0 C 16,1 km/h (3 Bft) 97,37 %
01.05.2017 01:56 6,9 C 10,6 C 73 % 1008,1 hPa 0,0 l/m 8,6 km/h (2 Bft) NO 50 0 min 0,000 mm 0,0 UV-I 0 W/m 2,4 C 5,1 C 12,9 km/h (3 Bft) 96,61 %
01.05.2017 01:58 6,8 C 10,6 C 73 % 1008,1 hPa 0,0 l/m 11,4 km/h (2 Bft) O-NO 59 0 min 0,000 mm 0,0 UV-I 0 W/m 2,3 C 3,2 C 16,1 km/h (3 Bft) 100,00 %
01.05.2017 02:00 6,9 C 10,6 C 73 % 1008,1 hPa 0,0 l/m 8,3 km/h (2 Bft) O-NO 66 0 min 0,025 mm 0,0 UV-I 0 W/m 2,4 C 5,4 C 14,5 km/h (3 Bft) 98,21 %
01.05.2017 02:02 6,8 C 10,6 C 74 % 1008,1 hPa 0,0 l/m 8,7 km/h (2 Bft) NO 51 0 min 0,000 mm 0,0 UV-I 0 W/m 2,5 C 5,0 C 12,9 km/h (3 Bft) 95,74 %
01.05.2017 02:04 6,8 C 10,6 C 74 % 1008,1 hPa 0,0 l/m 6,5 km/h (2 Bft) NO 53 0 min 0,000 mm 0,0 UV-I 0 W/m 2,5 C 6,7 C 12,9 km/h (3 Bft) 100,00 %
01.05.2017 02:06 6,7 C 10,6 C 74 % 1008,1 hPa 0,0 l/m 7,3 km/h (2 Bft) NO 51 0 min 0,000 mm 0,0 UV-I 0 W/m 2,4 C 6,0 C 14,5 km/h (3 Bft) 98,00 %
01.05.2017 02:08 6,6 C 10,6 C 75 % 1008,1 hPa 0,0 l/m 4,9 km/h (1 Bft) O-NO 59 0 min 0,000 mm 0,0 UV-I 0 W/m 2,5 C 6,6 C 8,0 km/h (2 Bft) 100,00 %
01.05.2017 02:10 6,4 C 10,6 C 75 % 1008,1 hPa 0,0 l/m 7,6 km/h (2 Bft) NO 49 0 min 0,000 mm 0,0 UV-I 0 W/m 2,3 C 5,4 C 9,7 km/h (2 Bft) 97,56 %
01.05.2017 02:12 6,3 C 10,6 C 76 % 1008,1 hPa 0,0 l/m 5,5 km/h (1 Bft) O-NO 58 0 min 0,000 mm 0,0 UV-I 0 W/m 2,4 C 6,3 C 6,4 km/h (2 Bft) 100,00 %
01.05.2017 02:14 6,2 C 10,6 C 76 % 1008,1 hPa 0,0 l/m 6,2 km/h (2 Bft) NO 55 0 min 0,000 mm 0,0 UV-I 0 W/m 2,3 C 6,2 C 11,3 km/h (2 Bft) 100,00 %
01.05.2017 02:16 6,2 C 10,6 C 76 % 1008,1 hPa 0,0 l/m 5,4 km/h (1 Bft) O-NO 65 0 min 0,000 mm 0,0 UV-I 0 W/m 2,3 C 6,2 C 9,7 km/h (2 Bft) 100,00 %
01.05.2017 02:18 6,2 C 10,6 C 76 % 1008,1 hPa 0,0 l/m 5,9 km/h (2 Bft) NO 53 0 min 0,000 mm 0,0 UV-I 0 W/m 2,3 C 6,2 C 12,9 km/h (3 Bft) 100,00 %
01.05.2017 02:20 6,2 C 10,6 C 76 % 1008,0 hPa 0,0 l/m 7,1 km/h (2 Bft) O-NO 65 0 min 0,000 mm 0,0 UV-I 0 W/m 2,3 C 5,6 C 9,7 km/h (2 Bft) 100,00 %
01.05.2017 02:22 6,2 C 10,6 C 76 % 1008,0 hPa 0,0 l/m 6,0 km/h (2 Bft) NO 43 0 min 0,000 mm 0,0 UV-I 0 W/m 2,3 C 6,2 C 8,0 km/h (2 Bft) 100,00 %
01.05.2017 02:24 6,1 C 10,6 C 76 % 1008,0 hPa 0,0 l/m 6,6 km/h (2 Bft) NO 51 0 min 0,000 mm 0,0 UV-I 0 W/m 2,2 C 6,0 C 9,7 km/h (2 Bft) 97,56 %
01.05.2017 02:26 5,9 C 10,6 C 77 % 1008,0 hPa 0,0 l/m 6,7 km/h (2 Bft) NO 43 0 min 0,000 mm 0,0 UV-I 0 W/m 2,2 C 5,7 C 9,7 km/h (2 Bft) 100,00 %
01.05.2017 02:28 5,9 C 10,6 C 77 % 1008,0 hPa 0,0 l/m 6,6 km/h (2 Bft) NO 55 0 min 0,000 mm 0,0 UV-I 0 W/m 2,2 C 5,8 C 9,7 km/h (2 Bft) 97,37 %
01.05.2017 02:30 5,9 C 10,6 C 77 % 1008,0 hPa 0,0 l/m 6,4 km/h (2 Bft) O-NO 58 0 min 0,000 mm 0,0 UV-I 0 W/m 2,2 C 5,9 C 9,7 km/h (2 Bft) 100,00 %
01.05.2017 02:32 5,9 C 10,6 C 77 % 1007,9 hPa 0,0 l/m 7,6 km/h (2 Bft) O-NO 65 0 min 0,000 mm 0,0 UV-I 0 W/m 2,2 C 4,9 C 9,7 km/h (2 Bft) 98,00 %
01.05.2017 02:34 6,1 C 10,6 C 76 % 1007,9 hPa 0,0 l/m 6,7 km/h (2 Bft) NO 55 0 min 0,000 mm 0,0 UV-I 0 W/m 2,2 C 5,9 C 9,7 km/h (2 Bft) 96,00 %
01.05.2017 02:36 6,1 C 10,6 C 76 % 1007,9 hPa 0,0 l/m 6,6 km/h (2 Bft) NO 53 0 min 0,000 mm 0,0 UV-I 0 W/m 2,2 C 6,0 C 9,7 km/h (2 Bft) 100,00 %
01.05.2017 02:38 6,1 C 10,6 C 76 % 1007,9 hPa 0,0 l/m 8,6 km/h (2 Bft) O-NO 69 0 min 0,000 mm 0,0 UV-I 0 W/m 2,2 C 4,3 C 11,3 km/h (2 Bft) 100,00 %
01.05.2017 02:40 6,0 C 10,6 C 76 % 1007,8 hPa 0,0 l/m 7,7 km/h (2 Bft) NO 55 0 min 0,000 mm 0,0 UV-I 0 W/m 2,1 C 4,9 C 12,9 km/h (3 Bft) 96,61 %
01.05.2017 02:42 6,1 C 10,6 C 76 % 1007,8 hPa 0,0 l/m 6,5 km/h (2 Bft) O-NO 64 0 min 0,000 mm 0,0 UV-I 0 W/m 2,2 C 6,0 C 9,7 km/h (2 Bft) 95,12 %
01.05.2017 02:44 6,1 C 10,6 C 76 % 1007,8 hPa 0,0 l/m 7,1 km/h (2 Bft) O-NO 60 0 min 0,000 mm 0,0 UV-I 0 W/m 2,2 C 5,5 C 9,7 km/h (2 Bft) 100,00 %
01.05.2017 02:46 6,1 C 10,6 C 76 % 1007,9 hPa 0,0 l/m 6,4 km/h (2 Bft) O-NO 60 0 min 0,000 mm 0,0 UV-I 0 W/m 2,2 C 6,1 C 8,0 km/h (2 Bft) 97,87 %
01.05.2017 02:48 6,1 C 10,6 C 76 % 1007,8 hPa 0,0 l/m 6,0 km/h (2 Bft) O-NO 57 0 min 0,000 mm 0,0 UV-I 0 W/m 2,2 C 6,1 C 8,0 km/h (2 Bft) 100,00 %
01.05.2017 02:50 6,0 C 10,6 C 76 % 1007,8 hPa 0,0 l/m 5,7 km/h (1 Bft) NO 51 0 min 0,000 mm 0,0 UV-I 0 W/m 2,1 C 6,0 C 8,0 km/h (2 Bft) 97,56 %
01.05.2017 02:52 5,9 C 10,6 C 76 % 1007,8 hPa 0,0 l/m 5,6 km/h (1 Bft) NO 53 0 min 0,000 mm 0,0 UV-I 0 W/m 2,0 C 5,9 C 6,4 km/h (2 Bft) 98,00 %
01.05.2017 02:54 5,8 C 10,6 C 76 % 1007,8 hPa 0,0 l/m 6,2 km/h (2 Bft) NO 50 0 min 0,000 mm 0,0 UV-I 0 W/m 1,9 C 5,8 C 8,0 km/h (2 Bft) 100,00 %
01.05.2017 02:56 5,8 C 10,6 C 76 % 1007,8 hPa 0,0 l/m 6,3 km/h (2 Bft) NO 50 0 min 0,000 mm 0,0 UV-I 0 W/m 1,9 C 5,8 C 8,0 km/h (2 Bft) 100,00 %
01.05.2017 02:58 5,8 C 10,6 C 76 % 1007,7 hPa 0,0 l/m 6,6 km/h (2 Bft) NO 49 0 min 0,000 mm 0,0 UV-I 0 W/m 1,9 C 5,7 C 9,7 km/h (2 Bft) 100,00 %
01.05.2017 03:00 5,8 C 10,6 C 76 % 1007,8 hPa 0,0 l/m 5,7 km/h (1 Bft) O-NO 61 0 min 0,000 mm 0,0 UV-I 0 W/m 1,9 C 5,8 C 8,0 km/h (2 Bft) 100,00 %
01.05.2017 03:02 5,8 C 10,6 C 76 % 1007,8 hPa 0,0 l/m 7,5 km/h (2 Bft) O-NO 57 0 min 0,026 mm 0,0 UV-I 0 W/m 1,9 C 4,9 C 9,7 km/h (2 Bft) 100,00 %
01.05.2017 03:04 5,9 C 10,6 C 76 % 1007,8 hPa 0,0 l/m 6,4 km/h (2 Bft) O-NO 61 0 min 0,000 mm 0,0 UV-I 0 W/m 2,0 C 5,9 C 8,0 km/h (2 Bft) 97,73 %
01.05.2017 03:06 5,8 C 10,6 C 76 % 1007,7 hPa 0,0 l/m 5,5 km/h (1 Bft) NO 55 0 min 0,000 mm 0,0 UV-I 0 W/m 1,9 C 5,8 C 8,0 km/h (2 Bft) 96,00 %
01.05.2017 03:08 5,8 C 10,6 C 76 % 1007,7 hPa 0,0 l/m 6,2 km/h (2 Bft) O-NO 57 0 min 0,000 mm 0,0 UV-I 0 W/m 1,9 C 5,8 C 8,0 km/h (2 Bft) 92,68 %
01.05.2017 03:10 5,8 C 10,6 C 76 % 1007,7 hPa 0,0 l/m 6,5 km/h (2 Bft) O-NO 60 0 min 0,000 mm 0,0 UV-I 0 W/m 1,9 C 5,7 C 11,3 km/h (2 Bft) 90,00 %
01.05.2017 03:12 5,8 C 10,6 C 76 % 1007,7 hPa 0,0 l/m 6,8 km/h (2 Bft) O-NO 65 0 min 0,000 mm 0,0 UV-I 0 W/m 1,9 C 5,5 C 9,7 km/h (2 Bft) 94,00 %
01.05.2017 03:14 5,8 C 10,6 C 76 % 1007,8 hPa 0,0 l/m 7,6 km/h (2 Bft) O-NO 63 0 min 0,000 mm 0,0 UV-I 0 W/m 1,9 C 4,8 C 12,9 km/h (3 Bft) 95,12 %
01.05.2017 03:16 5,9 C 10,6 C 76 % 1007,7 hPa 0,0 l/m 7,3 km/h (2 Bft) O-NO 58 0 min 0,000 mm 0,0 UV-I 0 W/m 2,0 C 5,1 C 9,7 km/h (2 Bft) 92,45 %
01.05.2017 03:18 5,9 C 10,6 C 76 % 1007,7 hPa 0,0 l/m 7,0 km/h (2 Bft) O-NO 63 0 min 0,000 mm 0,0 UV-I 0 W/m 2,0 C 5,4 C 9,7 km/h (2 Bft) 93,18 %
01.05.2017 03:20 5,9 C 10,6 C 76 % 1007,7 hPa 0,0 l/m 6,2 km/h (2 Bft) NO 38 0 min 0,000 mm 0,0 UV-I 0 W/m 2,0 C 5,9 C 8,0 km/h (2 Bft) 94,00 %
01.05.2017 03:22 5,9 C 10,6 C 76 % 1007,7 hPa 0,0 l/m 7,6 km/h (2 Bft) O-NO 63 0 min 0,000 mm 0,0 UV-I 0 W/m 2,0 C 4,9 C 9,7 km/h (2 Bft) 94,74 %
01.05.2017 03:24 5,9 C 10,6 C 76 % 1007,7 hPa 0,0 l/m 7,5 km/h (2 Bft) O-NO 65 0 min 0,000 mm 0,0 UV-I 0 W/m 2,0 C 5,0 C 12,9 km/h (3 Bft) 92,45 %
01.05.2017 03:26 5,9 C 10,6 C 76 % 1007,6 hPa 0,0 l/m 6,2 km/h (2 Bft) O-NO 60 0 min 0,000 mm 0,0 UV-I 0 W/m 2,0 C 5,9 C 8,0 km/h (2 Bft) 90,24 %
01.05.2017 03:28 5,8 C 10,6 C 76 % 1007,6 hPa 0,0 l/m 7,8 km/h (2 Bft) NO 53 0 min 0,000 mm 0,0 UV-I 0 W/m 1,9 C 4,6 C 11,3 km/h (2 Bft) 93,62 %
01.05.2017 03:30 5,8 C 10,6 C 76 % 1007,6 hPa 0,0 l/m 7,5 km/h (2 Bft) NO 50 0 min 0,000 mm 0,0 UV-I 0 W/m 1,9 C 4,9 C 11,3 km/h (2 Bft) 95,74 %
01.05.2017 03:32 5,8 C 10,6 C 76 % 1007,6 hPa 0,0 l/m 7,8 km/h (2 Bft) O-NO 58 0 min 0,000 mm 0,0 UV-I 0 W/m 1,9 C 4,6 C 9,7 km/h (2 Bft) 92,45 %
01.05.2017 03:34 5,8 C 10,6 C 76 % 1007,6 hPa 0,0 l/m 7,0 km/h (2 Bft) O-NO 63 0 min 0,000 mm 0,0 UV-I 0 W/m 1,9 C 5,3 C 12,9 km/h (3 Bft) 96,00 %
01.05.2017 03:36 5,8 C 10,6 C 76 % 1007,5 hPa 0,0 l/m 6,9 km/h (2 Bft) O-NO 71 0 min 0,000 mm 0,0 UV-I 0 W/m 1,9 C 5,4 C 8,0 km/h (2 Bft) 100,00 %
01.05.2017 03:38 5,8 C 10,6 C 76 % 1007,6 hPa 0,0 l/m 5,7 km/h (1 Bft) O-NO 64 0 min 0,000 mm 0,0 UV-I 0 W/m 1,9 C 5,8 C 8,0 km/h (2 Bft) 95,52 %
01.05.2017 03:40 5,8 C 10,6 C 76 % 1007,6 hPa 0,0 l/m 6,2 km/h (2 Bft) NO 50 0 min 0,000 mm 0,0 UV-I 0 W/m 1,9 C 5,8 C 8,0 km/h (2 Bft) 94,00 %
01.05.2017 03:42 5,8 C 10,6 C 76 % 1007,5 hPa 0,0 l/m 7,0 km/h (2 Bft) NO 51 0 min 0,000 mm 0,0 UV-I 0 W/m 1,9 C 5,3 C 9,7 km/h (2 Bft) 94,44 %
01.05.2017 03:44 5,8 C 10,6 C 76 % 1007,6 hPa 0,0 l/m 5,9 km/h (2 Bft) O-NO 57 0 min 0,000 mm 0,0 UV-I 0 W/m 1,9 C 5,8 C 8,0 km/h (2 Bft) 98,00 %
01.05.2017 03:46 5,8 C 10,6 C 76 % 1007,6 hPa 0,0 l/m 5,4 km/h (1 Bft) NO 54 0 min 0,000 mm 0,0 UV-I 0 W/m 1,9 C 5,8 C 6,4 km/h (2 Bft) 95,74 %
01.05.2017 03:48 5,8 C 10,6 C 76 % 1007,5 hPa 0,0 l/m 5,7 km/h (1 Bft) O-NO 61 0 min 0,000 mm 0,0 UV-I 0 W/m 1,9 C 5,8 C 8,0 km/h (2 Bft) 95,74 %
01.05.2017 03:50 5,7 C 10,6 C 76 % 1007,5 hPa 0,0 l/m 5,4 km/h (1 Bft) O-NO 59 0 min 0,000 mm 0,0 UV-I 0 W/m 1,8 C 5,7 C 8,0 km/h (2 Bft) 96,00 %
01.05.2017 03:52 5,7 C 10,6 C 76 % 1007,5 hPa 0,0 l/m 6,1 km/h (2 Bft) NO 53 0 min 0,000 mm 0,0 UV-I 0 W/m 1,8 C 5,7 C 9,7 km/h (2 Bft) 94,00 %
01.05.2017 03:54 5,7 C 10,6 C 76 % 1007,5 hPa 0,0 l/m 5,2 km/h (1 Bft) NO 51 0 min 0,000 mm 0,0 UV-I 0 W/m 1,8 C 5,7 C 8,0 km/h (2 Bft) 100,00 %
01.05.2017 03:56 5,7 C 10,6 C 76 % 1007,5 hPa 0,0 l/m 5,8 km/h (2 Bft) O-NO 57 0 min 0,000 mm 0,0 UV-I 0 W/m 1,8 C 5,7 C 8,0 km/h (2 Bft) 93,62 %
01.05.2017 03:58 5,6 C 10,6 C 76 % 1007,5 hPa 0,0 l/m 6,2 km/h (2 Bft) O-NO 61 0 min 0,000 mm 0,0 UV-I 0 W/m 1,7 C 5,6 C 8,0 km/h (2 Bft) 96,43 %
01.05.2017 04:00 5,5 C 10,6 C 77 % 1007,5 hPa 0,0 l/m 7,6 km/h (2 Bft) NO 56 0 min 0,025 mm 0,0 UV-I 0 W/m 1,8 C 4,5 C 12,9 km/h (3 Bft) 97,87 %
01.05.2017 04:02 5,5 C 10,6 C 77 % 1007,4 hPa 0,0 l/m 7,8 km/h (2 Bft) NO 55 0 min 0,000 mm 0,0 UV-I 0 W/m 1,8 C 4,3 C 12,9 km/h (3 Bft) 100,00 %
01.05.2017 04:04 5,5 C 10,6 C 77 % 1007,3 hPa 0,0 l/m 8,6 km/h (2 Bft) NO 53 0 min 0,000 mm 0,0 UV-I 0 W/m 1,8 C 3,7 C 11,3 km/h (2 Bft) 95,74 %
01.05.2017 04:06 5,5 C 10,6 C 77 % 1007,3 hPa 0,0 l/m 6,6 km/h (2 Bft) O-NO 57 0 min 0,000 mm 0,0 UV-I 0 W/m 1,8 C 5,3 C 9,7 km/h (2 Bft) 100,00 %
01.05.2017 04:08 5,4 C 10,6 C 77 % 1007,3 hPa 0,0 l/m 5,2 km/h (1 Bft) O-NO 64 0 min 0,000 mm 0,0 UV-I 0 W/m 1,7 C 5,4 C 9,7 km/h (2 Bft) 100,00 %
01.05.2017 04:10 5,4 C 10,6 C 77 % 1007,3 hPa 0,0 l/m 6,2 km/h (2 Bft) O-NO 58 0 min 0,000 mm 0,0 UV-I 0 W/m 1,7 C 5,4 C 8,0 km/h (2 Bft) 95,74 %
01.05.2017 04:12 5,3 C 10,6 C 77 % 1007,4 hPa 0,0 l/m 6,4 km/h (2 Bft) NO 52 0 min 0,000 mm 0,0 UV-I 0 W/m 1,6 C 5,3 C 9,7 km/h (2 Bft) 100,00 %
01.05.2017 04:14 5,3 C 10,6 C 78 % 1007,3 hPa 0,0 l/m 7,2 km/h (2 Bft) O-NO 59 0 min 0,000 mm 0,0 UV-I 0 W/m 1,8 C 4,6 C 9,7 km/h (2 Bft) 98,51 %
01.05.2017 04:16 5,2 C 10,6 C 78 % 1007,3 hPa 0,0 l/m 6,6 km/h (2 Bft) O 80 0 min 0,000 mm 0,0 UV-I 0 W/m 1,7 C 5,0 C 8,0 km/h (2 Bft) 100,00 %
01.05.2017 04:18 5,2 C 10,6 C 78 % 1007,3 hPa 0,0 l/m 6,6 km/h (2 Bft) O-NO 58 0 min 0,000 mm 0,0 UV-I 0 W/m 1,7 C 5,0 C 8,0 km/h (2 Bft) 96,00 %
01.05.2017 04:20 5,2 C 10,6 C 78 % 1007,3 hPa 0,0 l/m 6,9 km/h (2 Bft) O-NO 65 0 min 0,000 mm 0,0 UV-I 0 W/m 1,7 C 4,8 C 9,7 km/h (2 Bft) 100,00 %
01.05.2017 04:22 5,2 C 10,6 C 78 % 1007,3 hPa 0,0 l/m 5,8 km/h (2 Bft) NO 53 0 min 0,000 mm 0,0 UV-I 0 W/m 1,7 C 5,2 C 8,0 km/h (2 Bft) 98,11 %
01.05.2017 04:24 5,1 C 10,6 C 78 % 1007,3 hPa 0,0 l/m 5,5 km/h (1 Bft) NO 49 0 min 0,000 mm 0,0 UV-I 0 W/m 1,6 C 5,1 C 6,4 km/h (2 Bft) 93,62 %
01.05.2017 04:26 5,0 C 10,6 C 79 % 1007,3 hPa 0,0 l/m 5,3 km/h (1 Bft) NO 49 0 min 0,000 mm 0,0 UV-I 0 W/m 1,7 C 5,0 C 6,4 km/h (2 Bft) 97,56 %
01.05.2017 04:28 4,9 C 10,6 C 79 % 1007,3 hPa 0,0 l/m 5,3 km/h (1 Bft) NO 50 0 min 0,000 mm 0,0 UV-I 0 W/m 1,6 C 4,9 C 8,0 km/h (2 Bft) 100,00 %
01.05.2017 04:30 4,9 C 10,6 C 79 % 1007,3 hPa 0,0 l/m 5,2 km/h (1 Bft) NO 55 0 min 0,000 mm 0,0 UV-I 0 W/m 1,6 C 4,9 C 8,0 km/h (2 Bft) 97,87 %
01.05.2017 04:32 4,9 C 10,6 C 79 % 1007,3 hPa 0,0 l/m 4,8 km/h (1 Bft) NO 55 0 min 0,000 mm 0,0 UV-I 0 W/m 1,6 C 4,9 C 6,4 km/h (2 Bft) 100,00 %
01.05.2017 04:34 5,1 C 10,6 C 79 % 1007,3 hPa 0,0 l/m 5,0 km/h (1 Bft) NO 55 0 min 0,000 mm 0,0 UV-I 0 W/m 1,8 C 5,1 C 6,4 km/h (2 Bft) 97,87 %
01.05.2017 04:36 5,0 C 10,6 C 79 % 1007,3 hPa 0,0 l/m 5,4 km/h (1 Bft) O-NO 63 0 min 0,000 mm 0,0 UV-I 0 W/m 1,7 C 5,0 C 8,0 km/h (2 Bft) 98,00 %
01.05.2017 04:38 4,9 C 10,6 C 79 % 1007,3 hPa 0,0 l/m 5,0 km/h (1 Bft) O-NO 62 0 min 0,000 mm 0,0 UV-I 0 W/m 1,6 C 4,9 C 8,0 km/h (2 Bft) 100,00 %
01.05.2017 04:40 4,9 C 10,6 C 79 % 1007,3 hPa 0,0 l/m 7,0 km/h (2 Bft) O-NO 59 0 min 0,000 mm 0,0 UV-I 0 W/m 1,6 C 4,4 C 9,7 km/h (2 Bft) 98,11 %
01.05.2017 04:42 5,0 C 10,6 C 79 % 1007,3 hPa 0,0 l/m 7,5 km/h (2 Bft) O-NO 69 0 min 0,000 mm 0,0 UV-I 0 W/m 1,7 C 4,0 C 11,3 km/h (2 Bft) 100,00 %
01.05.2017 04:44 5,1 C 10,6 C 79 % 1007,3 hPa 0,0 l/m 6,9 km/h (2 Bft) O-NO 59 0 min 0,000 mm 0,0 UV-I 0 W/m 1,8 C 4,7 C 9,7 km/h (2 Bft) 98,08 %
01.05.2017 04:46 5,1 C 10,6 C 78 % 1007,2 hPa 0,0 l/m 6,0 km/h (2 Bft) O-NO 61 0 min 0,000 mm 0,0 UV-I 0 W/m 1,6 C 5,1 C 8,0 km/h (2 Bft) 100,00 %
01.05.2017 04:48 5,1 C 10,6 C 79 % 1007,2 hPa 0,0 l/m 5,8 km/h (2 Bft) O-NO 57 0 min 0,000 mm 0,0 UV-I 0 W/m 1,8 C 5,1 C 6,4 km/h (2 Bft) 98,00 %
01.05.2017 04:50 5,1 C 10,6 C 79 % 1007,2 hPa 0,0 l/m 6,1 km/h (2 Bft) O-NO 57 0 min 0,000 mm 0,0 UV-I 0 W/m 1,8 C 5,1 C 8,0 km/h (2 Bft) 97,56 %
01.05.2017 04:52 5,1 C 10,6 C 79 % 1007,2 hPa 0,0 l/m 5,8 km/h (2 Bft) O-NO 59 0 min 0,000 mm 0,0 UV-I 0 W/m 1,8 C 5,1 C 8,0 km/h (2 Bft) 100,00 %
01.05.2017 04:54 4,9 C 10,6 C 79 % 1007,2 hPa 0,0 l/m 4,9 km/h (1 Bft) NO 51 0 min 0,000 mm 0,0 UV-I 0 W/m 1,6 C 4,9 C 6,4 km/h (2 Bft) 100,00 %
01.05.2017 04:56 4,9 C 10,6 C 79 % 1007,1 hPa 0,0 l/m 6,4 km/h (2 Bft) O-NO 60 0 min 0,000 mm 0,0 UV-I 0 W/m 1,6 C 4,9 C 8,0 km/h (2 Bft) 95,92 %
01.05.2017 04:58 4,9 C 10,6 C 79 % 1007,1 hPa 0,0 l/m 7,6 km/h (2 Bft) NO 55 0 min 0,000 mm 0,0 UV-I 0 W/m 1,6 C 3,8 C 9,7 km/h (2 Bft) 98,00 %
01.05.2017 05:00 5,0 C 10,6 C 79 % 1007,1 hPa 0,0 l/m 6,4 km/h (2 Bft) O-NO 59 0 min 0,025 mm 0,0 UV-I 0 W/m 1,7 C 5,0 C 8,0 km/h (2 Bft) 97,44 %
01.05.2017 05:02 5,0 C 10,6 C 79 % 1007,1 hPa 0,0 l/m 7,6 km/h (2 Bft) NO 55 0 min 0,000 mm 0,0 UV-I 0 W/m 1,7 C 3,9 C 9,7 km/h (2 Bft) 98,11 %
01.05.2017 05:04 5,0 C 10,6 C 79 % 1007,1 hPa 0,0 l/m 6,5 km/h (2 Bft) O-NO 61 0 min 0,000 mm 0,0 UV-I 0 W/m 1,7 C 4,9 C 9,7 km/h (2 Bft) 100,00 %
01.05.2017 05:06 5,1 C 10,6 C 79 % 1007,1 hPa 0,0 l/m 6,6 km/h (2 Bft) O-NO 63 0 min 0,000 mm 0,0 UV-I 0 W/m 1,8 C 4,9 C 8,0 km/h (2 Bft) 98,00 %
01.05.2017 05:08 5,1 C 10,6 C 79 % 1007,0 hPa 0,0 l/m 6,5 km/h (2 Bft) O-NO 65 0 min 0,000 mm 0,0 UV-I 0 W/m 1,8 C 5,0 C 9,7 km/h (2 Bft) 98,00 %
01.05.2017 05:10 5,1 C 10,6 C 79 % 1007,0 hPa 0,0 l/m 6,0 km/h (2 Bft) O-NO 59 0 min 0,000 mm 0,0 UV-I 0 W/m 1,8 C 5,1 C 8,0 km/h (2 Bft) 100,00 %
01.05.2017 05:12 5,1 C 10,6 C 79 % 1007,0 hPa 0,0 l/m 6,8 km/h (2 Bft) O-NO 57 0 min 0,000 mm 0,0 UV-I 0 W/m 1,8 C 4,8 C 9,7 km/h (2 Bft) 97,37 %
01.05.2017 05:14 5,1 C 10,6 C 79 % 1007,1 hPa 0,0 l/m 7,3 km/h (2 Bft) NO 55 0 min 0,000 mm 0,0 UV-I 0 W/m 1,8 C 4,3 C 9,7 km/h (2 Bft) 97,87 %
01.05.2017 05:16 5,0 C 10,6 C 79 % 1007,1 hPa 0,0 l/m 6,1 km/h (2 Bft) O-NO 60 0 min 0,000 mm 0,0 UV-I 0 W/m 1,7 C 5,0 C 8,0 km/h (2 Bft) 97,87 %
01.05.2017 05:18 5,0 C 10,6 C 79 % 1007,1 hPa 0,0 l/m 4,4 km/h (1 Bft) O-NO 60 0 min 0,000 mm 0,0 UV-I 0 W/m 1,7 C 5,0 C 8,0 km/h (2 Bft) 94,00 %
01.05.2017 05:20 4,9 C 10,6 C 79 % 1007,1 hPa 0,0 l/m 3,7 km/h (1 Bft) O-NO 60 0 min 0,000 mm 0,0 UV-I 0 W/m 1,6 C 4,9 C 4,8 km/h (1 Bft) 95,74 %
01.05.2017 05:22 4,8 C 10,6 C 79 % 1007,1 hPa 0,0 l/m 3,8 km/h (1 Bft) O-NO 60 0 min 0,000 mm 0,0 UV-I 0 W/m 1,5 C 4,8 C 4,8 km/h (1 Bft) 98,04 %
01.05.2017 05:24 4,7 C 10,6 C 80 % 1007,1 hPa 0,0 l/m 4,2 km/h (1 Bft) O-NO 60 0 min 0,000 mm 0,0 UV-I 0 W/m 1,6 C 4,7 C 4,8 km/h (1 Bft) 95,12 %
01.05.2017 05:26 4,6 C 10,6 C 80 % 1007,1 hPa 0,0 l/m 4,4 km/h (1 Bft) O-NO 60 0 min 0,000 mm 0,0 UV-I 0 W/m 1,5 C 4,6 C 6,4 km/h (2 Bft) 98,00 %
01.05.2017 05:28 4,7 C 10,0 C 80 % 1007,1 hPa 0,0 l/m 5,8 km/h (2 Bft) O-NO 60 0 min 0,000 mm 0,0 UV-I 0 W/m 1,6 C 4,7 C 6,4 km/h (2 Bft) 96,00 %
01.05.2017 05:30 4,7 C 10,6 C 80 % 1007,1 hPa 0,0 l/m 4,8 km/h (1 Bft) O-NO 60 0 min 0,000 mm 0,0 UV-I 4 W/m 1,6 C 4,7 C 6,4 km/h (2 Bft) 97,22 %
01.05.2017 05:32 4,6 C 10,6 C 80 % 1007,1 hPa 0,0 l/m 4,5 km/h (1 Bft) O-NO 58 0 min 0,000 mm 0,0 UV-I 5 W/m 1,5 C 4,6 C 6,4 km/h (2 Bft) 98,00 %
01.05.2017 05:34 4,6 C 10,6 C 80 % 1007,0 hPa 0,0 l/m 4,6 km/h (1 Bft) O-NO 59 0 min 0,000 mm 0,0 UV-I 5 W/m 1,5 C 4,6 C 6,4 km/h (2 Bft) 98,00 %
01.05.2017 05:36 4,6 C 10,6 C 80 % 1007,0 hPa 0,0 l/m 5,8 km/h (2 Bft) O-NO 62 0 min 0,000 mm 0,0 UV-I 6 W/m 1,5 C 4,6 C 8,0 km/h (2 Bft) 94,23 %
01.05.2017 05:38 4,7 C 10,6 C 80 % 1007,0 hPa 0,0 l/m 5,8 km/h (2 Bft) O-NO 58 0 min 0,000 mm 0,0 UV-I 7 W/m 1,6 C 4,7 C 8,0 km/h (2 Bft) 97,62 %
01.05.2017 05:40 4,7 C 10,0 C 80 % 1007,0 hPa 0,0 l/m 6,0 km/h (2 Bft) O-NO 62 0 min 0,000 mm 0,0 UV-I 7 W/m 1,6 C 4,7 C 8,0 km/h (2 Bft) 97,87 %
01.05.2017 05:42 4,6 C 10,0 C 80 % 1007,0 hPa 0,0 l/m 7,2 km/h (2 Bft) O-NO 70 0 min 0,000 mm 0,0 UV-I 8 W/m 1,5 C 3,9 C 9,7 km/h (2 Bft) 93,62 %
01.05.2017 05:44 4,5 C 10,0 C 80 % 1007,1 hPa 0,0 l/m 6,9 km/h (2 Bft) O-NO 67 0 min 0,000 mm 0,0 UV-I 9 W/m 1,4 C 4,1 C 8,0 km/h (2 Bft) 96,00 %
01.05.2017 05:46 4,3 C 10,0 C 81 % 1007,1 hPa 0,0 l/m 6,3 km/h (2 Bft) O-NO 69 0 min 0,000 mm 0,0 UV-I 10 W/m 1,3 C 4,3 C 9,7 km/h (2 Bft) 95,74 %
01.05.2017 05:48 4,2 C 10,6 C 82 % 1007,1 hPa 0,0 l/m 5,5 km/h (1 Bft) O-NO 69 0 min 0,000 mm 0,0 UV-I 11 W/m 1,4 C 4,2 C 8,0 km/h (2 Bft) 95,74 %
01.05.2017 05:50 4,2 C 10,0 C 82 % 1007,0 hPa 0,0 l/m 4,8 km/h (1 Bft) NO 55 0 min 0,000 mm 0,0 UV-I 12 W/m 1,4 C 4,2 C 6,4 km/h (2 Bft) 97,87 %
01.05.2017 05:52 4,3 C 10,0 C 82 % 1007,0 hPa 0,0 l/m 6,3 km/h (2 Bft) O-NO 59 0 min 0,000 mm 0,0 UV-I 13 W/m 1,5 C 4,3 C 9,7 km/h (2 Bft) 100,00 %
01.05.2017 05:54 4,4 C 10,0 C 82 % 1007,0 hPa 0,0 l/m 7,0 km/h (2 Bft) O-NO 67 0 min 0,000 mm 0,0 UV-I 14 W/m 1,6 C 3,9 C 9,7 km/h (2 Bft) 97,56 %
01.05.2017 05:56 4,6 C 10,0 C 81 % 1007,0 hPa 0,0 l/m 5,7 km/h (1 Bft) O-NO 59 2 min 0,000 mm 0,0 UV-I 15 W/m 1,6 C 4,6 C 8,0 km/h (2 Bft) 96,00 %
01.05.2017 05:58 4,6 C 10,0 C 81 % 1007,0 hPa 0,0 l/m 5,6 km/h (1 Bft) NO 43 2 min 0,000 mm 0,0 UV-I 16 W/m 1,6 C 4,6 C 8,0 km/h (2 Bft) 100,00 %
01.05.2017 06:00 4,5 C 10,0 C 81 % 1007,0 hPa 0,0 l/m 5,7 km/h (1 Bft) O-NO 63 2 min 0,026 mm 0,0 UV-I 21 W/m 1,5 C 4,5 C 8,0 km/h (2 Bft) 97,87 %
01.05.2017 06:02 4,5 C 10,0 C 81 % 1006,9 hPa 0,0 l/m 4,6 km/h (1 Bft) O-NO 59 2 min 0,000 mm 0,0 UV-I 31 W/m 1,5 C 4,5 C 6,4 km/h (2 Bft) 97,37 %
01.05.2017 06:04 4,5 C 10,0 C 81 % 1006,9 hPa 0,0 l/m 5,1 km/h (1 Bft) O-NO 58 2 min 0,000 mm 0,0 UV-I 33 W/m 1,5 C 4,5 C 8,0 km/h (2 Bft) 100,00 %
01.05.2017 06:06 4,5 C 10,0 C 81 % 1006,9 hPa 0,0 l/m 4,9 km/h (1 Bft) O-NO 67 2 min 0,000 mm 0,0 UV-I 38 W/m 1,5 C 4,5 C 6,4 km/h (2 Bft) 98,11 %
01.05.2017 06:08 4,4 C 10,0 C 81 % 1006,9 hPa 0,0 l/m 6,3 km/h (2 Bft) O-NO 65 2 min 0,000 mm 0,0 UV-I 42 W/m 1,4 C 4,4 C 8,0 km/h (2 Bft) 100,00 %
01.05.2017 06:10 4,4 C 10,0 C 81 % 1006,9 hPa 0,0 l/m 5,2 km/h (1 Bft) O-NO 60 2 min 0,000 mm 0,0 UV-I 46 W/m 1,4 C 4,4 C 8,0 km/h (2 Bft) 97,14 %
01.05.2017 06:12 4,4 C 10,0 C 81 % 1006,9 hPa 0,0 l/m 5,3 km/h (1 Bft) O-NO 59 2 min 0,000 mm 0,0 UV-I 50 W/m 1,4 C 4,4 C 8,0 km/h (2 Bft) 100,00 %
01.05.2017 06:14 4,4 C 10,0 C 82 % 1006,9 hPa 0,0 l/m 5,8 km/h (2 Bft) O-NO 60 2 min 0,000 mm 0,0 UV-I 55 W/m 1,6 C 4,4 C 9,7 km/h (2 Bft) 100,00 %
01.05.2017 06:16 4,4 C 10,0 C 82 % 1006,9 hPa 0,0 l/m 6,4 km/h (2 Bft) O-NO 60 2 min 0,000 mm 0,0 UV-I 62 W/m 1,6 C 4,4 C 8,0 km/h (2 Bft) 98,00 %
01.05.2017 06:18 4,6 C 10,0 C 81 % 1006,9 hPa 0,0 l/m 7,1 km/h (2 Bft) O-NO 59 2 min 0,000 mm 0,0 UV-I 65 W/m 1,6 C 4,0 C 9,7 km/h (2 Bft) 95,45 %
01.05.2017 06:20 4,6 C 10,0 C 81 % 1006,8 hPa 0,0 l/m 6,9 km/h (2 Bft) O-NO 62 2 min 0,000 mm 0,0 UV-I 71 W/m 1,6 C 4,2 C 9,7 km/h (2 Bft) 98,00 %
01.05.2017 06:22 4,7 C 10,0 C 81 % 1006,8 hPa 0,0 l/m 7,6 km/h (2 Bft) O-NO 60 2 min 0,000 mm 0,0 UV-I 76 W/m 1,7 C 3,6 C 9,7 km/h (2 Bft) 94,00 %
01.05.2017 06:24 4,8 C 10,0 C 81 % 1006,8 hPa 0,0 l/m 7,2 km/h (2 Bft) O-NO 78 2 min 0,000 mm 0,0 UV-I 79 W/m 1,8 C 4,1 C 9,7 km/h (2 Bft) 97,87 %
01.05.2017 06:26 4,8 C 10,0 C 81 % 1006,8 hPa 0,0 l/m 7,4 km/h (2 Bft) O-NO 75 2 min 0,000 mm 0,0 UV-I 85 W/m 1,8 C 3,9 C 11,3 km/h (2 Bft) 92,11 %
01.05.2017 06:28 4,8 C 10,0 C 81 % 1006,8 hPa 0,0 l/m 7,9 km/h (2 Bft) O-NO 74 2 min 0,000 mm 0,0 UV-I 90 W/m 1,8 C 3,5 C 14,5 km/h (3 Bft) 100,00 %
01.05.2017 06:30 4,8 C 10,0 C 81 % 1006,9 hPa 0,0 l/m 8,6 km/h (2 Bft) NO 51 2 min 0,000 mm 0,0 UV-I 95 W/m 1,8 C 2,9 C 12,9 km/h (3 Bft) 100,00 %
01.05.2017 06:32 4,9 C 10,0 C 81 % 1006,9 hPa 0,0 l/m 9,0 km/h (2 Bft) O-NO 62 2 min 0,000 mm 0,0 UV-I 101 W/m 1,9 C 2,7 C 12,9 km/h (3 Bft) 92,68 %
01.05.2017 06:34 4,9 C 10,0 C 81 % 1006,9 hPa 0,0 l/m 8,7 km/h (2 Bft) O-NO 64 2 min 0,000 mm 0,0 UV-I 106 W/m 1,9 C 2,9 C 14,5 km/h (3 Bft) 100,00 %
01.05.2017 06:36 5,1 C 10,0 C 81 % 1006,9 hPa 0,0 l/m 4,6 km/h (1 Bft) NO 51 2 min 0,000 mm 0,0 UV-I 113 W/m 2,1 C 5,1 C 8,0 km/h (2 Bft) 95,12 %
01.05.2017 06:38 5,1 C 10,0 C 81 % 1006,9 hPa 0,0 l/m 5,5 km/h (1 Bft) O-NO 59 2 min 0,000 mm 0,0 UV-I 119 W/m 2,1 C 5,1 C 8,0 km/h (2 Bft) 96,43 %
01.05.2017 06:40 5,2 C 10,0 C 82 % 1007,0 hPa 0,0 l/m 4,2 km/h (1 Bft) O-NO 59 2 min 0,000 mm 0,0 UV-I 124 W/m 2,4 C 5,2 C 6,4 km/h (2 Bft) 93,62 %
01.05.2017 06:42 5,1 C 10,0 C 82 % 1007,0 hPa 0,0 l/m 3,4 km/h (1 Bft) NO 56 2 min 0,000 mm 0,0 UV-I 129 W/m 2,3 C 5,1 C 6,4 km/h (2 Bft) 100,00 %
01.05.2017 06:44 5,1 C 10,0 C 82 % 1006,9 hPa 0,0 l/m 5,5 km/h (1 Bft) NO 39 2 min 0,000 mm 0,0 UV-I 134 W/m 2,3 C 5,1 C 8,0 km/h (2 Bft) 97,87 %
01.05.2017 06:46 5,1 C 10,0 C 83 % 1006,9 hPa 0,0 l/m 4,8 km/h (1 Bft) NO 40 2 min 0,000 mm 0,0 UV-I 139 W/m 2,5 C 5,1 C 6,4 km/h (2 Bft) 94,00 %
01.05.2017 06:48 5,2 C 10,0 C 82 % 1006,9 hPa 0,0 l/m 4,1 km/h (1 Bft) NO 48 2 min 0,000 mm 0,0 UV-I 136 W/m 2,4 C 5,2 C 6,4 km/h (2 Bft) 95,74 %
01.05.2017 06:50 5,3 C 10,0 C 82 % 1007,0 hPa 0,0 l/m 3,9 km/h (1 Bft) NO 50 2 min 0,000 mm 0,0 UV-I 140 W/m 2,5 C 5,3 C 6,4 km/h (2 Bft) 87,23 %
01.05.2017 06:52 5,4 C 10,0 C 81 % 1007,0 hPa 0,0 l/m 3,9 km/h (1 Bft) NO 49 2 min 0,000 mm 0,0 UV-I 141 W/m 2,4 C 5,4 C 6,4 km/h (2 Bft) 95,56 %
01.05.2017 06:54 5,5 C 10,0 C 81 % 1006,9 hPa 0,0 l/m 4,6 km/h (1 Bft) NO 38 2 min 0,000 mm 0,0 UV-I 147 W/m 2,5 C 5,5 C 8,0 km/h (2 Bft) 93,88 %
01.05.2017 06:56 5,6 C 10,0 C 82 % 1006,9 hPa 0,0 l/m 6,4 km/h (2 Bft) NO 42 2 min 0,000 mm 0,0 UV-I 165 W/m 2,8 C 5,6 C 8,0 km/h (2 Bft) 89,58 %
01.05.2017 06:58 5,7 C 10,0 C 81 % 1006,9 hPa 0,0 l/m 4,6 km/h (1 Bft) NO 40 2 min 0,000 mm 0,0 UV-I 171 W/m 2,7 C 5,7 C 8,0 km/h (2 Bft) 93,62 %
01.05.2017 07:00 5,7 C 10,0 C 81 % 1006,9 hPa 0,0 l/m 4,4 km/h (1 Bft) NO 40 2 min 0,000 mm 0,0 UV-I 176 W/m 2,7 C 5,7 C 8,0 km/h (2 Bft) 87,23 %
01.05.2017 07:02 5,8 C 10,0 C 81 % 1006,9 hPa 0,0 l/m 5,1 km/h (1 Bft) NO 40 2 min 0,051 mm 0,0 UV-I 181 W/m 2,8 C 5,8 C 8,0 km/h (2 Bft) 94,00 %
01.05.2017 07:04 5,9 C 10,0 C 81 % 1007,0 hPa 0,0 l/m 6,8 km/h (2 Bft) NO 46 2 min 0,000 mm 0,0 UV-I 185 W/m 2,9 C 5,6 C 9,7 km/h (2 Bft) 100,00 %
01.05.2017 07:06 6,1 C 10,0 C 80 % 1006,9 hPa 0,0 l/m 6,7 km/h (2 Bft) NO 51 2 min 0,000 mm 0,0 UV-I 191 W/m 2,9 C 5,9 C 9,7 km/h (2 Bft) 91,53 %
01.05.2017 07:08 6,2 C 10,0 C 79 % 1006,9 hPa 0,0 l/m 7,4 km/h (2 Bft) NO 47 2 min 0,000 mm 0,0 UV-I 193 W/m 2,8 C 5,4 C 11,3 km/h (2 Bft) 86,84 %
01.05.2017 07:10 6,4 C 10,0 C 78 % 1006,9 hPa 0,0 l/m 7,0 km/h (2 Bft) O-NO 58 2 min 0,000 mm 0,0 UV-I 199 W/m 2,8 C 5,9 C 9,7 km/h (2 Bft) 98,11 %
01.05.2017 07:12 6,5 C 10,0 C 77 % 1006,9 hPa 0,0 l/m 8,0 km/h (2 Bft) O-NO 69 2 min 0,000 mm 0,0 UV-I 192 W/m 2,8 C 5,2 C 12,9 km/h (3 Bft) 92,00 %
01.05.2017 07:14 6,7 C 10,0 C 77 % 1006,9 hPa 0,0 l/m 4,3 km/h (1 Bft) O-NO 62 2 min 0,000 mm 0,0 UV-I 197 W/m 3,0 C 6,7 C 6,4 km/h (2 Bft) 94,74 %
01.05.2017 07:16 6,8 C 10,6 C 77 % 1007,0 hPa 0,0 l/m 6,0 km/h (2 Bft) NO 53 2 min 0,000 mm 0,0 UV-I 216 W/m 3,1 C 6,8 C 9,7 km/h (2 Bft) 96,43 %
01.05.2017 07:18 6,8 C 10,0 C 77 % 1007,0 hPa 0,0 l/m 4,7 km/h (1 Bft) O 80 2 min 0,000 mm 0,0 UV-I 215 W/m 3,1 C 6,8 C 6,4 km/h (2 Bft) 91,43 %
01.05.2017 07:20 6,9 C 10,0 C 77 % 1007,1 hPa 0,0 l/m 4,0 km/h (1 Bft) O-NO 59 2 min 0,000 mm 0,0 UV-I 190 W/m 3,2 C 6,9 C 6,4 km/h (2 Bft) 96,00 %
01.05.2017 07:22 7,0 C 10,0 C 76 % 1007,1 hPa 0,0 l/m 3,6 km/h (1 Bft) O-NO 64 2 min 0,000 mm 0,0 UV-I 174 W/m 3,1 C 7,0 C 6,4 km/h (2 Bft) 96,00 %
01.05.2017 07:24 7,1 C 10,0 C 76 % 1007,1 hPa 0,0 l/m 2,3 km/h (1 Bft) O-NO 64 2 min 0,000 mm 0,0 UV-I 188 W/m 3,2 C 7,1 C 3,2 km/h (1 Bft) 94,00 %
01.05.2017 07:26 7,1 C 10,0 C 76 % 1007,1 hPa 0,0 l/m 3,6 km/h (1 Bft) O-NO 64 2 min 0,000 mm 0,0 UV-I 147 W/m 3,2 C 7,1 C 4,8 km/h (1 Bft) 93,62 %
01.05.2017 07:28 7,1 C 10,0 C 75 % 1007,1 hPa 0,0 l/m 5,0 km/h (1 Bft) O-NO 61 0 min 0,000 mm 0,0 UV-I 140 W/m 3,0 C 7,1 C 8,0 km/h (2 Bft) 92,68 %
01.05.2017 07:30 7,2 C 10,0 C 75 % 1007,2 hPa 0,0 l/m 4,6 km/h (1 Bft) N-NO 31 2 min 0,000 mm 0,0 UV-I 199 W/m 3,1 C 7,2 C 6,4 km/h (2 Bft) 90,00 %
01.05.2017 07:32 7,2 C 10,0 C 77 % 1007,1 hPa 0,0 l/m 6,0 km/h (2 Bft) NO 49 2 min 0,000 mm 0,0 UV-I 212 W/m 3,4 C 7,2 C 9,7 km/h (2 Bft) 94,87 %
01.05.2017 07:34 7,3 C 10,0 C 75 % 1007,2 hPa 0,0 l/m 4,0 km/h (1 Bft) NO 49 2 min 0,000 mm 0,0 UV-I 214 W/m 3,2 C 7,3 C 6,4 km/h (2 Bft) 96,00 %
01.05.2017 07:36 7,4 C 10,6 C 75 % 1007,2 hPa 0,0 l/m 1,5 km/h (1 Bft) NO 49 2 min 0,000 mm 0,0 UV-I 249 W/m 3,3 C 7,4 C 3,2 km/h (1 Bft) 92,45 %
01.05.2017 07:38 7,5 C 10,0 C 75 % 1007,2 hPa 0,0 l/m 2,9 km/h (1 Bft) NO 49 2 min 0,000 mm 0,0 UV-I 277 W/m 3,4 C 7,5 C 4,8 km/h (1 Bft) 91,84 %
01.05.2017 07:40 7,7 C 10,0 C 75 % 1007,2 hPa 0,0 l/m 2,6 km/h (1 Bft) NO 49 2 min 0,000 mm 0,0 UV-I 293 W/m 3,6 C 7,7 C 4,8 km/h (1 Bft) 93,75 %
01.05.2017 07:42 7,8 C 10,6 C 74 % 1007,2 hPa 0,0 l/m 4,8 km/h (1 Bft) NO 51 2 min 0,000 mm 0,0 UV-I 307 W/m 3,5 C 7,8 C 8,0 km/h (2 Bft) 91,49 %
01.05.2017 07:44 7,9 C 10,0 C 74 % 1007,2 hPa 0,0 l/m 5,5 km/h (1 Bft) NO 36 2 min 0,000 mm 0,0 UV-I 313 W/m 3,6 C 7,9 C 8,0 km/h (2 Bft) 91,43 %
01.05.2017 07:46 8,1 C 10,6 C 74 % 1007,2 hPa 0,0 l/m 4,9 km/h (1 Bft) NO 38 2 min 0,000 mm 0,1 UV-I 320 W/m 3,8 C 8,1 C 6,4 km/h (2 Bft) 98,00 %
01.05.2017 07:48 8,2 C 10,6 C 74 % 1007,3 hPa 0,0 l/m 4,9 km/h (1 Bft) NO 55 2 min 0,000 mm 0,5 UV-I 326 W/m 3,8 C 8,2 C 8,0 km/h (2 Bft) 98,00 %
01.05.2017 07:50 8,3 C 10,0 C 72 % 1007,3 hPa 0,0 l/m 5,2 km/h (1 Bft) NO 46 2 min 0,000 mm 0,5 UV-I 313 W/m 3,6 C 8,3 C 9,7 km/h (2 Bft) 93,62 %
01.05.2017 07:52 8,4 C 10,0 C 72 % 1007,3 hPa 0,0 l/m 5,6 km/h (1 Bft) O-NO 61 2 min 0,000 mm 0,5 UV-I 276 W/m 3,7 C 8,4 C 8,0 km/h (2 Bft) 86,00 %
01.05.2017 07:54 8,4 C 10,0 C 72 % 1007,4 hPa 0,0 l/m 3,8 km/h (1 Bft) NO 44 2 min 0,000 mm 0,5 UV-I 204 W/m 3,7 C 8,4 C 6,4 km/h (2 Bft) 95,12 %
01.05.2017 07:56 8,4 C 10,0 C 72 % 1007,3 hPa 0,0 l/m 7,1 km/h (2 Bft) NO 55 0 min 0,000 mm 0,5 UV-I 165 W/m 3,7 C 7,9 C 9,7 km/h (2 Bft) 94,34 %
01.05.2017 07:58 8,3 C 10,0 C 71 % 1007,5 hPa 0,0 l/m 6,7 km/h (2 Bft) NO 46 0 min 0,000 mm 0,5 UV-I 168 W/m 3,4 C 8,1 C 9,7 km/h (2 Bft) 94,74 %
01.05.2017 08:00 8,3 C 10,0 C 71 % 1007,5 hPa 0,0 l/m 7,3 km/h (2 Bft) O-NO 63 2 min 0,101 mm 0,5 UV-I 209 W/m 3,4 C 7,6 C 11,3 km/h (2 Bft) 94,34 %
01.05.2017 08:02 8,3 C 10,6 C 72 % 1007,6 hPa 0,0 l/m 7,6 km/h (2 Bft) N-NO 26 2 min 0,000 mm 0,5 UV-I 289 W/m 3,6 C 7,4 C 14,5 km/h (3 Bft) 95,12 %
01.05.2017 08:04 8,4 C 10,6 C 70 % 1007,5 hPa 0,0 l/m 13,4 km/h (3 Bft) O-NO 64 2 min 0,000 mm 0,6 UV-I 259 W/m 3,3 C 3,9 C 17,7 km/h (3 Bft) 96,43 %
01.05.2017 08:06 8,4 C 10,6 C 70 % 1007,5 hPa 0,0 l/m 11,8 km/h (2 Bft) NO 53 2 min 0,000 mm 0,6 UV-I 319 W/m 3,3 C 4,8 C 16,1 km/h (3 Bft) 93,33 %
01.05.2017 08:08 8,6 C 10,6 C 70 % 1007,5 hPa 0,0 l/m 11,0 km/h (2 Bft) O-NO 78 2 min 0,000 mm 0,7 UV-I 375 W/m 3,4 C 5,5 C 17,7 km/h (3 Bft) 98,18 %
01.05.2017 08:10 8,7 C 10,6 C 71 % 1007,5 hPa 0,0 l/m 9,4 km/h (2 Bft) O-NO 67 2 min 0,000 mm 0,7 UV-I 372 W/m 3,7 C 6,5 C 16,1 km/h (3 Bft) 100,00 %
01.05.2017 08:12 8,8 C 10,6 C 71 % 1007,5 hPa 0,0 l/m 11,0 km/h (2 Bft) O-NO 66 2 min 0,000 mm 0,7 UV-I 386 W/m 3,8 C 5,7 C 17,7 km/h (3 Bft) 95,92 %
01.05.2017 08:14 8,9 C 10,6 C 70 % 1007,5 hPa 0,0 l/m 10,5 km/h (2 Bft) O 88 2 min 0,000 mm 0,7 UV-I 384 W/m 3,7 C 6,1 C 14,5 km/h (3 Bft) 100,00 %
01.05.2017 08:16 9,1 C 10,6 C 70 % 1007,6 hPa 0,0 l/m 9,3 km/h (2 Bft) O 79 2 min 0,000 mm 0,7 UV-I 388 W/m 3,9 C 7,0 C 12,9 km/h (3 Bft) 96,43 %
01.05.2017 08:18 9,2 C 10,6 C 69 % 1007,5 hPa 0,0 l/m 9,8 km/h (2 Bft) O-NO 62 2 min 0,000 mm 0,8 UV-I 403 W/m 3,8 C 6,8 C 17,7 km/h (3 Bft) 95,12 %
01.05.2017 08:20 9,3 C 10,6 C 69 % 1007,5 hPa 0,0 l/m 12,0 km/h (2 Bft) NO 44 2 min 0,000 mm 0,8 UV-I 404 W/m 3,9 C 5,7 C 17,7 km/h (3 Bft) 98,11 %
01.05.2017 08:22 9,4 C 10,6 C 69 % 1007,5 hPa 0,0 l/m 12,7 km/h (3 Bft) NO 42 2 min 0,000 mm 0,8 UV-I 414 W/m 4,0 C 5,5 C 17,7 km/h (3 Bft) 89,47 %
01.05.2017 08:24 9,5 C 10,6 C 69 % 1007,4 hPa 0,0 l/m 11,9 km/h (2 Bft) O-NO 62 2 min 0,000 mm 0,8 UV-I 422 W/m 4,1 C 6,0 C 17,7 km/h (3 Bft) 98,11 %
01.05.2017 08:26 9,6 C 10,6 C 69 % 1007,3 hPa 0,0 l/m 12,8 km/h (3 Bft) N-NO 30 2 min 0,000 mm 0,9 UV-I 429 W/m 4,2 C 5,7 C 19,3 km/h (3 Bft) 100,00 %
01.05.2017 08:28 9,7 C 10,6 C 68 % 1007,3 hPa 0,0 l/m 13,5 km/h (3 Bft) O-NO 73 2 min 0,000 mm 0,9 UV-I 436 W/m 4,1 C 5,4 C 17,7 km/h (3 Bft) 94,00 %
01.05.2017 08:30 9,8 C 10,6 C 68 % 1007,3 hPa 0,0 l/m 10,7 km/h (2 Bft) O-NO 63 2 min 0,000 mm 0,9 UV-I 442 W/m 4,2 C 7,0 C 19,3 km/h (3 Bft) 95,12 %
01.05.2017 08:32 9,8 C 10,6 C 68 % 1007,3 hPa 0,0 l/m 11,9 km/h (2 Bft) N-NO 30 2 min 0,000 mm 0,9 UV-I 443 W/m 4,2 C 6,3 C 19,3 km/h (3 Bft) 95,12 %
01.05.2017 08:34 10,0 C 10,6 C 68 % 1007,3 hPa 0,0 l/m 13,1 km/h (3 Bft) O-NO 59 2 min 0,000 mm 1,0 UV-I 451 W/m 4,4 C 6,0 C 19,3 km/h (3 Bft) 94,00 %
01.05.2017 08:36 10,1 C 10,6 C 67 % 1007,2 hPa 0,0 l/m 14,6 km/h (3 Bft) O 89 2 min 0,000 mm 0,9 UV-I 448 W/m 4,3 C 5,4 C 19,3 km/h (3 Bft) 92,68 %
01.05.2017 08:38 10,1 C 10,6 C 67 % 1007,2 hPa 0,0 l/m 15,6 km/h (3 Bft) NO 37 2 min 0,000 mm 0,9 UV-I 399 W/m 4,3 C 5,0 C 20,9 km/h (4 Bft) 96,15 %
01.05.2017 08:40 10,1 C 10,6 C 67 % 1007,2 hPa 0,0 l/m 15,7 km/h (3 Bft) O 82 2 min 0,000 mm 1,0 UV-I 400 W/m 4,3 C 5,0 C 22,5 km/h (4 Bft) 94,34 %
01.05.2017 08:42 10,2 C 10,6 C 66 % 1007,2 hPa 0,0 l/m 17,1 km/h (3 Bft) O-NO 68 2 min 0,000 mm 1,1 UV-I 447 W/m 4,1 C 4,5 C 22,5 km/h (4 Bft) 100,00 %
01.05.2017 08:44 10,3 C 10,6 C 67 % 1007,2 hPa 0,0 l/m 15,2 km/h (3 Bft) O-NO 65 2 min 0,000 mm 1,1 UV-I 475 W/m 4,4 C 5,4 C 19,3 km/h (3 Bft) 94,03 %
01.05.2017 08:46 10,4 C 10,6 C 67 % 1007,2 hPa 0,0 l/m 15,2 km/h (3 Bft) NO 54 2 min 0,000 mm 1,1 UV-I 486 W/m 4,5 C 5,5 C 20,9 km/h (4 Bft) 97,87 %
01.05.2017 08:48 10,5 C 10,6 C 66 % 1007,2 hPa 0,0 l/m 15,6 km/h (3 Bft) NO 51 2 min 0,000 mm 1,2 UV-I 495 W/m 4,4 C 5,5 C 22,5 km/h (4 Bft) 100,00 %
01.05.2017 08:50 10,6 C 10,6 C 65 % 1007,2 hPa 0,0 l/m 16,3 km/h (3 Bft) O-NO 66 2 min 0,000 mm 1,2 UV-I 506 W/m 4,3 C 5,3 C 24,1 km/h (4 Bft) 93,33 %
01.05.2017 08:52 10,7 C 10,6 C 66 % 1007,3 hPa 0,0 l/m 15,1 km/h (3 Bft) O-NO 68 2 min 0,000 mm 1,2 UV-I 513 W/m 4,6 C 5,9 C 20,9 km/h (4 Bft) 94,00 %
01.05.2017 08:54 10,8 C 10,6 C 65 % 1007,3 hPa 0,0 l/m 13,9 km/h (3 Bft) NO 44 2 min 0,000 mm 1,3 UV-I 520 W/m 4,5 C 6,6 C 22,5 km/h (4 Bft) 100,00 %
01.05.2017 08:56 11,0 C 10,6 C 64 % 1007,3 hPa 0,0 l/m 15,9 km/h (3 Bft) O-NO 69 2 min 0,000 mm 1,3 UV-I 530 W/m 4,5 C 6,0 C 22,5 km/h (4 Bft) 98,21 %
01.05.2017 08:58 11,1 C 10,6 C 64 % 1007,3 hPa 0,0 l/m 17,7 km/h (3 Bft) O-NO 66 2 min 0,000 mm 1,3 UV-I 537 W/m 4,6 C 5,5 C 24,1 km/h (4 Bft) 90,91 %
01.05.2017 09:00 11,1 C 10,6 C 65 % 1007,3 hPa 0,0 l/m 11,7 km/h (2 Bft) O 80 2 min 0,229 mm 1,4 UV-I 547 W/m 4,8 C 7,9 C 17,7 km/h (3 Bft) 97,87 %
01.05.2017 09:02 11,2 C 10,6 C 65 % 1007,4 hPa 0,0 l/m 12,0 km/h (2 Bft) O 82 2 min 0,000 mm 1,4 UV-I 560 W/m 4,9 C 7,9 C 16,1 km/h (3 Bft) 100,00 %
01.05.2017 09:04 11,3 C 10,6 C 65 % 1007,4 hPa 0,0 l/m 14,1 km/h (3 Bft) O 90 2 min 0,000 mm 1,4 UV-I 571 W/m 5,0 C 7,1 C 20,9 km/h (4 Bft) 100,00 %
01.05.2017 09:06 11,4 C 10,6 C 64 % 1007,4 hPa 0,0 l/m 12,6 km/h (3 Bft) NO 56 2 min 0,000 mm 1,5 UV-I 587 W/m 4,8 C 7,8 C 19,3 km/h (3 Bft) 96,00 %
01.05.2017 09:08 11,6 C 10,6 C 63 % 1007,4 hPa 0,0 l/m 14,3 km/h (3 Bft) O-NO 61 2 min 0,000 mm 1,6 UV-I 602 W/m 4,8 C 7,4 C 19,3 km/h (3 Bft) 98,00 %
01.05.2017 09:10 11,6 C 10,6 C 63 % 1007,4 hPa 0,0 l/m 13,1 km/h (3 Bft) NO 42 2 min 0,000 mm 1,6 UV-I 621 W/m 4,8 C 7,9 C 20,9 km/h (4 Bft) 100,00 %
01.05.2017 09:12 11,7 C 10,6 C 64 % 1007,4 hPa 0,0 l/m 12,8 km/h (3 Bft) O-NO 70 2 min 0,000 mm 1,7 UV-I 641 W/m 5,1 C 8,1 C 17,7 km/h (3 Bft) 95,12 %
01.05.2017 09:14 11,9 C 10,6 C 63 % 1007,5 hPa 0,0 l/m 11,4 km/h (2 Bft) NO 56 2 min 0,000 mm 1,7 UV-I 659 W/m 5,1 C 9,0 C 17,7 km/h (3 Bft) 92,11 %
01.05.2017 09:16 12,1 C 10,6 C 62 % 1007,5 hPa 0,0 l/m 14,3 km/h (3 Bft) NO 42 2 min 0,000 mm 1,7 UV-I 626 W/m 5,0 C 8,0 C 19,3 km/h (3 Bft) 98,31 %
01.05.2017 09:18 12,2 C 10,6 C 65 % 1007,5 hPa 0,0 l/m 14,4 km/h (3 Bft) O-NO 67 2 min 0,000 mm 1,7 UV-I 677 W/m 5,8 C 8,0 C 20,9 km/h (4 Bft) 94,29 %
01.05.2017 09:20 12,3 C 10,6 C 63 % 1007,3 hPa 0,0 l/m 13,5 km/h (3 Bft) NO 46 2 min 0,000 mm 1,7 UV-I 593 W/m 5,5 C 8,5 C 17,7 km/h (3 Bft) 93,22 %
01.05.2017 09:22 12,3 C 10,6 C 62 % 1007,4 hPa 0,0 l/m 11,8 km/h (2 Bft) NO 50 2 min 0,000 mm 1,6 UV-I 526 W/m 5,2 C 9,3 C 17,7 km/h (3 Bft) 94,74 %
01.05.2017 09:24 12,3 C 10,6 C 60 % 1007,4 hPa 0,0 l/m 12,8 km/h (3 Bft) NO 51 2 min 0,000 mm 1,8 UV-I 634 W/m 4,8 C 8,8 C 19,3 km/h (3 Bft) 94,34 %
01.05.2017 09:26 12,4 C 10,6 C 62 % 1007,5 hPa 0,0 l/m 12,1 km/h (2 Bft) NO 46 2 min 0,000 mm 1,8 UV-I 639 W/m 5,3 C 9,2 C 16,1 km/h (3 Bft) 94,00 %
01.05.2017 09:28 12,4 C 10,6 C 60 % 1007,5 hPa 0,0 l/m 15,1 km/h (3 Bft) NO 48 2 min 0,000 mm 1,7 UV-I 549 W/m 4,9 C 8,0 C 19,3 km/h (3 Bft) 92,68 %
01.05.2017 09:30 12,3 C 10,6 C 61 % 1007,5 hPa 0,0 l/m 11,6 km/h (2 Bft) N-NO 28 2 min 0,000 mm 1,7 UV-I 518 W/m 5,0 C 9,3 C 17,7 km/h (3 Bft) 92,45 %
01.05.2017 09:32 12,4 C 10,6 C 64 % 1007,6 hPa 0,0 l/m 14,4 km/h (3 Bft) NO 38 2 min 0,000 mm 1,6 UV-I 456 W/m 5,8 C 8,3 C 17,7 km/h (3 Bft) 92,86 %
01.05.2017 09:34 12,4 C 10,6 C 64 % 1007,6 hPa 0,0 l/m 12,0 km/h (2 Bft) NO 54 2 min 0,000 mm 1,5 UV-I 412 W/m 5,8 C 9,3 C 17,7 km/h (3 Bft) 93,62 %
01.05.2017 09:36 12,3 C 10,6 C 61 % 1007,6 hPa 0,0 l/m 14,1 km/h (3 Bft) O 85 2 min 0,000 mm 1,5 UV-I 380 W/m 5,0 C 8,3 C 17,7 km/h (3 Bft) 90,00 %
01.05.2017 09:38 12,2 C 10,6 C 61 % 1007,6 hPa 0,0 l/m 14,6 km/h (3 Bft) O-NO 71 2 min 0,000 mm 1,4 UV-I 354 W/m 4,9 C 8,0 C 19,3 km/h (3 Bft) 98,00 %
01.05.2017 09:40 12,2 C 10,6 C 61 % 1007,6 hPa 0,0 l/m 11,3 km/h (2 Bft) NO 55 2 min 0,000 mm 1,5 UV-I 365 W/m 4,9 C 9,4 C 14,5 km/h (3 Bft) 91,43 %
01.05.2017 09:42 12,2 C 10,6 C 63 % 1007,6 hPa 0,0 l/m 9,3 km/h (2 Bft) O-NO 75 2 min 0,000 mm 1,6 UV-I 401 W/m 5,4 C 10,4 C 14,5 km/h (3 Bft) 91,07 %
01.05.2017 09:44 12,4 C 10,6 C 61 % 1007,6 hPa 0,0 l/m 8,1 km/h (2 Bft) O-NO 61 2 min 0,000 mm 1,7 UV-I 466 W/m 5,1 C 11,3 C 14,5 km/h (3 Bft) 93,62 %
01.05.2017 09:46 12,4 C 10,6 C 60 % 1007,7 hPa 0,0 l/m 11,8 km/h (2 Bft) O 84 2 min 0,000 mm 1,8 UV-I 490 W/m 4,9 C 9,4 C 17,7 km/h (3 Bft) 88,57 %
01.05.2017 09:48 12,5 C 10,6 C 59 % 1007,7 hPa 0,0 l/m 10,7 km/h (2 Bft) O-NO 68 2 min 0,000 mm 1,9 UV-I 518 W/m 4,7 C 10,0 C 16,1 km/h (3 Bft) 98,11 %
01.05.2017 09:50 12,6 C 10,6 C 59 % 1007,7 hPa 0,0 l/m 13,8 km/h (3 Bft) O 80 2 min 0,000 mm 2,1 UV-I 656 W/m 4,8 C 8,7 C 17,7 km/h (3 Bft) 92,00 %
01.05.2017 09:52 12,7 C 10,6 C 60 % 1007,7 hPa 0,0 l/m 13,7 km/h (3 Bft) O 79 2 min 0,000 mm 2,2 UV-I 685 W/m 5,1 C 8,9 C 19,3 km/h (3 Bft) 88,00 %
01.05.2017 09:54 12,9 C 10,6 C 60 % 1007,7 hPa 0,0 l/m 11,1 km/h (2 Bft) O-NO 60 2 min 0,000 mm 2,2 UV-I 677 W/m 5,3 C 10,3 C 17,7 km/h (3 Bft) 95,12 %
01.05.2017 09:56 13,1 C 10,6 C 60 % 1007,7 hPa 0,0 l/m 10,4 km/h (2 Bft) NO 40 2 min 0,000 mm 2,2 UV-I 678 W/m 5,5 C 10,8 C 14,5 km/h (3 Bft) 96,00 %
01.05.2017 09:58 13,3 C 10,6 C 60 % 1007,7 hPa 0,0 l/m 14,6 km/h (3 Bft) O 83 2 min 0,000 mm 2,3 UV-I 679 W/m 5,7 C 9,3 C 19,3 km/h (3 Bft) 92,68 %
01.05.2017 10:00 13,3 C 10,6 C 57 % 1007,8 hPa 0,0 l/m 15,2 km/h (3 Bft) O-NO 78 2 min 0,330 mm 2,3 UV-I 680 W/m 5,0 C 9,1 C 20,9 km/h (4 Bft) 96,23 %
01.05.2017 10:02 13,3 C 11,1 C 58 % 1007,7 hPa 0,0 l/m 14,0 km/h (3 Bft) O-NO 78 2 min 0,000 mm 2,3 UV-I 680 W/m 5,2 C 9,5 C 19,3 km/h (3 Bft) 95,12 %
01.05.2017 10:04 13,3 C 11,1 C 57 % 1007,8 hPa 0,0 l/m 12,5 km/h (3 Bft) NO 43 2 min 0,000 mm 2,4 UV-I 685 W/m 5,0 C 10,1 C 16,1 km/h (3 Bft) 92,45 %
01.05.2017 10:06 13,3 C 10,6 C 57 % 1007,8 hPa 0,0 l/m 12,2 km/h (2 Bft) O-NO 66 2 min 0,000 mm 2,4 UV-I 690 W/m 5,0 C 10,2 C 17,7 km/h (3 Bft) 96,30 %
01.05.2017 10:08 13,4 C 10,6 C 58 % 1007,7 hPa 0,0 l/m 10,6 km/h (2 Bft) O-NO 59 2 min 0,000 mm 2,4 UV-I 690 W/m 5,3 C 11,1 C 14,5 km/h (3 Bft) 93,55 %
01.05.2017 10:10 13,5 C 10,6 C 57 % 1007,7 hPa 0,0 l/m 15,8 km/h (3 Bft) O-NO 77 2 min 0,000 mm 2,5 UV-I 693 W/m 5,2 C 9,1 C 20,9 km/h (4 Bft) 96,15 %
01.05.2017 10:12 13,5 C 10,6 C 56 % 1007,8 hPa 0,0 l/m 13,4 km/h (3 Bft) NO 49 2 min 0,000 mm 2,5 UV-I 695 W/m 4,9 C 10,0 C 17,7 km/h (3 Bft) 97,44 %
01.05.2017 10:14 13,6 C 10,6 C 56 % 1007,8 hPa 0,0 l/m 14,2 km/h (3 Bft) O-NO 74 2 min 0,000 mm 2,5 UV-I 701 W/m 5,0 C 9,8 C 19,3 km/h (3 Bft) 89,29 %
01.05.2017 10:16 13,7 C 11,1 C 56 % 1007,8 hPa 0,0 l/m 13,2 km/h (3 Bft) O-NO 71 2 min 0,000 mm 2,6 UV-I 704 W/m 5,1 C 10,3 C 16,1 km/h (3 Bft) 100,00 %
01.05.2017 10:18 13,7 C 11,1 C 56 % 1007,9 hPa 0,0 l/m 12,4 km/h (3 Bft) O-NO 63 2 min 0,000 mm 2,6 UV-I 706 W/m 5,1 C 10,6 C 16,1 km/h (3 Bft) 94,34 %
01.05.2017 10:20 13,8 C 10,6 C 55 % 1007,8 hPa 0,0 l/m 13,1 km/h (3 Bft) NO 46 2 min 0,000 mm 2,6 UV-I 713 W/m 4,9 C 10,4 C 17,7 km/h (3 Bft) 92,11 %
01.05.2017 10:22 13,9 C 10,6 C 59 % 1007,8 hPa 0,0 l/m 8,9 km/h (2 Bft) O-NO 78 2 min 0,000 mm 2,7 UV-I 717 W/m 6,0 C 12,5 C 16,1 km/h (3 Bft) 98,11 %
01.05.2017 10:24 14,1 C 10,6 C 56 % 1007,8 hPa 0,0 l/m 12,2 km/h (2 Bft) O 92 2 min 0,000 mm 2,7 UV-I 719 W/m 5,5 C 11,2 C 16,1 km/h (3 Bft) 95,74 %
01.05.2017 10:26 14,2 C 10,6 C 56 % 1007,9 hPa 0,0 l/m 12,9 km/h (3 Bft) O-NO 75 2 min 0,000 mm 2,7 UV-I 724 W/m 5,6 C 11,0 C 19,3 km/h (3 Bft) 92,00 %
01.05.2017 10:28 14,2 C 10,6 C 54 % 1007,8 hPa 0,0 l/m 10,1 km/h (2 Bft) O-NO 61 2 min 0,000 mm 2,8 UV-I 729 W/m 5,0 C 12,2 C 16,1 km/h (3 Bft) 92,68 %
01.05.2017 10:30 14,2 C 10,6 C 55 % 1007,8 hPa 0,0 l/m 8,3 km/h (2 Bft) O 81 2 min 0,000 mm 2,8 UV-I 733 W/m 5,3 C 13,1 C 14,5 km/h (3 Bft) 94,00 %
01.05.2017 10:32 14,4 C 10,6 C 60 % 1007,8 hPa 0,0 l/m 7,4 km/h (2 Bft) N-NO 20 2 min 0,000 mm 2,9 UV-I 737 W/m 6,7 C 13,8 C 16,1 km/h (3 Bft) 92,45 %
01.05.2017 10:34 14,5 C 10,6 C 57 % 1007,8 hPa 0,0 l/m 8,3 km/h (2 Bft) NO 54 2 min 0,000 mm 2,9 UV-I 742 W/m 6,1 C 13,4 C 16,1 km/h (3 Bft) 95,12 %
01.05.2017 10:36 14,6 C 10,6 C 54 % 1007,8 hPa 0,0 l/m 8,0 km/h (2 Bft) O-NO 63 2 min 0,000 mm 2,9 UV-I 745 W/m 5,4 C 13,7 C 12,9 km/h (3 Bft) 91,49 %
01.05.2017 10:38 14,6 C 10,6 C 58 % 1007,8 hPa 0,0 l/m 11,1 km/h (2 Bft) O 79 2 min 0,000 mm 3,0 UV-I 750 W/m 6,4 C 12,2 C 16,1 km/h (3 Bft) 89,36 %
01.05.2017 10:40 14,5 C 11,1 C 55 % 1007,9 hPa 0,0 l/m 8,5 km/h (2 Bft) O-NO 61 2 min 0,000 mm 3,0 UV-I 755 W/m 5,6 C 13,3 C 14,5 km/h (3 Bft) 100,00 %
01.05.2017 10:42 14,6 C 10,6 C 56 % 1007,8 hPa 0,0 l/m 10,2 km/h (2 Bft) NO 35 2 min 0,000 mm 3,0 UV-I 758 W/m 5,9 C 12,6 C 17,7 km/h (3 Bft) 96,23 %
01.05.2017 10:44 14,7 C 10,6 C 59 % 1007,8 hPa 0,0 l/m 11,8 km/h (2 Bft) NO 49 2 min 0,000 mm 3,1 UV-I 761 W/m 6,8 C 12,0 C 17,7 km/h (3 Bft) 92,31 %
01.05.2017 10:46 14,8 C 11,1 C 58 % 1007,8 hPa 0,0 l/m 14,2 km/h (3 Bft) O-NO 76 2 min 0,000 mm 3,1 UV-I 768 W/m 6,6 C 11,2 C 20,9 km/h (4 Bft) 95,12 %
01.05.2017 10:48 14,8 C 11,1 C 53 % 1007,8 hPa 0,0 l/m 13,9 km/h (3 Bft) O-NO 67 2 min 0,000 mm 3,1 UV-I 777 W/m 5,3 C 11,3 C 20,9 km/h (4 Bft) 94,03 %
01.05.2017 10:50 14,8 C 10,6 C 54 % 1007,8 hPa 0,0 l/m 11,6 km/h (2 Bft) O-NO 61 2 min 0,000 mm 3,1 UV-I 725 W/m 5,6 C 12,2 C 17,7 km/h (3 Bft) 92,31 %
01.05.2017 10:52 14,9 C 10,6 C 55 % 1007,8 hPa 0,0 l/m 7,7 km/h (2 Bft) O-NO 71 2 min 0,000 mm 3,1 UV-I 732 W/m 5,9 C 14,2 C 12,9 km/h (3 Bft) 98,11 %
01.05.2017 10:54 15,0 C 10,6 C 52 % 1007,7 hPa 0,0 l/m 8,3 km/h (2 Bft) O-NO 65 2 min 0,000 mm 3,2 UV-I 776 W/m 5,2 C 13,9 C 11,3 km/h (2 Bft) 95,45 %
01.05.2017 10:56 15,0 C 10,6 C 52 % 1007,8 hPa 0,0 l/m 6,1 km/h (2 Bft) O-NO 72 2 min 0,000 mm 3,3 UV-I 794 W/m 5,2 C 15,0 C 11,3 km/h (2 Bft) 100,00 %
01.05.2017 10:58 15,1 C 10,6 C 56 % 1007,7 hPa 0,0 l/m 9,4 km/h (2 Bft) O-NO 59 2 min 0,000 mm 3,2 UV-I 740 W/m 6,4 C 13,5 C 19,3 km/h (3 Bft) 97,56 %
01.05.2017 11:00 15,2 C 11,1 C 55 % 1007,8 hPa 0,0 l/m 13,1 km/h (3 Bft) NO 39 2 min 0,000 mm 3,0 UV-I 680 W/m 6,2 C 12,1 C 19,3 km/h (3 Bft) 90,91 %
01.05.2017 11:02 15,1 C 11,1 C 56 % 1007,8 hPa 0,0 l/m 7,7 km/h (2 Bft) N-NO 19 2 min 0,432 mm 3,3 UV-I 759 W/m 6,4 C 14,4 C 14,5 km/h (3 Bft) 98,11 %
01.05.2017 11:04 15,1 C 11,1 C 56 % 1007,8 hPa 0,0 l/m 8,6 km/h (2 Bft) NO 40 2 min 0,000 mm 3,4 UV-I 797 W/m 6,4 C 13,9 C 14,5 km/h (3 Bft) 100,00 %
01.05.2017 11:06 15,3 C 11,1 C 53 % 1007,8 hPa 0,0 l/m 10,5 km/h (2 Bft) O-NO 67 2 min 0,000 mm 3,4 UV-I 798 W/m 5,8 C 13,2 C 14,5 km/h (3 Bft) 97,87 %
01.05.2017 11:08 15,3 C 11,1 C 51 % 1007,8 hPa 0,0 l/m 5,8 km/h (2 Bft) NO 34 2 min 0,000 mm 3,4 UV-I 785 W/m 5,2 C 15,3 C 14,5 km/h (3 Bft) 100,00 %
01.05.2017 11:10 15,6 C 11,1 C 55 % 1007,8 hPa 0,0 l/m 5,2 km/h (1 Bft) N-NO 33 2 min 0,000 mm 3,5 UV-I 803 W/m 6,6 C 15,6 C 9,7 km/h (2 Bft) 94,12 %
01.05.2017 11:12 15,6 C 11,1 C 53 % 1007,8 hPa 0,0 l/m 8,5 km/h (2 Bft) NO 42 2 min 0,000 mm 3,6 UV-I 805 W/m 6,1 C 14,5 C 14,5 km/h (3 Bft) 97,87 %
01.05.2017 11:14 15,7 C 11,1 C 55 % 1007,9 hPa 0,0 l/m 11,3 km/h (2 Bft) NO 37 2 min 0,000 mm 3,6 UV-I 808 W/m 6,7 C 13,3 C 16,1 km/h (3 Bft) 97,37 %
01.05.2017 11:16 15,7 C 11,1 C 53 % 1007,9 hPa 0,0 l/m 9,9 km/h (2 Bft) NO 43 2 min 0,000 mm 3,6 UV-I 807 W/m 6,1 C 13,9 C 14,5 km/h (3 Bft) 96,92 %
01.05.2017 11:18 15,7 C 11,1 C 49 % 1007,9 hPa 0,0 l/m 8,9 km/h (2 Bft) O-NO 73 2 min 0,000 mm 3,6 UV-I 813 W/m 5,0 C 14,4 C 14,5 km/h (3 Bft) 94,74 %
01.05.2017 11:20 15,6 C 11,1 C 50 % 1007,8 hPa 0,0 l/m 7,0 km/h (2 Bft) O-NO 64 2 min 0,000 mm 3,7 UV-I 820 W/m 5,2 C 15,3 C 9,7 km/h (2 Bft) 96,23 %
01.05.2017 11:22 15,6 C 11,1 C 50 % 1007,8 hPa 0,0 l/m 5,7 km/h (1 Bft) N-NO 17 2 min 0,000 mm 3,7 UV-I 807 W/m 5,2 C 15,6 C 8,0 km/h (2 Bft) 95,24 %
01.05.2017 11:24 15,8 C 11,1 C 52 % 1007,9 hPa 0,0 l/m 12,4 km/h (3 Bft) N-NO 22 2 min 0,000 mm 3,8 UV-I 830 W/m 6,0 C 13,0 C 17,7 km/h (3 Bft) 96,00 %
01.05.2017 11:26 15,9 C 11,1 C 54 % 1007,8 hPa 0,0 l/m 5,5 km/h (1 Bft) NO 42 2 min 0,000 mm 3,8 UV-I 830 W/m 6,6 C 15,9 C 11,3 km/h (2 Bft) 95,45 %
01.05.2017 11:28 15,8 C 11,1 C 50 % 1007,8 hPa 0,0 l/m 4,1 km/h (1 Bft) N-NO 30 2 min 0,000 mm 3,8 UV-I 833 W/m 5,4 C 15,8 C 8,0 km/h (2 Bft) 96,00 %
01.05.2017 11:30 15,8 C 11,1 C 54 % 1007,8 hPa 0,0 l/m 7,4 km/h (2 Bft) O-NO 76 2 min 0,000 mm 3,8 UV-I 809 W/m 6,5 C 15,3 C 14,5 km/h (3 Bft) 97,22 %
01.05.2017 11:32 16,1 C 11,1 C 54 % 1007,9 hPa 0,0 l/m 8,2 km/h (2 Bft) O-NO 68 2 min 0,000 mm 3,9 UV-I 831 W/m 6,8 C 15,2 C 11,3 km/h (2 Bft) 96,23 %
01.05.2017 11:34 16,1 C 11,1 C 55 % 1007,8 hPa 0,0 l/m 9,2 km/h (2 Bft) NO 42 2 min 0,000 mm 3,6 UV-I 785 W/m 7,1 C 14,7 C 17,7 km/h (3 Bft) 96,00 %
01.05.2017 11:36 16,2 C 11,1 C 55 % 1007,9 hPa 0,0 l/m 4,4 km/h (1 Bft) NO 37 2 min 0,000 mm 3,6 UV-I 721 W/m 7,2 C 16,2 C 8,0 km/h (2 Bft) 96,00 %
01.05.2017 11:38 16,1 C 11,1 C 50 % 1007,9 hPa 0,0 l/m 9,4 km/h (2 Bft) O-NO 64 2 min 0,000 mm 3,7 UV-I 800 W/m 5,7 C 14,6 C 16,1 km/h (3 Bft) 94,00 %
01.05.2017 11:40 15,9 C 11,1 C 51 % 1007,9 hPa 0,0 l/m 3,7 km/h (1 Bft) NO 39 2 min 0,000 mm 4,0 UV-I 868 W/m 5,8 C 15,9 C 8,0 km/h (2 Bft) 100,00 %
01.05.2017 11:42 15,9 C 11,1 C 51 % 1007,9 hPa 0,0 l/m 3,4 km/h (1 Bft) N-NO 33 2 min 0,000 mm 3,6 UV-I 860 W/m 5,8 C 15,9 C 4,8 km/h (1 Bft) 96,00 %
01.05.2017 11:44 16,1 C 11,1 C 53 % 1007,9 hPa 0,0 l/m 7,8 km/h (2 Bft) NO 53 2 min 0,000 mm 3,8 UV-I 732 W/m 6,5 C 15,4 C 16,1 km/h (3 Bft) 100,00 %
01.05.2017 11:46 16,2 C 11,1 C 54 % 1007,9 hPa 0,0 l/m 6,7 km/h (2 Bft) O-NO 73 2 min 0,000 mm 3,9 UV-I 825 W/m 6,9 C 16,1 C 12,9 km/h (3 Bft) 98,00 %
01.05.2017 11:48 16,3 C 11,1 C 50 % 1007,9 hPa 0,0 l/m 8,0 km/h (2 Bft) NO 46 2 min 0,000 mm 4,0 UV-I 826 W/m 5,9 C 15,5 C 14,5 km/h (3 Bft) 97,87 %
01.05.2017 11:50 16,3 C 11,1 C 51 % 1007,9 hPa 0,0 l/m 3,4 km/h (1 Bft) NO 47 2 min 0,000 mm 4,3 UV-I 908 W/m 6,1 C 16,3 C 6,4 km/h (2 Bft) 100,00 %
01.05.2017 11:52 16,5 C 11,1 C 50 % 1007,9 hPa 0,0 l/m 5,3 km/h (1 Bft) NO 48 2 min 0,000 mm 4,3 UV-I 900 W/m 6,0 C 16,5 C 8,0 km/h (2 Bft) 100,00 %
01.05.2017 11:54 16,6 C 11,1 C 55 % 1007,8 hPa 0,0 l/m 6,9 km/h (2 Bft) NO 52 2 min 0,000 mm 4,3 UV-I 896 W/m 7,5 C 16,3 C 12,9 km/h (3 Bft) 100,00 %
01.05.2017 11:56 16,8 C 11,1 C 54 % 1007,8 hPa 0,0 l/m 8,0 km/h (2 Bft) NO 48 2 min 0,000 mm 4,3 UV-I 885 W/m 7,4 C 16,0 C 11,3 km/h (2 Bft) 100,00 %
01.05.2017 11:58 16,9 C 11,1 C 46 % 1007,8 hPa 0,0 l/m 8,4 km/h (2 Bft) O-NO 71 2 min 0,000 mm 4,0 UV-I 875 W/m 5,2 C 15,9 C 14,5 km/h (3 Bft) 97,73 %
01.05.2017 12:00 16,7 C 11,1 C 46 % 1007,8 hPa 0,0 l/m 9,7 km/h (2 Bft) O-NO 69 2 min 0,482 mm 4,1 UV-I 804 W/m 5,0 C 15,1 C 12,9 km/h (3 Bft) 100,00 %
01.05.2017 12:02 16,6 C 11,1 C 44 % 1007,8 hPa 0,0 l/m 9,0 km/h (2 Bft) O 101 2 min 0,000 mm 4,0 UV-I 741 W/m 4,3 C 15,3 C 16,1 km/h (3 Bft) 97,62 %
01.05.2017 12:04 16,5 C 11,1 C 49 % 1007,8 hPa 0,0 l/m 6,7 km/h (2 Bft) O 88 2 min 0,000 mm 4,3 UV-I 819 W/m 5,8 C 16,4 C 12,9 km/h (3 Bft) 98,08 %
01.05.2017 12:06 16,7 C 11,1 C 48 % 1007,8 hPa 0,0 l/m 6,2 km/h (2 Bft) O 84 2 min 0,000 mm 4,2 UV-I 886 W/m 5,6 C 16,7 C 9,7 km/h (2 Bft) 97,96 %
01.05.2017 12:08 16,8 C 11,1 C 51 % 1007,8 hPa 0,0 l/m 7,7 km/h (2 Bft) NO 46 2 min 0,000 mm 4,3 UV-I 805 W/m 6,6 C 16,1 C 14,5 km/h (3 Bft) 96,23 %
01.05.2017 12:10 16,8 C 11,1 C 52 % 1007,8 hPa 0,0 l/m 12,1 km/h (2 Bft) NO 46 2 min 0,000 mm 4,3 UV-I 820 W/m 6,9 C 14,3 C 17,7 km/h (3 Bft) 100,00 %
01.05.2017 12:12 16,7 C 11,1 C 48 % 1007,9 hPa 0,0 l/m 6,0 km/h (2 Bft) O-NO 61 2 min 0,000 mm 4,3 UV-I 862 W/m 5,6 C 16,7 C 9,7 km/h (2 Bft) 100,00 %
01.05.2017 12:14 16,6 C 11,7 C 46 % 1007,8 hPa 0,0 l/m 2,8 km/h (1 Bft) O-NO 78 2 min 0,000 mm 4,4 UV-I 755 W/m 4,9 C 16,6 C 6,4 km/h (2 Bft) 98,21 %
01.05.2017 12:16 16,7 C 11,7 C 50 % 1007,8 hPa 0,0 l/m 8,5 km/h (2 Bft) NO 55 2 min 0,000 mm 4,4 UV-I 784 W/m 6,2 C 15,6 C 14,5 km/h (3 Bft) 100,00 %
01.05.2017 12:18 16,8 C 11,7 C 49 % 1007,9 hPa 0,0 l/m 5,6 km/h (1 Bft) O-NO 65 2 min 0,000 mm 3,9 UV-I 737 W/m 6,0 C 16,8 C 11,3 km/h (2 Bft) 97,37 %
01.05.2017 12:20 16,7 C 11,7 C 43 % 1007,8 hPa 0,0 l/m 6,9 km/h (2 Bft) O-NO 71 2 min 0,000 mm 3,8 UV-I 699 W/m 4,1 C 16,4 C 14,5 km/h (3 Bft) 98,00 %
01.05.2017 12:22 16,7 C 11,7 C 43 % 1007,8 hPa 0,0 l/m 10,1 km/h (2 Bft) O 93 2 min 0,000 mm 4,3 UV-I 701 W/m 4,1 C 15,0 C 14,5 km/h (3 Bft) 97,73 %
01.05.2017 12:24 16,7 C 11,7 C 47 % 1007,8 hPa 0,0 l/m 7,5 km/h (2 Bft) O-NO 74 2 min 0,000 mm 4,6 UV-I 913 W/m 5,3 C 16,1 C 11,3 km/h (2 Bft) 98,00 %
01.05.2017 12:26 16,9 C 11,7 C 49 % 1007,8 hPa 0,0 l/m 6,9 km/h (2 Bft) SO 132 2 min 0,000 mm 4,4 UV-I 889 W/m 6,1 C 16,7 C 11,3 km/h (2 Bft) 98,21 %
01.05.2017 12:28 16,8 C 11,7 C 45 % 1007,8 hPa 0,0 l/m 2,8 km/h (1 Bft) NO 45 2 min 0,000 mm 4,5 UV-I 888 W/m 4,8 C 16,8 C 6,4 km/h (2 Bft) 93,62 %
01.05.2017 12:30 16,8 C 11,7 C 47 % 1007,7 hPa 0,0 l/m 6,0 km/h (2 Bft) O-NO 66 2 min 0,000 mm 4,6 UV-I 886 W/m 5,4 C 16,8 C 14,5 km/h (3 Bft) 100,00 %
01.05.2017 12:32 17,0 C 11,7 C 44 % 1007,8 hPa 0,0 l/m 9,2 km/h (2 Bft) NO 43 2 min 0,000 mm 4,6 UV-I 880 W/m 4,7 C 15,7 C 14,5 km/h (3 Bft) 92,00 %
01.05.2017 12:34 17,1 C 11,7 C 46 % 1007,8 hPa 0,0 l/m 11,1 km/h (2 Bft) O-NO 78 2 min 0,000 mm 4,6 UV-I 874 W/m 5,4 C 15,0 C 17,7 km/h (3 Bft) 96,00 %
01.05.2017 12:36 17,2 C 11,7 C 45 % 1007,8 hPa 0,0 l/m 8,8 km/h (2 Bft) O-NO 67 2 min 0,000 mm 4,5 UV-I 855 W/m 5,2 C 16,0 C 16,1 km/h (3 Bft) 100,00 %
01.05.2017 12:38 17,1 C 11,7 C 47 % 1007,7 hPa 0,0 l/m 5,2 km/h (1 Bft) O-NO 77 2 min 0,000 mm 4,6 UV-I 892 W/m 5,7 C 17,1 C 11,3 km/h (2 Bft) 97,37 %
01.05.2017 12:40 17,0 C 11,7 C 43 % 1007,8 hPa 0,0 l/m 4,2 km/h (1 Bft) O-NO 61 2 min 0,000 mm 4,6 UV-I 895 W/m 4,3 C 17,0 C 12,9 km/h (3 Bft) 96,00 %
01.05.2017 12:42 17,1 C 11,7 C 45 % 1007,7 hPa 0,0 l/m 3,2 km/h (1 Bft) O-NO 59 2 min 0,000 mm 4,7 UV-I 908 W/m 5,1 C 17,1 C 6,4 km/h (2 Bft) 95,92 %
01.05.2017 12:44 17,4 C 11,7 C 47 % 1007,7 hPa 0,0 l/m 3,9 km/h (1 Bft) N-NO 22 2 min 0,000 mm 4,7 UV-I 901 W/m 6,0 C 17,4 C 8,0 km/h (2 Bft) 100,00 %
01.05.2017 12:46 17,2 C 11,7 C 42 % 1007,7 hPa 0,0 l/m 0,9 km/h (0 Bft) N-NO 22 2 min 0,000 mm 4,7 UV-I 890 W/m 4,2 C 17,2 C 1,6 km/h (1 Bft) 100,00 %
01.05.2017 12:48 17,1 C 11,7 C 42 % 1007,6 hPa 0,0 l/m 5,8 km/h (2 Bft) O-NO 57 2 min 0,000 mm 4,6 UV-I 880 W/m 4,1 C 17,1 C 11,3 km/h (2 Bft) 98,00 %
01.05.2017 12:50 17,2 C 11,7 C 44 % 1007,6 hPa 0,0 l/m 6,3 km/h (2 Bft) O-NO 58 2 min 0,000 mm 4,6 UV-I 849 W/m 4,8 C 17,2 C 11,3 km/h (2 Bft) 98,00 %
01.05.2017 12:52 17,3 C 11,7 C 46 % 1007,6 hPa 0,0 l/m 5,2 km/h (1 Bft) O 79 2 min 0,000 mm 4,6 UV-I 869 W/m 5,6 C 17,3 C 11,3 km/h (2 Bft) 97,37 %
01.05.2017 12:54 17,3 C 11,7 C 43 % 1007,6 hPa 0,0 l/m 2,2 km/h (1 Bft) SO 134 2 min 0,000 mm 4,7 UV-I 897 W/m 4,6 C 17,3 C 6,4 km/h (2 Bft) 98,11 %
01.05.2017 12:56 17,4 C 11,7 C 46 % 1007,6 hPa 0,0 l/m 0,8 km/h (0 Bft) SO 134 2 min 0,000 mm 4,7 UV-I 904 W/m 5,7 C 17,4 C 3,2 km/h (1 Bft) 100,00 %
01.05.2017 12:58 17,7 C 11,7 C 43 % 1007,7 hPa 0,0 l/m 0,9 km/h (0 Bft) O-SO 108 2 min 0,000 mm 4,7 UV-I 895 W/m 5,0 C 17,7 C 3,2 km/h (1 Bft) 98,21 %
01.05.2017 13:00 17,8 C 11,7 C 42 % 1007,6 hPa 0,0 l/m 5,2 km/h (1 Bft) O-NO 58 2 min 0,508 mm 4,7 UV-I 898 W/m 4,7 C 17,8 C 9,7 km/h (2 Bft) 96,00 %
01.05.2017 13:03 18,2 C 11,7 C 52 % 1007,7 hPa 0,0 l/m 4,0 km/h (1 Bft) N-NO 30 3 min 0,000 mm 4,7 UV-I 881 W/m 8,2 C 18,2 C 12,9 km/h (3 Bft) 97,26 %
01.05.2017 13:04 18,3 C 11,7 C 52 % 1007,7 hPa 0,0 l/m 4,0 km/h (1 Bft) NO 38 1 min 0,000 mm 4,6 UV-I 870 W/m 8,3 C 18,3 C 4,8 km/h (1 Bft) 93,33 %
01.05.2017 13:06 18,3 C 11,7 C 48 % 1007,7 hPa 0,0 l/m 3,6 km/h (1 Bft) O-NO 69 2 min 0,000 mm 4,6 UV-I 873 W/m 7,1 C 18,3 C 8,0 km/h (2 Bft) 96,00 %
01.05.2017 13:08 18,1 C 11,7 C 41 % 1007,7 hPa 0,0 l/m 4,7 km/h (1 Bft) NO 53 2 min 0,000 mm 4,6 UV-I 879 W/m 4,6 C 18,1 C 6,4 km/h (2 Bft) 95,12 %
01.05.2017 13:10 18,1 C 11,7 C 46 % 1007,6 hPa 0,0 l/m 3,8 km/h (1 Bft) NO 35 2 min 0,000 mm 4,6 UV-I 876 W/m 6,3 C 18,1 C 6,4 km/h (2 Bft) 98,00 %
01.05.2017 13:12 18,2 C 11,7 C 51 % 1007,6 hPa 0,0 l/m 1,6 km/h (1 Bft) N 5 2 min 0,000 mm 4,6 UV-I 879 W/m 7,9 C 18,2 C 4,8 km/h (1 Bft) 95,74 %
01.05.2017 13:14 17,9 C 11,7 C 42 % 1007,6 hPa 0,0 l/m 1,5 km/h (1 Bft) N 360 2 min 0,000 mm 4,5 UV-I 859 W/m 4,8 C 17,9 C 3,2 km/h (1 Bft) 97,87 %
01.05.2017 13:16 17,7 C 11,7 C 40 % 1007,6 hPa 0,0 l/m 1,9 km/h (1 Bft) W-NW 299 2 min 0,000 mm 4,4 UV-I 819 W/m 3,9 C 17,7 C 4,8 km/h (1 Bft) 94,74 %
01.05.2017 13:18 17,6 C 11,7 C 45 % 1007,6 hPa 0,0 l/m 1,4 km/h (1 Bft) O-NO 66 2 min 0,000 mm 4,2 UV-I 767 W/m 5,5 C 17,6 C 6,4 km/h (2 Bft) 96,00 %
01.05.2017 13:20 17,7 C 11,7 C 43 % 1007,6 hPa 0,0 l/m 8,5 km/h (2 Bft) O-NO 61 2 min 0,000 mm 4,1 UV-I 753 W/m 5,0 C 16,7 C 14,5 km/h (3 Bft) 96,43 %
01.05.2017 13:22 17,8 C 11,7 C 41 % 1007,6 hPa 0,0 l/m 9,3 km/h (2 Bft) O-NO 74 2 min 0,000 mm 4,2 UV-I 777 W/m 4,4 C 16,5 C 12,9 km/h (3 Bft) 97,44 %
01.05.2017 13:24 17,7 C 11,7 C 41 % 1007,6 hPa 0,0 l/m 5,2 km/h (1 Bft) O 80 2 min 0,000 mm 4,3 UV-I 828 W/m 4,3 C 17,7 C 9,7 km/h (2 Bft) 94,23 %
01.05.2017 13:26 17,7 C 11,7 C 42 % 1007,6 hPa 0,0 l/m 4,7 km/h (1 Bft) O 84 2 min 0,000 mm 4,4 UV-I 844 W/m 4,6 C 17,7 C 6,4 km/h (2 Bft) 92,31 %
01.05.2017 13:28 17,7 C 11,7 C 41 % 1007,6 hPa 0,0 l/m 6,3 km/h (2 Bft) O-NO 74 2 min 0,000 mm 4,4 UV-I 847 W/m 4,3 C 17,7 C 11,3 km/h (2 Bft) 98,00 %
01.05.2017 13:30 17,8 C 11,7 C 41 % 1007,6 hPa 0,0 l/m 7,2 km/h (2 Bft) NO 43 2 min 0,000 mm 4,4 UV-I 823 W/m 4,4 C 17,4 C 14,5 km/h (3 Bft) 94,00 %
01.05.2017 13:32 17,9 C 11,7 C 40 % 1007,6 hPa 0,0 l/m 5,0 km/h (1 Bft) O-NO 74 2 min 0,000 mm 4,3 UV-I 801 W/m 4,1 C 17,9 C 8,0 km/h (2 Bft) 100,00 %
01.05.2017 13:34 17,7 C 11,7 C 40 % 1007,6 hPa 0,0 l/m 4,5 km/h (1 Bft) O-SO 111 2 min 0,000 mm 4,3 UV-I 832 W/m 3,9 C 17,7 C 6,4 km/h (2 Bft) 96,00 %
01.05.2017 13:36 17,5 C 12,2 C 39 % 1007,6 hPa 0,0 l/m 3,7 km/h (1 Bft) O-SO 113 2 min 0,000 mm 4,3 UV-I 842 W/m 3,4 C 17,5 C 6,4 km/h (2 Bft) 97,87 %
01.05.2017 13:38 17,7 C 12,2 C 45 % 1007,7 hPa 0,0 l/m 6,8 km/h (2 Bft) O 90 2 min 0,000 mm 4,4 UV-I 872 W/m 5,6 C 17,5 C 11,3 km/h (2 Bft) 100,00 %
01.05.2017 13:40 17,8 C 12,2 C 41 % 1007,7 hPa 0,0 l/m 4,9 km/h (1 Bft) O-SO 103 2 min 0,000 mm 4,4 UV-I 882 W/m 4,4 C 17,8 C 11,3 km/h (2 Bft) 100,00 %
01.05.2017 13:42 18,0 C 12,2 C 46 % 1007,7 hPa 0,0 l/m 5,2 km/h (1 Bft) O 84 2 min 0,000 mm 4,4 UV-I 866 W/m 6,2 C 18,0 C 9,7 km/h (2 Bft) 100,00 %
01.05.2017 13:44 18,2 C 12,2 C 40 % 1007,7 hPa 0,0 l/m 6,3 km/h (2 Bft) O 97 2 min 0,000 mm 4,4 UV-I 870 W/m 4,4 C 18,2 C 11,3 km/h (2 Bft) 97,73 %
01.05.2017 13:46 18,0 C 12,2 C 40 % 1007,7 hPa 0,0 l/m 6,5 km/h (2 Bft) O-SO 104 2 min 0,000 mm 4,3 UV-I 851 W/m 4,2 C 18,0 C 11,3 km/h (2 Bft) 96,00 %
01.05.2017 13:48 17,9 C 12,2 C 46 % 1007,6 hPa 0,0 l/m 2,6 km/h (1 Bft) O-SO 104 2 min 0,000 mm 4,3 UV-I 864 W/m 6,1 C 17,9 C 6,4 km/h (2 Bft) 100,00 %
01.05.2017 13:50 18,1 C 12,2 C 40 % 1007,7 hPa 0,0 l/m 2,3 km/h (1 Bft) O-SO 106 2 min 0,000 mm 4,4 UV-I 870 W/m 4,3 C 18,1 C 4,8 km/h (1 Bft) 97,37 %
01.05.2017 13:52 18,1 C 12,2 C 45 % 1007,7 hPa 0,0 l/m 1,7 km/h (1 Bft) S 179 2 min 0,000 mm 4,3 UV-I 854 W/m 6,0 C 18,1 C 3,2 km/h (1 Bft) 98,25 %
01.05.2017 13:54 18,3 C 12,2 C 45 % 1007,7 hPa 0,0 l/m 3,0 km/h (1 Bft) N-NO 32 2 min 0,000 mm 4,2 UV-I 814 W/m 6,2 C 18,3 C 8,0 km/h (2 Bft) 97,56 %
01.05.2017 13:56 18,2 C 12,2 C 47 % 1007,7 hPa 0,0 l/m 5,8 km/h (2 Bft) NO 53 2 min 0,000 mm 4,1 UV-I 751 W/m 6,7 C 18,2 C 11,3 km/h (2 Bft) 100,00 %
01.05.2017 13:58 18,3 C 12,2 C 46 % 1007,7 hPa 0,0 l/m 6,3 km/h (2 Bft) NO 46 2 min 0,000 mm 4,1 UV-I 814 W/m 6,5 C 18,3 C 8,0 km/h (2 Bft) 100,00 %
01.05.2017 14:00 18,3 C 12,2 C 40 % 1007,7 hPa 0,0 l/m 3,8 km/h (1 Bft) NO 43 2 min 0,508 mm 4,1 UV-I 831 W/m 4,5 C 18,3 C 4,8 km/h (1 Bft) 100,00 %
01.05.2017 14:02 18,2 C 12,2 C 41 % 1007,7 hPa 0,0 l/m 2,0 km/h (1 Bft) NO 36 2 min 0,000 mm 4,0 UV-I 766 W/m 4,7 C 18,2 C 4,8 km/h (1 Bft) 100,00 %
01.05.2017 14:04 18,1 C 12,2 C 40 % 1007,7 hPa 0,0 l/m 2,0 km/h (1 Bft) N-NO 29 2 min 0,000 mm 4,0 UV-I 800 W/m 4,3 C 18,1 C 4,8 km/h (1 Bft) 100,00 %
01.05.2017 14:06 18,1 C 12,2 C 35 % 1007,7 hPa 0,0 l/m 3,6 km/h (1 Bft) O-SO 122 2 min 0,000 mm 4,0 UV-I 793 W/m 2,4 C 18,1 C 8,0 km/h (2 Bft) 98,08 %
01.05.2017 14:08 18,2 C 12,2 C 36 % 1007,6 hPa 0,0 l/m 5,6 km/h (1 Bft) SW 215 2 min 0,000 mm 4,0 UV-I 823 W/m 2,9 C 18,2 C 11,3 km/h (2 Bft) 100,00 %
01.05.2017 14:10 18,3 C 12,2 C 34 % 1007,6 hPa 0,0 l/m 8,3 km/h (2 Bft) SW 225 2 min 0,000 mm 4,0 UV-I 827 W/m 2,2 C 17,4 C 14,5 km/h (3 Bft) 100,00 %
01.05.2017 14:12 18,5 C 12,2 C 39 % 1007,7 hPa 0,0 l/m 6,0 km/h (2 Bft) W-SW 239 2 min 0,000 mm 3,9 UV-I 790 W/m 4,3 C 18,5 C 9,7 km/h (2 Bft) 98,00 %
01.05.2017 14:14 18,8 C 12,2 C 36 % 1007,7 hPa 0,0 l/m 8,8 km/h (2 Bft) S-SW 198 2 min 0,000 mm 3,9 UV-I 795 W/m 3,4 C 17,8 C 12,9 km/h (3 Bft) 100,00 %
01.05.2017 14:16 18,6 C 12,2 C 35 % 1007,7 hPa 0,0 l/m 3,8 km/h (1 Bft) SW 232 2 min 0,000 mm 3,8 UV-I 767 W/m 2,8 C 18,6 C 6,4 km/h (2 Bft) 100,00 %
01.05.2017 14:18 18,5 C 12,2 C 36 % 1007,6 hPa 0,0 l/m 1,0 km/h (0 Bft) W-SW 255 2 min 0,000 mm 3,4 UV-I 676 W/m 3,2 C 18,5 C 3,2 km/h (1 Bft) 98,00 %
01.05.2017 14:20 18,6 C 12,2 C 35 % 1007,6 hPa 0,0 l/m 1,0 km/h (0 Bft) S 169 2 min 0,000 mm 3,4 UV-I 620 W/m 2,8 C 18,6 C 6,4 km/h (2 Bft) 100,00 %
01.05.2017 14:22 18,6 C 12,2 C 35 % 1007,6 hPa 0,0 l/m 3,3 km/h (1 Bft) S-SW 207 2 min 0,000 mm 3,4 UV-I 680 W/m 2,8 C 18,6 C 8,0 km/h (2 Bft) 97,87 %
01.05.2017 14:24 18,6 C 12,2 C 33 % 1007,5 hPa 0,0 l/m 8,7 km/h (2 Bft) SW 227 2 min 0,000 mm 3,6 UV-I 673 W/m 2,0 C 17,6 C 14,5 km/h (3 Bft) 98,11 %
01.05.2017 14:26 18,6 C 12,2 C 31 % 1007,5 hPa 0,0 l/m 3,9 km/h (1 Bft) W 267 2 min 0,000 mm 3,7 UV-I 745 W/m 1,1 C 18,6 C 11,3 km/h (2 Bft) 100,00 %
01.05.2017 14:28 18,4 C 12,2 C 33 % 1007,6 hPa 0,0 l/m 0,2 km/h (0 Bft) W 265 2 min 0,000 mm 3,6 UV-I 731 W/m 1,8 C 18,4 C 3,2 km/h (1 Bft) 98,00 %
01.05.2017 14:30 18,5 C 12,2 C 33 % 1007,5 hPa 0,0 l/m 5,6 km/h (1 Bft) S-SW 197 2 min 0,000 mm 3,6 UV-I 771 W/m 1,9 C 18,5 C 8,0 km/h (2 Bft) 100,00 %
01.05.2017 14:32 18,4 C 12,2 C 33 % 1007,6 hPa 0,0 l/m 0,4 km/h (0 Bft) S-SW 197 2 min 0,000 mm 3,5 UV-I 712 W/m 1,8 C 18,4 C 1,6 km/h (1 Bft) 98,00 %
01.05.2017 14:34 18,3 C 12,2 C 36 % 1007,5 hPa 0,0 l/m 1,5 km/h (1 Bft) N-NW 347 2 min 0,000 mm 3,2 UV-I 629 W/m 3,0 C 18,3 C 4,8 km/h (1 Bft) 100,00 %
01.05.2017 14:36 18,3 C 12,2 C 37 % 1007,5 hPa 0,0 l/m 1,3 km/h (1 Bft) W-NW 302 2 min 0,000 mm 2,8 UV-I 527 W/m 3,4 C 18,3 C 3,2 km/h (1 Bft) 97,73 %
01.05.2017 14:38 18,3 C 12,2 C 36 % 1007,5 hPa 0,0 l/m 5,1 km/h (1 Bft) W-SW 245 2 min 0,000 mm 2,7 UV-I 519 W/m 3,0 C 18,3 C 8,0 km/h (2 Bft) 98,21 %
01.05.2017 14:40 18,2 C 12,2 C 33 % 1007,5 hPa 0,0 l/m 4,5 km/h (1 Bft) W-SW 245 2 min 0,000 mm 2,6 UV-I 496 W/m 1,7 C 18,2 C 6,4 km/h (2 Bft) 97,44 %
01.05.2017 14:42 18,1 C 12,2 C 37 % 1007,5 hPa 0,0 l/m 1,9 km/h (1 Bft) W-NW 284 2 min 0,000 mm 2,7 UV-I 517 W/m 3,2 C 18,1 C 3,2 km/h (1 Bft) 98,08 %
01.05.2017 14:44 18,1 C 12,2 C 34 % 1007,5 hPa 0,0 l/m 1,5 km/h (1 Bft) S-SW 194 2 min 0,000 mm 2,8 UV-I 580 W/m 2,0 C 18,1 C 3,2 km/h (1 Bft) 100,00 %
01.05.2017 14:46 18,1 C 12,2 C 34 % 1007,5 hPa 0,0 l/m 1,5 km/h (1 Bft) S 188 2 min 0,000 mm 2,9 UV-I 587 W/m 2,0 C 18,1 C 3,2 km/h (1 Bft) 100,00 %
01.05.2017 14:48 18,2 C 12,2 C 34 % 1007,5 hPa 0,0 l/m 2,0 km/h (1 Bft) SO 144 2 min 0,000 mm 3,0 UV-I 642 W/m 2,1 C 18,2 C 4,8 km/h (1 Bft) 97,44 %
01.05.2017 14:50 18,3 C 12,2 C 36 % 1007,5 hPa 0,0 l/m 2,3 km/h (1 Bft) SO 144 2 min 0,000 mm 3,1 UV-I 708 W/m 3,0 C 18,3 C 4,8 km/h (1 Bft) 95,12 %
01.05.2017 14:52 18,3 C 12,2 C 33 % 1007,5 hPa 0,0 l/m 1,7 km/h (1 Bft) SO 144 2 min 0,000 mm 3,4 UV-I 762 W/m 1,8 C 18,3 C 3,2 km/h (1 Bft) 96,00 %
01.05.2017 14:54 18,3 C 12,2 C 33 % 1007,4 hPa 0,0 l/m 2,7 km/h (1 Bft) S 171 2 min 0,000 mm 3,3 UV-I 735 W/m 1,8 C 18,3 C 4,8 km/h (1 Bft) 97,87 %
01.05.2017 14:56 18,4 C 12,2 C 37 % 1007,4 hPa 0,0 l/m 2,9 km/h (1 Bft) S-SO 163 2 min 0,000 mm 3,1 UV-I 702 W/m 3,5 C 18,4 C 8,0 km/h (2 Bft) 95,74 %
01.05.2017 14:58 18,3 C 12,2 C 32 % 1007,4 hPa 0,0 l/m 3,6 km/h (1 Bft) S-SO 167 2 min 0,000 mm 3,1 UV-I 683 W/m 1,3 C 18,3 C 6,4 km/h (2 Bft) 94,00 %
01.05.2017 15:00 18,4 C 12,2 C 42 % 1007,4 hPa 0,0 l/m 0,2 km/h (0 Bft) S-SO 166 2 min 0,432 mm 3,0 UV-I 672 W/m 5,3 C 18,4 C 1,6 km/h (1 Bft) 95,74 %
01.05.2017 15:02 18,6 C 12,2 C 43 % 1007,4 hPa 0,0 l/m 0,5 km/h (0 Bft) S-SO 155 2 min 0,000 mm 3,0 UV-I 673 W/m 5,8 C 18,6 C 1,6 km/h (1 Bft) 98,11 %
01.05.2017 15:04 18,7 C 12,2 C 41 % 1007,4 hPa 0,0 l/m 1,8 km/h (1 Bft) W 259 2 min 0,000 mm 3,0 UV-I 654 W/m 5,2 C 18,7 C 6,4 km/h (2 Bft) 92,11 %
01.05.2017 15:06 18,9 C 12,2 C 43 % 1007,4 hPa 0,0 l/m 2,3 km/h (1 Bft) N-NO 16 2 min 0,000 mm 3,0 UV-I 669 W/m 6,0 C 18,9 C 6,4 km/h (2 Bft) 97,87 %
01.05.2017 15:08 18,8 C 12,2 C 36 % 1007,3 hPa 0,0 l/m 2,0 km/h (1 Bft) NW 315 2 min 0,000 mm 2,7 UV-I 616 W/m 3,4 C 18,8 C 6,4 km/h (2 Bft) 92,45 %
01.05.2017 15:10 18,7 C 12,2 C 37 % 1007,4 hPa 0,0 l/m 1,7 km/h (1 Bft) NW 317 2 min 0,000 mm 2,6 UV-I 571 W/m 3,7 C 18,7 C 8,0 km/h (2 Bft) 97,56 %
01.05.2017 15:12 18,6 C 12,2 C 38 % 1007,4 hPa 0,0 l/m 0,3 km/h (0 Bft) N-NW 333 2 min 0,000 mm 2,4 UV-I 490 W/m 4,0 C 18,6 C 1,6 km/h (1 Bft) 94,00 %
01.05.2017 15:14 18,5 C 12,2 C 44 % 1007,4 hPa 0,0 l/m 1,1 km/h (1 Bft) N 5 2 min 0,000 mm 2,2 UV-I 437 W/m 6,0 C 18,5 C 3,2 km/h (1 Bft) 97,87 %
01.05.2017 15:16 18,4 C 12,2 C 41 % 1007,3 hPa 0,0 l/m 2,4 km/h (1 Bft) NW 321 2 min 0,000 mm 2,1 UV-I 408 W/m 4,9 C 18,4 C 4,8 km/h (1 Bft) 97,87 %
01.05.2017 15:18 18,3 C 12,8 C 39 % 1007,3 hPa 0,0 l/m 2,2 km/h (1 Bft) NW 319 2 min 0,000 mm 2,2 UV-I 458 W/m 4,1 C 18,3 C 3,2 km/h (1 Bft) 94,87 %
01.05.2017 15:20 18,4 C 12,8 C 39 % 1007,3 hPa 0,0 l/m 1,2 km/h (1 Bft) NW 317 2 min 0,000 mm 2,3 UV-I 484 W/m 4,2 C 18,4 C 3,2 km/h (1 Bft) 97,62 %
01.05.2017 15:22 18,4 C 12,8 C 44 % 1007,3 hPa 0,0 l/m 1,0 km/h (0 Bft) N 10 2 min 0,000 mm 2,5 UV-I 600 W/m 5,9 C 18,4 C 4,8 km/h (1 Bft) 96,43 %
01.05.2017 15:24 18,5 C 12,8 C 40 % 1007,2 hPa 0,0 l/m 2,1 km/h (1 Bft) NW 315 2 min 0,000 mm 2,6 UV-I 658 W/m 4,6 C 18,5 C 6,4 km/h (2 Bft) 90,00 %
01.05.2017 15:26 18,6 C 12,8 C 44 % 1007,2 hPa 0,0 l/m 3,2 km/h (1 Bft) N-NO 26 2 min 0,000 mm 2,4 UV-I 608 W/m 6,1 C 18,6 C 8,0 km/h (2 Bft) 95,74 %
01.05.2017 15:28 18,5 C 12,8 C 40 % 1007,2 hPa 0,0 l/m 5,0 km/h (1 Bft) NO 50 2 min 0,000 mm 2,3 UV-I 543 W/m 4,6 C 18,5 C 8,0 km/h (2 Bft) 96,00 %
01.05.2017 15:30 18,5 C 12,8 C 39 % 1007,2 hPa 0,0 l/m 5,5 km/h (1 Bft) N-NO 32 2 min 0,000 mm 2,5 UV-I 651 W/m 4,3 C 18,5 C 8,0 km/h (2 Bft) 100,00 %
01.05.2017 15:32 18,6 C 12,8 C 41 % 1007,2 hPa 0,0 l/m 4,8 km/h (1 Bft) NO 44 2 min 0,000 mm 2,7 UV-I 687 W/m 5,1 C 18,6 C 8,0 km/h (2 Bft) 98,00 %
01.05.2017 15:34 18,6 C 12,8 C 35 % 1007,2 hPa 0,0 l/m 2,6 km/h (1 Bft) O-NO 61 2 min 0,000 mm 2,5 UV-I 622 W/m 2,8 C 18,6 C 4,8 km/h (1 Bft) 100,00 %
01.05.2017 15:36 18,6 C 12,8 C 38 % 1007,2 hPa 0,0 l/m 1,3 km/h (1 Bft) O-NO 71 2 min 0,000 mm 2,2 UV-I 466 W/m 4,0 C 18,6 C 4,8 km/h (1 Bft) 96,00 %
01.05.2017 15:38 18,7 C 12,8 C 46 % 1007,2 hPa 0,0 l/m 0,3 km/h (0 Bft) O-NO 57 2 min 0,000 mm 2,3 UV-I 520 W/m 6,8 C 18,7 C 1,6 km/h (1 Bft) 94,34 %
01.05.2017 15:40 18,7 C 12,8 C 44 % 1007,2 hPa 0,0 l/m 1,9 km/h (1 Bft) N-NO 13 2 min 0,000 mm 2,5 UV-I 661 W/m 6,2 C 18,7 C 8,0 km/h (2 Bft) 94,00 %
01.05.2017 15:42 18,6 C 12,8 C 42 % 1007,2 hPa 0,0 l/m 2,4 km/h (1 Bft) N-NW 347 2 min 0,000 mm 2,6 UV-I 689 W/m 5,4 C 18,6 C 4,8 km/h (1 Bft) 100,00 %
01.05.2017 15:44 18,7 C 12,8 C 38 % 1007,1 hPa 0,0 l/m 3,6 km/h (1 Bft) O-NO 57 2 min 0,000 mm 2,5 UV-I 651 W/m 4,1 C 18,7 C 8,0 km/h (2 Bft) 96,43 %
01.05.2017 15:46 18,8 C 12,8 C 39 % 1007,2 hPa 0,0 l/m 7,2 km/h (2 Bft) N-NO 26 2 min 0,000 mm 2,5 UV-I 640 W/m 4,6 C 18,4 C 9,7 km/h (2 Bft) 97,37 %
01.05.2017 15:48 18,7 C 12,8 C 34 % 1007,1 hPa 0,0 l/m 0,5 km/h (0 Bft) N-NO 27 2 min 0,000 mm 2,3 UV-I 559 W/m 2,5 C 18,7 C 1,6 km/h (1 Bft) 96,23 %
01.05.2017 15:50 18,7 C 12,8 C 36 % 1007,1 hPa 0,0 l/m 3,7 km/h (1 Bft) NO 46 2 min 0,000 mm 2,3 UV-I 535 W/m 3,3 C 18,7 C 8,0 km/h (2 Bft) 97,56 %
01.05.2017 15:52 18,8 C 12,8 C 43 % 1007,2 hPa 0,0 l/m 8,7 km/h (2 Bft) O-NO 62 2 min 0,000 mm 2,4 UV-I 597 W/m 6,0 C 17,8 C 12,9 km/h (3 Bft) 98,21 %
01.05.2017 15:54 18,8 C 12,8 C 34 % 1007,2 hPa 0,0 l/m 2,9 km/h (1 Bft) O 84 2 min 0,000 mm 2,2 UV-I 526 W/m 2,6 C 18,8 C 6,4 km/h (2 Bft) 94,74 %
01.05.2017 15:56 18,7 C 12,8 C 38 % 1007,2 hPa 0,0 l/m 5,1 km/h (1 Bft) NO 50 2 min 0,000 mm 2,1 UV-I 511 W/m 4,1 C 18,7 C 8,0 km/h (2 Bft) 97,87 %
01.05.2017 15:58 18,8 C 12,8 C 41 % 1007,2 hPa 0,0 l/m 3,7 km/h (1 Bft) NO 50 2 min 0,000 mm 2,1 UV-I 509 W/m 5,3 C 18,8 C 4,8 km/h (1 Bft) 96,23 %
01.05.2017 16:00 18,8 C 12,8 C 37 % 1007,2 hPa 0,0 l/m 3,1 km/h (1 Bft) O 84 2 min 0,000 mm 2,2 UV-I 600 W/m 3,8 C 18,8 C 4,8 km/h (1 Bft) 97,22 %
01.05.2017 16:02 18,8 C 12,8 C 37 % 1007,1 hPa 0,0 l/m 5,7 km/h (1 Bft) SO 128 2 min 0,356 mm 2,3 UV-I 655 W/m 3,8 C 18,8 C 6,4 km/h (2 Bft) 96,43 %
01.05.2017 16:04 18,8 C 12,8 C 35 % 1007,1 hPa 0,0 l/m 2,9 km/h (1 Bft) O-SO 119 2 min 0,000 mm 2,3 UV-I 654 W/m 3,0 C 18,8 C 6,4 km/h (2 Bft) 95,12 %
01.05.2017 16:06 18,9 C 12,8 C 40 % 1007,1 hPa 0,0 l/m 1,1 km/h (1 Bft) O-SO 117 2 min 0,000 mm 2,3 UV-I 624 W/m 5,0 C 18,9 C 3,2 km/h (1 Bft) 94,00 %
01.05.2017 16:08 18,9 C 12,8 C 41 % 1007,0 hPa 0,0 l/m 5,0 km/h (1 Bft) N-NO 28 2 min 0,000 mm 2,2 UV-I 582 W/m 5,4 C 18,9 C 9,7 km/h (2 Bft) 98,00 %
01.05.2017 16:10 19,2 C 12,8 C 41 % 1007,1 hPa 0,0 l/m 6,4 km/h (2 Bft) NO 50 2 min 0,000 mm 2,2 UV-I 617 W/m 5,6 C 19,2 C 9,7 km/h (2 Bft) 96,00 %
01.05.2017 16:12 19,2 C 12,8 C 38 % 1007,1 hPa 0,0 l/m 3,3 km/h (1 Bft) N-NO 22 2 min 0,000 mm 2,2 UV-I 625 W/m 4,5 C 19,2 C 9,7 km/h (2 Bft) 94,74 %
01.05.2017 16:14 19,1 C 12,8 C 36 % 1007,1 hPa 0,0 l/m 0,5 km/h (0 Bft) N-NO 22 2 min 0,000 mm 2,1 UV-I 593 W/m 3,7 C 19,1 C 1,6 km/h (1 Bft) 94,00 %
01.05.2017 16:16 19,1 C 12,8 C 36 % 1007,1 hPa 0,0 l/m 0,9 km/h (0 Bft) N-NO 22 2 min 0,000 mm 2,0 UV-I 546 W/m 3,7 C 19,1 C 3,2 km/h (1 Bft) 98,11 %
01.05.2017 16:18 19,0 C 12,8 C 40 % 1007,1 hPa 0,0 l/m 1,0 km/h (0 Bft) N-NO 22 2 min 0,000 mm 2,1 UV-I 608 W/m 5,1 C 19,0 C 3,2 km/h (1 Bft) 94,74 %
01.05.2017 16:20 18,9 C 12,8 C 37 % 1007,1 hPa 0,0 l/m 1,4 km/h (1 Bft) N-NO 22 2 min 0,000 mm 2,1 UV-I 611 W/m 3,9 C 18,9 C 3,2 km/h (1 Bft) 96,23 %
01.05.2017 16:22 19,1 C 12,8 C 39 % 1007,1 hPa 0,0 l/m 3,5 km/h (1 Bft) N 9 2 min 0,000 mm 2,0 UV-I 601 W/m 4,8 C 19,1 C 8,0 km/h (2 Bft) 97,56 %
01.05.2017 16:24 19,1 C 12,8 C 38 % 1007,1 hPa 0,0 l/m 2,9 km/h (1 Bft) NW 325 2 min 0,000 mm 2,0 UV-I 589 W/m 4,4 C 19,1 C 6,4 km/h (2 Bft) 97,14 %
01.05.2017 16:26 19,1 C 12,8 C 36 % 1007,1 hPa 0,0 l/m 3,4 km/h (1 Bft) N 5 2 min 0,000 mm 1,9 UV-I 588 W/m 3,7 C 19,1 C 12,9 km/h (3 Bft) 96,77 %
01.05.2017 16:28 19,0 C 12,8 C 40 % 1007,1 hPa 0,0 l/m 4,4 km/h (1 Bft) NW 322 2 min 0,000 mm 1,9 UV-I 585 W/m 5,1 C 19,0 C 11,3 km/h (2 Bft) 95,12 %
01.05.2017 16:30 19,0 C 12,8 C 37 % 1007,2 hPa 0,0 l/m 4,0 km/h (1 Bft) NW 306 2 min 0,000 mm 1,9 UV-I 580 W/m 4,0 C 19,0 C 6,4 km/h (2 Bft) 94,34 %
01.05.2017 16:32 19,1 C 12,8 C 38 % 1007,2 hPa 0,0 l/m 2,6 km/h (1 Bft) W-NW 295 2 min 0,000 mm 1,9 UV-I 579 W/m 4,4 C 19,1 C 6,4 km/h (2 Bft) 94,74 %
01.05.2017 16:34 19,1 C 12,8 C 34 % 1007,2 hPa 0,0 l/m 1,6 km/h (1 Bft) W-NW 283 2 min 0,000 mm 1,8 UV-I 565 W/m 2,9 C 19,1 C 4,8 km/h (1 Bft) 94,34 %
01.05.2017 16:36 19,1 C 12,8 C 37 % 1007,1 hPa 0,0 l/m 2,9 km/h (1 Bft) N-NW 331 2 min 0,000 mm 1,8 UV-I 562 W/m 4,1 C 19,1 C 8,0 km/h (2 Bft) 97,87 %
01.05.2017 16:38 19,2 C 12,8 C 43 % 1007,2 hPa 0,0 l/m 1,5 km/h (1 Bft) N-NW 332 2 min 0,000 mm 1,7 UV-I 556 W/m 6,3 C 19,2 C 3,2 km/h (1 Bft) 97,87 %
01.05.2017 16:40 19,2 C 12,8 C 36 % 1007,2 hPa 0,0 l/m 2,5 km/h (1 Bft) NW 322 2 min 0,000 mm 1,7 UV-I 552 W/m 3,8 C 19,2 C 6,4 km/h (2 Bft) 96,23 %
01.05.2017 16:42 19,1 C 12,8 C 37 % 1007,3 hPa 0,0 l/m 0,6 km/h (0 Bft) NW 326 2 min 0,000 mm 1,7 UV-I 543 W/m 4,1 C 19,1 C 1,6 km/h (1 Bft) 97,44 %
01.05.2017 16:44 19,1 C 12,8 C 37 % 1007,3 hPa 0,0 l/m 4,1 km/h (1 Bft) W 275 2 min 0,000 mm 1,6 UV-I 530 W/m 4,1 C 19,1 C 11,3 km/h (2 Bft) 98,11 %
01.05.2017 16:46 19,1 C 12,8 C 39 % 1007,3 hPa 0,0 l/m 1,6 km/h (1 Bft) W 276 2 min 0,000 mm 1,6 UV-I 515 W/m 4,8 C 19,1 C 4,8 km/h (1 Bft) 95,74 %
01.05.2017 16:48 19,1 C 12,8 C 39 % 1007,3 hPa 0,0 l/m 1,1 km/h (1 Bft) N 10 2 min 0,000 mm 1,6 UV-I 529 W/m 4,8 C 19,1 C 1,6 km/h (1 Bft) 97,37 %
01.05.2017 16:50 19,1 C 12,8 C 42 % 1007,3 hPa 0,0 l/m 1,2 km/h (1 Bft) N 350 2 min 0,000 mm 1,5 UV-I 529 W/m 5,9 C 19,1 C 3,2 km/h (1 Bft) 94,34 %
01.05.2017 16:52 19,1 C 12,8 C 39 % 1007,3 hPa 0,0 l/m 0,6 km/h (0 Bft) N 360 2 min 0,000 mm 1,5 UV-I 529 W/m 4,8 C 19,1 C 3,2 km/h (1 Bft) 98,00 %
01.05.2017 16:54 19,0 C 12,8 C 36 % 1007,4 hPa 0,0 l/m 1,8 km/h (1 Bft) N-NW 331 2 min 0,000 mm 1,5 UV-I 518 W/m 3,6 C 19,0 C 6,4 km/h (2 Bft) 89,47 %
01.05.2017 16:56 18,9 C 12,8 C 35 % 1007,4 hPa 0,0 l/m 2,0 km/h (1 Bft) N-NW 340 2 min 0,000 mm 1,4 UV-I 529 W/m 3,1 C 18,9 C 6,4 km/h (2 Bft) 94,34 %
01.05.2017 16:58 19,1 C 12,8 C 38 % 1007,4 hPa 0,0 l/m 1,6 km/h (1 Bft) NW 325 2 min 0,000 mm 1,4 UV-I 528 W/m 4,4 C 19,1 C 4,8 km/h (1 Bft) 95,74 %
01.05.2017 17:00 19,1 C 12,8 C 39 % 1007,5 hPa 0,0 l/m 1,1 km/h (1 Bft) N-NW 338 2 min 0,000 mm 1,3 UV-I 493 W/m 4,8 C 19,1 C 4,8 km/h (1 Bft) 96,00 %
01.05.2017 17:02 19,1 C 12,8 C 40 % 1007,5 hPa 0,0 l/m 2,8 km/h (1 Bft) N-NO 16 2 min 0,355 mm 1,3 UV-I 487 W/m 5,2 C 19,1 C 4,8 km/h (1 Bft) 92,11 %
01.05.2017 17:04 19,0 C 12,8 C 36 % 1007,5 hPa 0,0 l/m 4,2 km/h (1 Bft) N-NO 23 2 min 0,000 mm 1,3 UV-I 532 W/m 3,6 C 19,0 C 6,4 km/h (2 Bft) 94,64 %
01.05.2017 17:06 19,1 C 12,8 C 39 % 1007,5 hPa 0,0 l/m 2,7 km/h (1 Bft) N 360 2 min 0,000 mm 1,3 UV-I 541 W/m 4,8 C 19,1 C 6,4 km/h (2 Bft) 95,12 %
01.05.2017 17:08 18,9 C 12,8 C 40 % 1007,5 hPa 0,0 l/m 2,0 km/h (1 Bft) N 10 2 min 0,000 mm 1,1 UV-I 343 W/m 5,0 C 18,9 C 4,8 km/h (1 Bft) 93,62 %
01.05.2017 17:10 18,8 C 12,8 C 40 % 1007,5 hPa 0,0 l/m 3,0 km/h (1 Bft) N-NO 15 0 min 0,000 mm 1,0 UV-I 261 W/m 4,9 C 18,8 C 6,4 km/h (2 Bft) 92,00 %
01.05.2017 17:12 18,6 C 12,8 C 40 % 1007,5 hPa 0,0 l/m 3,4 km/h (1 Bft) N-NO 12 0 min 0,000 mm 1,0 UV-I 256 W/m 4,7 C 18,6 C 6,4 km/h (2 Bft) 89,36 %
01.05.2017 17:14 18,3 C 12,8 C 43 % 1007,4 hPa 0,0 l/m 2,5 km/h (1 Bft) N-NO 15 0 min 0,000 mm 1,0 UV-I 226 W/m 5,5 C 18,3 C 6,4 km/h (2 Bft) 96,00 %
01.05.2017 17:16 18,2 C 12,8 C 42 % 1007,4 hPa 0,0 l/m 1,4 km/h (1 Bft) N-NW 329 0 min 0,000 mm 0,9 UV-I 189 W/m 5,1 C 18,2 C 4,8 km/h (1 Bft) 94,74 %
01.05.2017 17:18 18,2 C 12,8 C 39 % 1007,4 hPa 0,0 l/m 0,9 km/h (0 Bft) N-NW 331 0 min 0,000 mm 0,8 UV-I 164 W/m 4,0 C 18,2 C 3,2 km/h (1 Bft) 93,75 %
01.05.2017 17:20 18,1 C 12,8 C 42 % 1007,5 hPa 0,0 l/m 1,6 km/h (1 Bft) N-NW 327 0 min 0,000 mm 0,8 UV-I 157 W/m 5,0 C 18,1 C 3,2 km/h (1 Bft) 92,11 %
01.05.2017 17:22 18,2 C 12,8 C 36 % 1007,4 hPa 0,0 l/m 0,8 km/h (0 Bft) N-NW 327 0 min 0,000 mm 0,8 UV-I 176 W/m 2,9 C 18,2 C 3,2 km/h (1 Bft) 96,23 %
01.05.2017 17:24 18,1 C 12,8 C 42 % 1007,4 hPa 0,0 l/m 2,3 km/h (1 Bft) N-NO 28 0 min 0,000 mm 0,9 UV-I 196 W/m 5,0 C 18,1 C 6,4 km/h (2 Bft) 95,74 %
01.05.2017 17:26 18,2 C 12,8 C 36 % 1007,4 hPa 0,0 l/m 1,4 km/h (1 Bft) N-NO 28 2 min 0,000 mm 1,0 UV-I 332 W/m 2,9 C 18,2 C 3,2 km/h (1 Bft) 98,11 %
01.05.2017 17:28 18,4 C 12,8 C 36 % 1007,3 hPa 0,0 l/m 0,2 km/h (0 Bft) N-NO 28 2 min 0,000 mm 1,0 UV-I 503 W/m 3,1 C 18,4 C 1,6 km/h (1 Bft) 98,00 %
01.05.2017 17:30 18,6 C 12,8 C 38 % 1007,3 hPa 0,0 l/m 0,8 km/h (0 Bft) N-NO 28 2 min 0,000 mm 1,0 UV-I 484 W/m 4,0 C 18,6 C 3,2 km/h (1 Bft) 100,00 %
01.05.2017 17:32 18,8 C 12,8 C 40 % 1007,3 hPa 0,0 l/m 1,4 km/h (1 Bft) N-NO 28 2 min 0,000 mm 1,0 UV-I 488 W/m 4,9 C 18,8 C 4,8 km/h (1 Bft) 100,00 %
01.05.2017 17:34 19,0 C 12,8 C 39 % 1007,3 hPa 0,0 l/m 3,4 km/h (1 Bft) N-NO 32 2 min 0,000 mm 1,0 UV-I 482 W/m 4,7 C 19,0 C 4,8 km/h (1 Bft) 92,86 %
01.05.2017 17:36 19,1 C 12,8 C 38 % 1007,3 hPa 0,0 l/m 2,2 km/h (1 Bft) N-NO 15 2 min 0,000 mm 0,9 UV-I 466 W/m 4,4 C 19,1 C 4,8 km/h (1 Bft) 94,00 %
01.05.2017 17:38 18,9 C 12,8 C 37 % 1007,4 hPa 0,0 l/m 3,3 km/h (1 Bft) N-NO 33 2 min 0,000 mm 0,9 UV-I 454 W/m 3,9 C 18,9 C 4,8 km/h (1 Bft) 92,00 %
01.05.2017 17:40 19,1 C 12,8 C 38 % 1007,3 hPa 0,0 l/m 3,6 km/h (1 Bft) NO 41 2 min 0,000 mm 0,8 UV-I 432 W/m 4,4 C 19,1 C 6,4 km/h (2 Bft) 97,37 %
01.05.2017 17:42 19,1 C 12,8 C 34 % 1007,3 hPa 0,0 l/m 4,0 km/h (1 Bft) NO 43 2 min 0,000 mm 0,8 UV-I 306 W/m 2,9 C 19,1 C 4,8 km/h (1 Bft) 97,87 %
01.05.2017 17:44 19,0 C 12,8 C 34 % 1007,3 hPa 0,0 l/m 4,3 km/h (1 Bft) N-NO 29 0 min 0,000 mm 0,7 UV-I 215 W/m 2,8 C 19,0 C 6,4 km/h (2 Bft) 98,00 %
01.05.2017 17:46 18,7 C 12,8 C 36 % 1007,3 hPa 0,0 l/m 1,6 km/h (1 Bft) N-NO 29 0 min 0,000 mm 0,7 UV-I 192 W/m 3,3 C 18,7 C 4,8 km/h (1 Bft) 90,00 %
01.05.2017 17:48 18,6 C 12,8 C 40 % 1007,3 hPa 0,0 l/m 0,3 km/h (0 Bft) N-NO 29 0 min 0,000 mm 0,7 UV-I 159 W/m 4,7 C 18,6 C 3,2 km/h (1 Bft) 97,37 %
01.05.2017 17:50 18,5 C 12,8 C 38 % 1007,3 hPa 0,0 l/m 1,8 km/h (1 Bft) N-NO 29 0 min 0,000 mm 0,6 UV-I 162 W/m 3,9 C 18,5 C 4,8 km/h (1 Bft) 100,00 %
01.05.2017 17:52 18,4 C 12,8 C 45 % 1007,3 hPa 0,0 l/m 3,3 km/h (1 Bft) N-NO 22 2 min 0,000 mm 0,7 UV-I 245 W/m 6,3 C 18,4 C 4,8 km/h (1 Bft) 98,11 %
01.05.2017 17:54 18,4 C 12,8 C 38 % 1007,3 hPa 0,0 l/m 1,9 km/h (1 Bft) N 355 2 min 0,000 mm 0,6 UV-I 280 W/m 3,8 C 18,4 C 6,4 km/h (2 Bft) 94,87 %
01.05.2017 17:56 18,3 C 12,8 C 40 % 1007,4 hPa 0,0 l/m 0,1 km/h (0 Bft) N 355 2 min 0,000 mm 0,6 UV-I 217 W/m 4,5 C 18,3 C 1,6 km/h (1 Bft) 100,00 %
01.05.2017 17:58 18,2 C 12,8 C 38 % 1007,3 hPa 0,0 l/m 0,5 km/h (0 Bft) N 355 0 min 0,000 mm 0,5 UV-I 166 W/m 3,7 C 18,2 C 3,2 km/h (1 Bft) 98,00 %
01.05.2017 18:00 18,2 C 12,8 C 38 % 1007,3 hPa 0,0 l/m 2,0 km/h (1 Bft) W-NW 297 0 min 0,000 mm 0,5 UV-I 161 W/m 3,7 C 18,2 C 4,8 km/h (1 Bft) 93,62 %
01.05.2017 18:03 18,2 C 12,8 C 36 % 1007,3 hPa 0,0 l/m 1,6 km/h (1 Bft) W-NW 297 0 min 0,204 mm 0,5 UV-I 154 W/m 2,9 C 18,2 C 3,2 km/h (1 Bft) 98,63 %
01.05.2017 18:04 18,2 C 12,8 C 37 % 1007,3 hPa 0,0 l/m 2,4 km/h (1 Bft) W-NW 297 0 min 0,000 mm 0,5 UV-I 148 W/m 3,3 C 18,2 C 3,2 km/h (1 Bft) 100,00 %
01.05.2017 18:06 18,2 C 12,8 C 36 % 1007,3 hPa 0,0 l/m 0,9 km/h (0 Bft) W-NW 297 0 min 0,000 mm 0,5 UV-I 152 W/m 2,9 C 18,2 C 3,2 km/h (1 Bft) 100,00 %
01.05.2017 18:08 18,2 C 12,8 C 35 % 1007,3 hPa 0,0 l/m 1,5 km/h (1 Bft) W-NW 297 0 min 0,000 mm 0,1 UV-I 139 W/m 2,5 C 18,2 C 3,2 km/h (1 Bft) 98,00 %
01.05.2017 18:10 18,2 C 12,8 C 36 % 1007,2 hPa 0,0 l/m 3,1 km/h (1 Bft) W-NW 297 0 min 0,000 mm 0,0 UV-I 130 W/m 2,9 C 18,2 C 4,8 km/h (1 Bft) 95,74 %
01.05.2017 18:12 18,2 C 12,8 C 36 % 1007,3 hPa 0,0 l/m 1,9 km/h (1 Bft) W-NW 297 0 min 0,000 mm 0,0 UV-I 124 W/m 2,9 C 18,2 C 4,8 km/h (1 Bft) 100,00 %
01.05.2017 18:14 18,1 C 12,8 C 38 % 1007,2 hPa 0,0 l/m 0,2 km/h (0 Bft) W-NW 297 0 min 0,000 mm 0,0 UV-I 123 W/m 3,6 C 18,1 C 1,6 km/h (1 Bft) 97,87 %
01.05.2017 18:16 17,9 C 12,8 C 42 % 1007,2 hPa 0,0 l/m 0,1 km/h (0 Bft) W-NW 297 0 min 0,000 mm 0,0 UV-I 165 W/m 4,8 C 17,9 C 1,6 km/h (1 Bft) 97,87 %
01.05.2017 18:18 17,8 C 12,8 C 45 % 1007,2 hPa 0,0 l/m 0,1 km/h (0 Bft) W-NW 297 2 min 0,000 mm 0,0 UV-I 207 W/m 5,7 C 17,8 C 1,6 km/h (1 Bft) 100,00 %
01.05.2017 18:20 17,9 C 12,8 C 39 % 1007,2 hPa 0,0 l/m 0,5 km/h (0 Bft) W-NW 297 2 min 0,000 mm 0,0 UV-I 242 W/m 3,8 C 17,9 C 1,6 km/h (1 Bft) 94,00 %
01.05.2017 18:22 18,2 C 12,8 C 40 % 1007,2 hPa 0,0 l/m 0,4 km/h (0 Bft) W-NW 297 2 min 0,000 mm 0,0 UV-I 194 W/m 4,4 C 18,2 C 1,6 km/h (1 Bft) 100,00 %
01.05.2017 18:24 18,3 C 12,8 C 38 % 1007,3 hPa 0,0 l/m 0,5 km/h (0 Bft) W-NW 297 2 min 0,000 mm 0,0 UV-I 301 W/m 3,7 C 18,3 C 1,6 km/h (1 Bft) 100,00 %
01.05.2017 18:26 18,4 C 12,8 C 41 % 1007,3 hPa 0,0 l/m 0,8 km/h (0 Bft) W-NW 297 2 min 0,000 mm 0,0 UV-I 231 W/m 4,9 C 18,4 C 1,6 km/h (1 Bft) 98,11 %
01.05.2017 18:28 18,5 C 12,8 C 43 % 1007,3 hPa 0,0 l/m 0,2 km/h (0 Bft) W-NW 297 2 min 0,000 mm 0,0 UV-I 183 W/m 5,7 C 18,5 C 1,6 km/h (1 Bft) 100,00 %
01.05.2017 18:30 18,4 C 12,8 C 44 % 1007,3 hPa 0,0 l/m 0,1 km/h (0 Bft) W-NW 297 2 min 0,000 mm 0,0 UV-I 214 W/m 5,9 C 18,4 C 1,6 km/h (1 Bft) 91,49 %
01.05.2017 18:32 18,4 C 13,3 C 39 % 1007,3 hPa 0,0 l/m 1,2 km/h (1 Bft) W-NW 297 2 min 0,000 mm 0,0 UV-I 172 W/m 4,2 C 18,4 C 3,2 km/h (1 Bft) 100,00 %
01.05.2017 18:34 18,4 C 13,3 C 41 % 1007,3 hPa 0,0 l/m 0,9 km/h (0 Bft) W-NW 297 2 min 0,000 mm 0,0 UV-I 161 W/m 4,9 C 18,4 C 3,2 km/h (1 Bft) 98,11 %
01.05.2017 18:36 18,3 C 12,8 C 41 % 1007,3 hPa 0,0 l/m 0,3 km/h (0 Bft) W-NW 298 2 min 0,000 mm 0,0 UV-I 157 W/m 4,8 C 18,3 C 1,6 km/h (1 Bft) 100,00 %
01.05.2017 18:38 18,1 C 13,3 C 41 % 1007,3 hPa 0,0 l/m 0,7 km/h (0 Bft) W-NW 300 2 min 0,000 mm 0,0 UV-I 148 W/m 4,6 C 18,1 C 3,2 km/h (1 Bft) 95,12 %
01.05.2017 18:40 18,1 C 13,3 C 43 % 1007,3 hPa 0,0 l/m 2,2 km/h (1 Bft) NW 326 2 min 0,000 mm 0,0 UV-I 140 W/m 5,3 C 18,1 C 4,8 km/h (1 Bft) 98,21 %
01.05.2017 18:42 17,9 C 13,3 C 47 % 1007,3 hPa 0,0 l/m 0,7 km/h (0 Bft) N-NW 335 0 min 0,000 mm 0,0 UV-I 130 W/m 6,4 C 17,9 C 3,2 km/h (1 Bft) 90,24 %
01.05.2017 18:44 17,7 C 13,3 C 48 % 1007,3 hPa 0,0 l/m 1,9 km/h (1 Bft) N-NW 335 0 min 0,000 mm 0,0 UV-I 124 W/m 6,6 C 17,7 C 3,2 km/h (1 Bft) 96,23 %
01.05.2017 18:46 17,6 C 13,3 C 46 % 1007,3 hPa 0,0 l/m 0,6 km/h (0 Bft) N-NW 336 0 min 0,000 mm 0,0 UV-I 118 W/m 5,8 C 17,6 C 3,2 km/h (1 Bft) 100,00 %
01.05.2017 18:49 17,6 C 13,3 C 44 % 1007,4 hPa 0,0 l/m 0,2 km/h (0 Bft) N-NW 336 0 min 0,000 mm 0,0 UV-I 101 W/m 5,2 C 17,6 C 3,2 km/h (1 Bft) 94,74 %
01.05.2017 18:50 17,6 C 13,3 C 44 % 1007,4 hPa 0,0 l/m 0,9 km/h (0 Bft) N-NW 336 0 min 0,000 mm 0,0 UV-I 91 W/m 5,2 C 17,6 C 1,6 km/h (1 Bft) 100,00 %
01.05.2017 18:52 17,7 C 13,3 C 42 % 1007,4 hPa 0,0 l/m 1,0 km/h (0 Bft) N-NW 336 0 min 0,000 mm 0,0 UV-I 81 W/m 4,6 C 17,7 C 3,2 km/h (1 Bft) 94,00 %
01.05.2017 18:54 17,8 C 13,3 C 41 % 1007,4 hPa 0,0 l/m 0,0 km/h (0 Bft) N-NW 336 0 min 0,000 mm 0,0 UV-I 73 W/m 4,4 C 17,8 C 0,0 km/h (0 Bft) 93,62 %
01.05.2017 18:56 17,8 C 13,3 C 41 % 1007,5 hPa 0,0 l/m 0,0 km/h (0 Bft) N-NW 336 0 min 0,000 mm 0,0 UV-I 76 W/m 4,4 C 17,8 C 0,0 km/h (0 Bft) 97,87 %
01.05.2017 18:58 17,8 C 13,3 C 46 % 1007,5 hPa 0,0 l/m 0,0 km/h (0 Bft) N-NW 336 0 min 0,000 mm 0,0 UV-I 79 W/m 6,0 C 17,8 C 0,0 km/h (0 Bft) 92,68 %
01.05.2017 19:00 17,8 C 13,3 C 43 % 1007,5 hPa 0,0 l/m 0,0 km/h (0 Bft) N-NW 336 0 min 0,000 mm 0,0 UV-I 78 W/m 5,1 C 17,8 C 0,0 km/h (0 Bft) 92,00 %
01.05.2017 19:03 17,8 C 13,3 C 43 % 1007,6 hPa 0,0 l/m 0,0 km/h (0 Bft) N-NW 336 0 min 0,101 mm 0,0 UV-I 71 W/m 5,1 C 17,8 C 0,0 km/h (0 Bft) 91,55 %
01.05.2017 19:04 17,8 C 13,3 C 43 % 1007,6 hPa 0,0 l/m 0,0 km/h (0 Bft) N-NW 336 0 min 0,000 mm 0,0 UV-I 61 W/m 5,1 C 17,8 C 0,0 km/h (0 Bft) 100,00 %
01.05.2017 19:06 17,8 C 13,3 C 42 % 1007,6 hPa 0,0 l/m 0,0 km/h (0 Bft) N-NW 336 0 min 0,000 mm 0,0 UV-I 56 W/m 4,7 C 17,8 C 0,0 km/h (0 Bft) 93,88 %
01.05.2017 19:09 17,8 C 13,3 C 47 % 1007,7 hPa 0,0 l/m 0,0 km/h (0 Bft) N-NW 336 0 min 0,000 mm 0,0 UV-I 44 W/m 6,3 C 17,8 C 0,0 km/h (0 Bft) 97,30 %
01.05.2017 19:10 17,7 C 13,3 C 45 % 1007,7 hPa 0,0 l/m 0,0 km/h (0 Bft) N-NW 336 0 min 0,000 mm 0,0 UV-I 33 W/m 5,6 C 17,7 C 0,0 km/h (0 Bft) 92,86 %
01.05.2017 19:12 17,7 C 13,3 C 46 % 1007,7 hPa 0,0 l/m 0,0 km/h (0 Bft) N-NW 336 0 min 0,000 mm 0,0 UV-I 28 W/m 5,9 C 17,7 C 0,0 km/h (0 Bft) 96,00 %
01.05.2017 19:14 17,6 C 13,3 C 45 % 1007,7 hPa 0,0 l/m 0,0 km/h (0 Bft) N-NW 336 0 min 0,000 mm 0,0 UV-I 23 W/m 5,5 C 17,6 C 0,0 km/h (0 Bft) 95,74 %
01.05.2017 19:16 17,6 C 13,3 C 47 % 1007,8 hPa 0,0 l/m 0,0 km/h (0 Bft) N-NW 336 0 min 0,000 mm 0,0 UV-I 19 W/m 6,2 C 17,6 C 0,0 km/h (0 Bft) 96,15 %
01.05.2017 19:18 17,4 C 13,3 C 47 % 1007,8 hPa 0,0 l/m 0,0 km/h (0 Bft) N-NW 336 0 min 0,000 mm 0,0 UV-I 15 W/m 6,0 C 17,4 C 0,0 km/h (0 Bft) 95,74 %
01.05.2017 19:20 17,3 C 13,3 C 48 % 1008,0 hPa 0,0 l/m 1,8 km/h (1 Bft) SO 139 0 min 0,000 mm 0,0 UV-I 12 W/m 6,2 C 17,3 C 6,4 km/h (2 Bft) 97,92 %
01.05.2017 19:22 17,2 C 13,3 C 53 % 1008,2 hPa 0,0 l/m 5,3 km/h (1 Bft) SO 142 0 min 0,000 mm 0,0 UV-I 11 W/m 7,5 C 17,2 C 11,3 km/h (2 Bft) 97,87 %
01.05.2017 19:24 16,9 C 13,3 C 52 % 1008,5 hPa 0,0 l/m 10,3 km/h (2 Bft) S-SW 196 0 min 0,000 mm 0,0 UV-I 11 W/m 7,0 C 15,1 C 20,9 km/h (4 Bft) 97,37 %
01.05.2017 19:26 16,3 C 13,3 C 56 % 1008,6 hPa 0,0 l/m 26,6 km/h (4 Bft) W 264 0 min 0,000 mm 0,0 UV-I 11 W/m 7,5 C 10,1 C 43,5 km/h (6 Bft) 90,00 %
01.05.2017 19:28 15,7 C 13,3 C 58 % 1008,8 hPa 0,0 l/m 15,4 km/h (3 Bft) S 179 0 min 0,000 mm 0,0 UV-I 10 W/m 7,5 C 11,9 C 32,2 km/h (5 Bft) 95,12 %
01.05.2017 19:30 15,2 C 12,8 C 62 % 1008,9 hPa 0,0 l/m 13,3 km/h (3 Bft) W-SW 254 0 min 0,000 mm 0,0 UV-I 11 W/m 8,0 C 12,0 C 27,4 km/h (4 Bft) 98,11 %
01.05.2017 19:32 14,4 C 12,8 C 63 % 1009,0 hPa 0,0 l/m 13,9 km/h (3 Bft) SW 215 0 min 0,000 mm 0,0 UV-I 12 W/m 7,4 C 10,9 C 29,0 km/h (5 Bft) 100,00 %
01.05.2017 19:34 13,7 C 12,8 C 66 % 1009,2 hPa 0,0 l/m 13,5 km/h (3 Bft) S-SW 204 0 min 0,000 mm 0,0 UV-I 12 W/m 7,5 C 10,2 C 25,7 km/h (4 Bft) 100,00 %
01.05.2017 19:36 13,1 C 12,8 C 69 % 1009,2 hPa 0,0 l/m 14,4 km/h (3 Bft) W 261 0 min 0,000 mm 0,0 UV-I 12 W/m 7,5 C 9,1 C 24,1 km/h (4 Bft) 97,87 %
01.05.2017 19:38 12,7 C 12,8 C 70 % 1009,4 hPa 0,0 l/m 20,9 km/h (4 Bft) W-SW 246 0 min 0,000 mm 0,0 UV-I 10 W/m 7,4 C 6,5 C 33,8 km/h (5 Bft) 95,45 %
01.05.2017 19:40 12,5 C 12,8 C 71 % 1009,5 hPa 0,0 l/m 25,4 km/h (4 Bft) W-SW 251 0 min 0,000 mm 0,0 UV-I 9 W/m 7,4 C 5,1 C 40,2 km/h (6 Bft) 98,21 %
01.05.2017 19:42 12,2 C 12,8 C 72 % 1009,6 hPa 0,0 l/m 23,5 km/h (4 Bft) S-SW 208 0 min 0,000 mm 0,0 UV-I 8 W/m 7,3 C 5,2 C 37,0 km/h (5 Bft) 100,00 %
01.05.2017 19:44 11,9 C 12,8 C 73 % 1009,7 hPa 0,0 l/m 22,5 km/h (4 Bft) SW 227 0 min 0,000 mm 0,0 UV-I 7 W/m 7,2 C 5,0 C 30,6 km/h (5 Bft) 100,00 %
01.05.2017 19:46 11,6 C 12,8 C 74 % 1009,8 hPa 0,0 l/m 25,8 km/h (4 Bft) W-SW 248 0 min 0,000 mm 0,0 UV-I 7 W/m 7,1 C 3,8 C 37,0 km/h (5 Bft) 100,00 %
01.05.2017 19:48 11,3 C 12,8 C 75 % 1009,9 hPa 0,0 l/m 22,3 km/h (4 Bft) W-SW 247 0 min 0,000 mm 0,0 UV-I 6 W/m 7,0 C 4,3 C 32,2 km/h (5 Bft) 100,00 %
01.05.2017 19:50 11,0 C 12,8 C 74 % 1009,9 hPa 0,0 l/m 29,4 km/h (5 Bft) S-SW 200 0 min 0,000 mm 0,0 UV-I 5 W/m 6,5 C 2,2 C 41,8 km/h (6 Bft) 100,00 %
01.05.2017 19:52 10,6 C 12,8 C 74 % 1010,0 hPa 0,0 l/m 25,3 km/h (4 Bft) W-SW 237 0 min 0,000 mm 0,0 UV-I 5 W/m 6,2 C 2,6 C 37,0 km/h (5 Bft) 97,73 %
01.05.2017 19:54 10,3 C 12,8 C 75 % 1010,1 hPa 0,0 l/m 22,7 km/h (4 Bft) W-SW 257 0 min 0,000 mm 0,0 UV-I 5 W/m 6,1 C 2,9 C 40,2 km/h (6 Bft) 100,00 %
01.05.2017 19:56 10,1 C 12,8 C 75 % 1010,0 hPa 0,0 l/m 31,8 km/h (5 Bft) W-SW 255 0 min 0,000 mm 0,0 UV-I 5 W/m 5,9 C 0,4 C 49,9 km/h (6 Bft) 96,23 %
01.05.2017 19:58 9,8 C 12,8 C 75 % 1010,1 hPa 0,0 l/m 33,7 km/h (5 Bft) W 261 0 min 0,000 mm 0,0 UV-I 5 W/m 5,6 C -0,4 C 49,9 km/h (6 Bft) 97,62 %
01.05.2017 20:00 9,4 C 12,8 C 75 % 1010,2 hPa 0,0 l/m 32,8 km/h (5 Bft) W-SW 247 0 min 0,076 mm 0,0 UV-I 5 W/m 5,2 C -0,8 C 48,3 km/h (6 Bft) 100,00 %
01.05.2017 20:02 9,2 C 12,8 C 76 % 1010,3 hPa 0,0 l/m 30,2 km/h (5 Bft) SW 228 0 min 0,000 mm 0,0 UV-I 5 W/m 5,2 C -0,5 C 49,9 km/h (6 Bft) 95,12 %
01.05.2017 20:04 8,9 C 12,8 C 76 % 1010,5 hPa 0,0 l/m 34,0 km/h (5 Bft) W-SW 250 0 min 0,000 mm 0,0 UV-I 5 W/m 4,9 C -1,7 C 46,7 km/h (6 Bft) 100,00 %
01.05.2017 20:06 8,7 C 12,8 C 76 % 1010,6 hPa 0,0 l/m 31,3 km/h (5 Bft) SW 233 0 min 0,000 mm 0,0 UV-I 4 W/m 4,7 C -1,5 C 46,7 km/h (6 Bft) 100,00 %
01.05.2017 20:08 8,5 C 12,8 C 77 % 1010,7 hPa 0,0 l/m 32,8 km/h (5 Bft) W-SW 250 0 min 0,000 mm 0,0 UV-I 0 W/m 4,7 C -2,1 C 46,7 km/h (6 Bft) 95,45 %
01.05.2017 20:10 8,3 C 12,8 C 77 % 1010,7 hPa 0,0 l/m 31,4 km/h (5 Bft) W-SW 246 0 min 0,000 mm 0,0 UV-I 0 W/m 4,5 C -2,0 C 51,5 km/h (7 Bft) 94,00 %
01.05.2017 20:12 8,2 C 12,8 C 77 % 1010,8 hPa 0,0 l/m 30,9 km/h (5 Bft) SW 233 0 min 0,000 mm 0,0 UV-I 0 W/m 4,4 C -2,1 C 41,8 km/h (6 Bft) 100,00 %
01.05.2017 20:14 8,1 C 12,8 C 78 % 1010,9 hPa 0,0 l/m 29,7 km/h (5 Bft) W-SW 256 0 min 0,000 mm 0,0 UV-I 0 W/m 4,5 C -1,9 C 41,8 km/h (6 Bft) 100,00 %
01.05.2017 20:16 7,9 C 12,8 C 78 % 1011,0 hPa 0,0 l/m 32,3 km/h (5 Bft) SW 235 0 min 0,000 mm 0,0 UV-I 0 W/m 4,3 C -2,8 C 49,9 km/h (6 Bft) 97,73 %
01.05.2017 20:18 7,8 C 12,8 C 78 % 1011,1 hPa 0,0 l/m 32,0 km/h (5 Bft) W-SW 246 0 min 0,000 mm 0,0 UV-I 0 W/m 4,2 C -2,9 C 45,1 km/h (6 Bft) 97,73 %
01.05.2017 20:20 7,7 C 12,8 C 78 % 1011,1 hPa 0,0 l/m 27,5 km/h (4 Bft) S-SW 212 0 min 0,000 mm 0,0 UV-I 0 W/m 4,1 C -2,0 C 41,8 km/h (6 Bft) 97,73 %
01.05.2017 20:22 7,6 C 12,8 C 78 % 1011,1 hPa 0,0 l/m 26,4 km/h (4 Bft) W-SW 255 0 min 0,000 mm 0,0 UV-I 0 W/m 4,0 C -1,8 C 37,0 km/h (5 Bft) 96,23 %
01.05.2017 20:24 7,6 C 12,8 C 78 % 1011,2 hPa 0,0 l/m 36,3 km/h (5 Bft) W-SW 248 0 min 0,000 mm 0,0 UV-I 0 W/m 4,0 C -4,0 C 53,1 km/h (7 Bft) 100,00 %
01.05.2017 20:26 7,4 C 12,8 C 78 % 1011,4 hPa 0,0 l/m 32,9 km/h (5 Bft) SW 234 0 min 0,000 mm 0,0 UV-I 0 W/m 3,8 C -3,6 C 46,7 km/h (6 Bft) 96,23 %
01.05.2017 20:28 7,4 C 12,8 C 79 % 1011,4 hPa 0,0 l/m 29,3 km/h (5 Bft) SW 235 0 min 0,000 mm 0,0 UV-I 0 W/m 4,0 C -2,8 C 46,7 km/h (6 Bft) 100,00 %
01.05.2017 20:30 7,3 C 12,8 C 79 % 1011,5 hPa 0,0 l/m 35,6 km/h (5 Bft) S-SW 211 0 min 0,000 mm 0,0 UV-I 0 W/m 3,9 C -4,3 C 56,3 km/h (7 Bft) 97,44 %
01.05.2017 20:32 7,3 C 12,8 C 78 % 1011,6 hPa 0,0 l/m 31,6 km/h (5 Bft) SW 235 0 min 0,000 mm 0,0 UV-I 0 W/m 3,7 C -3,5 C 48,3 km/h (6 Bft) 100,00 %
01.05.2017 20:34 7,2 C 12,8 C 79 % 1011,5 hPa 0,0 l/m 27,0 km/h (4 Bft) W-SW 237 0 min 0,000 mm 0,0 UV-I 0 W/m 3,8 C -2,5 C 43,5 km/h (6 Bft) 97,87 %
01.05.2017 20:36 7,1 C 12,8 C 78 % 1011,5 hPa 0,0 l/m 32,8 km/h (5 Bft) W-SW 254 0 min 0,000 mm 0,0 UV-I 0 W/m 3,5 C -4,1 C 49,9 km/h (6 Bft) 97,37 %
01.05.2017 20:38 7,1 C 12,8 C 78 % 1011,6 hPa 0,0 l/m 32,6 km/h (5 Bft) W 267 0 min 0,000 mm 0,0 UV-I 0 W/m 3,5 C -4,0 C 48,3 km/h (6 Bft) 98,11 %
01.05.2017 20:40 7,1 C 12,8 C 79 % 1011,8 hPa 0,0 l/m 29,6 km/h (5 Bft) W 266 0 min 0,000 mm 0,0 UV-I 0 W/m 3,7 C -3,3 C 41,8 km/h (6 Bft) 97,87 %
01.05.2017 20:42 7,0 C 12,8 C 79 % 1011,8 hPa 0,0 l/m 30,3 km/h (5 Bft) W-SW 239 0 min 0,000 mm 0,0 UV-I 0 W/m 3,6 C -3,6 C 49,9 km/h (6 Bft) 98,21 %
01.05.2017 20:44 7,0 C 12,8 C 79 % 1011,8 hPa 0,0 l/m 33,1 km/h (5 Bft) S-SW 200 0 min 0,000 mm 0,0 UV-I 0 W/m 3,6 C -4,3 C 51,5 km/h (7 Bft) 94,74 %
01.05.2017 20:46 6,9 C 12,8 C 80 % 1011,9 hPa 0,0 l/m 28,8 km/h (4 Bft) W 273 0 min 0,000 mm 0,0 UV-I 0 W/m 3,7 C -3,4 C 46,7 km/h (6 Bft) 93,62 %
01.05.2017 20:48 6,9 C 12,8 C 80 % 1011,9 hPa 0,0 l/m 32,3 km/h (5 Bft) W-NW 289 0 min 0,000 mm 0,0 UV-I 0 W/m 3,7 C -4,2 C 48,3 km/h (6 Bft) 95,74 %
01.05.2017 20:50 6,9 C 12,8 C 80 % 1011,9 hPa 0,0 l/m 31,2 km/h (5 Bft) W 269 0 min 0,000 mm 0,0 UV-I 0 W/m 3,7 C -4,0 C 51,5 km/h (7 Bft) 95,74 %
01.05.2017 20:52 6,8 C 12,8 C 80 % 1012,0 hPa 0,0 l/m 21,5 km/h (4 Bft) W-SW 240 0 min 0,000 mm 0,0 UV-I 0 W/m 3,6 C -1,4 C 37,0 km/h (5 Bft) 94,34 %
01.05.2017 20:54 6,8 C 12,8 C 81 % 1012,1 hPa 0,0 l/m 19,3 km/h (3 Bft) SW 234 0 min 0,000 mm 0,0 UV-I 0 W/m 3,8 C -0,6 C 27,4 km/h (4 Bft) 95,45 %
01.05.2017 20:56 6,8 C 12,8 C 82 % 1012,1 hPa 0,0 l/m 22,4 km/h (4 Bft) W 267 0 min 0,000 mm 0,0 UV-I 0 W/m 3,9 C -1,7 C 33,8 km/h (5 Bft) 96,23 %
01.05.2017 20:58 6,8 C 12,8 C 82 % 1012,2 hPa 0,0 l/m 23,2 km/h (4 Bft) W-SW 245 0 min 0,000 mm 0,0 UV-I 0 W/m 3,9 C -1,9 C 38,6 km/h (5 Bft) 92,11 %
01.05.2017 21:00 6,7 C 12,8 C 82 % 1012,2 hPa 0,0 l/m 21,6 km/h (4 Bft) W-SW 254 0 min 0,000 mm 0,0 UV-I 0 W/m 3,8 C -1,5 C 37,0 km/h (5 Bft) 93,62 %
01.05.2017 21:02 6,7 C 12,8 C 82 % 1012,3 hPa 0,0 l/m 24,4 km/h (4 Bft) SW 214 0 min 0,051 mm 0,0 UV-I 0 W/m 3,8 C -2,5 C 33,8 km/h (5 Bft) 96,00 %
01.05.2017 21:04 6,7 C 12,8 C 82 % 1012,4 hPa 0,0 l/m 24,7 km/h (4 Bft) SW 232 0 min 0,000 mm 0,0 UV-I 0 W/m 3,8 C -2,5 C 38,6 km/h (5 Bft) 92,68 %
01.05.2017 21:06 6,6 C 12,8 C 82 % 1012,5 hPa 0,0 l/m 28,4 km/h (4 Bft) W 263 0 min 0,000 mm 0,0 UV-I 0 W/m 3,8 C -3,7 C 38,6 km/h (5 Bft) 96,23 %
01.05.2017 21:08 6,6 C 12,8 C 82 % 1012,6 hPa 0,0 l/m 31,3 km/h (5 Bft) W-SW 251 0 min 0,000 mm 0,0 UV-I 0 W/m 3,8 C -4,4 C 49,9 km/h (6 Bft) 92,86 %
01.05.2017 21:10 6,6 C 12,8 C 81 % 1012,7 hPa 0,0 l/m 25,7 km/h (4 Bft) W-SW 246 0 min 0,000 mm 0,0 UV-I 0 W/m 3,6 C -3,0 C 35,4 km/h (5 Bft) 90,00 %
01.05.2017 21:12 6,6 C 12,8 C 82 % 1012,8 hPa 0,0 l/m 23,6 km/h (4 Bft) W-SW 238 0 min 0,000 mm 0,0 UV-I 0 W/m 3,8 C -2,3 C 35,4 km/h (5 Bft) 91,49 %
01.05.2017 21:14 6,6 C 12,8 C 82 % 1012,7 hPa 0,0 l/m 16,5 km/h (3 Bft) SW 214 0 min 0,000 mm 0,0 UV-I 0 W/m 3,8 C 0,3 C 25,7 km/h (4 Bft) 94,74 %
01.05.2017 21:16 6,5 C 12,8 C 83 % 1012,6 hPa 0,0 l/m 21,2 km/h (4 Bft) W-SW 238 0 min 0,000 mm 0,0 UV-I 0 W/m 3,8 C -1,7 C 32,2 km/h (5 Bft) 87,10 %
01.05.2017 21:18 6,4 C 12,8 C 82 % 1012,5 hPa 0,0 l/m 28,0 km/h (4 Bft) W 270 0 min 0,000 mm 0,0 UV-I 0 W/m 3,6 C -3,9 C 46,7 km/h (6 Bft) 97,56 %
01.05.2017 21:20 6,4 C 12,8 C 82 % 1012,6 hPa 0,0 l/m 20,6 km/h (4 Bft) W-SW 258 0 min 0,000 mm 0,0 UV-I 0 W/m 3,6 C -1,6 C 33,8 km/h (5 Bft) 92,45 %
01.05.2017 21:22 6,3 C 12,8 C 83 % 1012,7 hPa 0,0 l/m 22,8 km/h (4 Bft) SW 236 0 min 0,000 mm 0,0 UV-I 0 W/m 3,6 C -2,5 C 33,8 km/h (5 Bft) 92,11 %
01.05.2017 21:24 6,2 C 12,8 C 83 % 1012,7 hPa 0,0 l/m 21,3 km/h (4 Bft) SW 235 0 min 0,000 mm 0,0 UV-I 0 W/m 3,5 C -2,1 C 30,6 km/h (5 Bft) 94,00 %
01.05.2017 21:26 6,2 C 12,8 C 83 % 1012,9 hPa 0,0 l/m 19,3 km/h (3 Bft) W 281 0 min 0,000 mm 0,0 UV-I 0 W/m 3,5 C -1,4 C 25,7 km/h (4 Bft) 96,00 %
01.05.2017 21:28 6,0 C 12,8 C 84 % 1012,9 hPa 0,0 l/m 22,9 km/h (4 Bft) SW 225 0 min 0,000 mm 0,0 UV-I 0 W/m 3,5 C -2,9 C 32,2 km/h (5 Bft) 91,49 %
01.05.2017 21:30 5,9 C 12,8 C 84 % 1012,8 hPa 0,0 l/m 25,7 km/h (4 Bft) SW 227 0 min 0,000 mm 0,0 UV-I 0 W/m 3,4 C -3,9 C 35,4 km/h (5 Bft) 95,45 %
01.05.2017 21:32 5,8 C 12,8 C 85 % 1012,9 hPa 0,0 l/m 28,0 km/h (4 Bft) SW 217 0 min 0,000 mm 0,0 UV-I 0 W/m 3,5 C -4,7 C 40,2 km/h (6 Bft) 96,00 %
01.05.2017 21:34 5,7 C 12,8 C 85 % 1013,0 hPa 0,0 l/m 26,5 km/h (4 Bft) W-NW 288 0 min 0,000 mm 0,0 UV-I 0 W/m 3,4 C -4,4 C 38,6 km/h (5 Bft) 100,00 %
01.05.2017 21:36 5,6 C 12,8 C 86 % 1013,0 hPa 0,2 l/m 27,0 km/h (4 Bft) W-SW 245 0 min 0,000 mm 0,0 UV-I 0 W/m 3,4 C -4,7 C 40,2 km/h (6 Bft) 100,00 %
01.05.2017 21:38 5,5 C 12,8 C 86 % 1013,1 hPa 0,0 l/m 23,1 km/h (4 Bft) W-SW 253 0 min 0,000 mm 0,0 UV-I 0 W/m 3,3 C -3,6 C 30,6 km/h (5 Bft) 94,00 %
01.05.2017 21:40 5,4 C 12,8 C 87 % 1013,2 hPa 0,2 l/m 22,8 km/h (4 Bft) W-SW 254 0 min 0,000 mm 0,0 UV-I 0 W/m 3,4 C -3,7 C 37,0 km/h (5 Bft) 95,74 %
01.05.2017 21:42 5,3 C 12,8 C 87 % 1013,3 hPa 0,0 l/m 20,4 km/h (4 Bft) SW 219 0 min 0,000 mm 0,0 UV-I 0 W/m 3,3 C -2,9 C 30,6 km/h (5 Bft) 97,56 %
01.05.2017 21:44 5,2 C 12,8 C 88 % 1013,3 hPa 0,0 l/m 19,6 km/h (3 Bft) W 270 0 min 0,000 mm 0,0 UV-I 0 W/m 3,4 C -2,8 C 32,2 km/h (5 Bft) 100,00 %
01.05.2017 21:46 5,1 C 12,8 C 88 % 1013,3 hPa 0,2 l/m 22,5 km/h (4 Bft) W-SW 243 0 min 0,000 mm 0,0 UV-I 0 W/m 3,3 C -4,0 C 33,8 km/h (5 Bft) 92,11 %
01.05.2017 21:48 5,0 C 12,8 C 88 % 1013,3 hPa 0,0 l/m 22,4 km/h (4 Bft) W-SW 244 0 min 0,000 mm 0,0 UV-I 0 W/m 3,2 C -4,1 C 32,2 km/h (5 Bft) 100,00 %
01.05.2017 21:50 4,9 C 12,8 C 89 % 1013,4 hPa 0,2 l/m 25,1 km/h (4 Bft) SW 221 0 min 0,000 mm 0,0 UV-I 0 W/m 3,2 C -5,1 C 35,4 km/h (5 Bft) 95,24 %
01.05.2017 21:54 4,8 C 12,8 C 89 % 1013,4 hPa 0,2 l/m 26,2 km/h (4 Bft) W-SW 246 0 min 0,000 mm 0,0 UV-I 0 W/m 3,1 C -5,6 C 37,0 km/h (5 Bft) 96,94 %
01.05.2017 21:56 4,7 C 12,8 C 89 % 1013,4 hPa 0,0 l/m 23,6 km/h (4 Bft) W-SW 242 0 min 0,000 mm 0,0 UV-I 0 W/m 3,0 C -4,9 C 35,4 km/h (5 Bft) 92,00 %
01.05.2017 21:58 4,7 C 12,8 C 90 % 1013,5 hPa 0,2 l/m 20,3 km/h (4 Bft) W-SW 250 0 min 0,000 mm 0,0 UV-I 0 W/m 3,2 C -3,7 C 25,7 km/h (4 Bft) 93,94 %
01.05.2017 22:00 4,7 C 12,8 C 90 % 1013,5 hPa 0,0 l/m 20,0 km/h (4 Bft) W-SW 254 0 min 0,000 mm 0,0 UV-I 0 W/m 3,2 C -3,6 C 30,6 km/h (5 Bft) 96,43 %
01.05.2017 22:02 4,7 C 12,8 C 90 % 1013,5 hPa 0,2 l/m 22,6 km/h (4 Bft) SW 215 0 min 0,026 mm 0,0 UV-I 0 W/m 3,2 C -4,5 C 32,2 km/h (5 Bft) 92,31 %
01.05.2017 22:04 4,7 C 12,8 C 90 % 1013,5 hPa 0,2 l/m 24,2 km/h (4 Bft) SW 222 0 min 0,000 mm 0,0 UV-I 0 W/m 3,2 C -5,1 C 37,0 km/h (5 Bft) 94,87 %
01.05.2017 22:06 4,6 C 12,8 C 91 % 1013,5 hPa 0,0 l/m 24,9 km/h (4 Bft) W-SW 239 0 min 0,000 mm 0,0 UV-I 0 W/m 3,3 C -5,5 C 40,2 km/h (6 Bft) 97,73 %
01.05.2017 22:08 4,6 C 12,8 C 91 % 1013,6 hPa 0,0 l/m 18,1 km/h (3 Bft) W 259 0 min 0,000 mm 0,0 UV-I 0 W/m 3,3 C -2,9 C 24,1 km/h (4 Bft) 100,00 %
01.05.2017 22:10 4,6 C 12,8 C 91 % 1013,7 hPa 0,2 l/m 21,5 km/h (4 Bft) S-SW 213 0 min 0,000 mm 0,0 UV-I 0 W/m 3,3 C -4,3 C 29,0 km/h (5 Bft) 92,11 %
01.05.2017 22:12 4,6 C 12,8 C 91 % 1013,7 hPa 0,0 l/m 20,1 km/h (4 Bft) SW 235 0 min 0,000 mm 0,0 UV-I 0 W/m 3,3 C -3,7 C 29,0 km/h (5 Bft) 96,43 %
01.05.2017 22:14 4,6 C 12,8 C 91 % 1013,8 hPa 0,0 l/m 21,7 km/h (4 Bft) W 263 0 min 0,000 mm 0,0 UV-I 0 W/m 3,3 C -4,3 C 30,6 km/h (5 Bft) 100,00 %
01.05.2017 22:16 4,6 C 12,8 C 91 % 1013,9 hPa 0,0 l/m 21,4 km/h (4 Bft) W-SW 240 0 min 0,000 mm 0,0 UV-I 0 W/m 3,3 C -4,2 C 30,6 km/h (5 Bft) 100,00 %
01.05.2017 22:18 4,6 C 12,8 C 91 % 1013,9 hPa 0,0 l/m 19,6 km/h (3 Bft) W-SW 256 0 min 0,000 mm 0,0 UV-I 0 W/m 3,3 C -3,5 C 24,1 km/h (4 Bft) 100,00 %
01.05.2017 22:20 4,6 C 12,8 C 91 % 1013,9 hPa 0,0 l/m 21,6 km/h (4 Bft) W-SW 245 0 min 0,000 mm 0,0 UV-I 0 W/m 3,3 C -4,3 C 30,6 km/h (5 Bft) 95,12 %
01.05.2017 22:22 4,6 C 12,8 C 91 % 1013,9 hPa 0,2 l/m 22,7 km/h (4 Bft) W-SW 243 0 min 0,000 mm 0,0 UV-I 0 W/m 3,3 C -4,7 C 38,6 km/h (5 Bft) 98,21 %
01.05.2017 22:24 4,6 C 12,8 C 91 % 1013,9 hPa 0,0 l/m 21,1 km/h (4 Bft) W-SW 257 0 min 0,000 mm 0,0 UV-I 0 W/m 3,3 C -4,1 C 32,2 km/h (5 Bft) 95,74 %
01.05.2017 22:26 4,5 C 12,8 C 92 % 1014,0 hPa 0,0 l/m 22,2 km/h (4 Bft) W-SW 255 0 min 0,000 mm 0,0 UV-I 0 W/m 3,3 C -4,7 C 35,4 km/h (5 Bft) 100,00 %
01.05.2017 22:28 4,5 C 12,8 C 91 % 1014,0 hPa 0,0 l/m 20,5 km/h (4 Bft) W-SW 244 0 min 0,000 mm 0,0 UV-I 0 W/m 3,2 C -4,0 C 29,0 km/h (5 Bft) 98,00 %
01.05.2017 22:30 4,5 C 12,8 C 92 % 1014,1 hPa 0,2 l/m 23,2 km/h (4 Bft) W-SW 250 0 min 0,000 mm 0,0 UV-I 0 W/m 3,3 C -5,0 C 35,4 km/h (5 Bft) 100,00 %
01.05.2017 22:32 4,5 C 12,8 C 92 % 1014,1 hPa 0,0 l/m 17,2 km/h (3 Bft) SW 225 0 min 0,000 mm 0,0 UV-I 0 W/m 3,3 C -2,6 C 27,4 km/h (4 Bft) 100,00 %
01.05.2017 22:34 4,5 C 12,8 C 92 % 1014,1 hPa 0,2 l/m 16,2 km/h (3 Bft) SW 229 0 min 0,000 mm 0,0 UV-I 0 W/m 3,3 C -2,1 C 24,1 km/h (4 Bft) 100,00 %
01.05.2017 22:36 4,5 C 12,8 C 92 % 1014,1 hPa 0,0 l/m 15,8 km/h (3 Bft) W-SW 241 0 min 0,000 mm 0,0 UV-I 0 W/m 3,3 C -1,9 C 20,9 km/h (4 Bft) 96,36 %
01.05.2017 22:38 4,5 C 12,8 C 92 % 1014,1 hPa 0,0 l/m 16,8 km/h (3 Bft) W-SW 245 0 min 0,000 mm 0,0 UV-I 0 W/m 3,3 C -2,4 C 27,4 km/h (4 Bft) 94,87 %
01.05.2017 22:40 4,4 C 12,8 C 92 % 1014,1 hPa 0,2 l/m 22,7 km/h (4 Bft) W 263 0 min 0,000 mm 0,0 UV-I 0 W/m 3,2 C -5,0 C 33,8 km/h (5 Bft) 100,00 %
01.05.2017 22:42 4,4 C 12,8 C 92 % 1014,1 hPa 0,0 l/m 15,6 km/h (3 Bft) S-SW 205 0 min 0,000 mm 0,0 UV-I 0 W/m 3,2 C -2,0 C 24,1 km/h (4 Bft) 98,00 %
01.05.2017 22:44 4,4 C 12,8 C 92 % 1014,0 hPa 0,0 l/m 19,5 km/h (3 Bft) SW 228 0 min 0,000 mm 0,0 UV-I 0 W/m 3,2 C -3,7 C 29,0 km/h (5 Bft) 98,00 %
01.05.2017 22:46 4,4 C 12,8 C 92 % 1014,1 hPa 0,0 l/m 19,6 km/h (3 Bft) W-SW 244 0 min 0,000 mm 0,0 UV-I 0 W/m 3,2 C -3,8 C 30,6 km/h (5 Bft) 97,56 %
01.05.2017 22:48 4,4 C 12,8 C 92 % 1014,1 hPa 0,0 l/m 18,9 km/h (3 Bft) W 274 0 min 0,000 mm 0,0 UV-I 0 W/m 3,2 C -3,5 C 24,1 km/h (4 Bft) 96,00 %
01.05.2017 22:50 4,4 C 12,8 C 92 % 1014,1 hPa 0,2 l/m 15,5 km/h (3 Bft) W-SW 244 0 min 0,000 mm 0,0 UV-I 0 W/m 3,2 C -1,9 C 27,4 km/h (4 Bft) 95,74 %
01.05.2017 22:52 4,3 C 12,8 C 92 % 1014,1 hPa 0,0 l/m 16,8 km/h (3 Bft) W-SW 243 0 min 0,000 mm 0,0 UV-I 0 W/m 3,1 C -2,7 C 25,7 km/h (4 Bft) 94,00 %
01.05.2017 22:54 4,4 C 12,8 C 92 % 1014,1 hPa 0,0 l/m 20,3 km/h (4 Bft) W-SW 240 0 min 0,000 mm 0,0 UV-I 0 W/m 3,2 C -4,1 C 30,6 km/h (5 Bft) 97,87 %
01.05.2017 22:56 4,3 C 12,8 C 92 % 1014,1 hPa 0,0 l/m 14,5 km/h (3 Bft) SW 230 0 min 0,000 mm 0,0 UV-I 0 W/m 3,1 C -1,5 C 22,5 km/h (4 Bft) 96,00 %
01.05.2017 22:58 4,4 C 12,8 C 92 % 1014,1 hPa 0,0 l/m 15,9 km/h (3 Bft) W-SW 248 0 min 0,000 mm 0,0 UV-I 0 W/m 3,2 C -2,1 C 22,5 km/h (4 Bft) 97,37 %
01.05.2017 23:00 4,3 C 12,8 C 92 % 1014,2 hPa 0,0 l/m 15,0 km/h (3 Bft) SW 229 0 min 0,000 mm 0,0 UV-I 0 W/m 3,1 C -1,8 C 25,7 km/h (4 Bft) 96,23 %
01.05.2017 23:02 4,4 C 12,2 C 92 % 1014,2 hPa 0,0 l/m 15,0 km/h (3 Bft) SW 236 0 min 0,025 mm 0,0 UV-I 0 W/m 3,2 C -1,7 C 22,5 km/h (4 Bft) 94,74 %
01.05.2017 23:04 4,4 C 12,8 C 92 % 1014,1 hPa 0,2 l/m 18,5 km/h (3 Bft) SW 223 0 min 0,000 mm 0,0 UV-I 0 W/m 3,2 C -3,3 C 29,0 km/h (5 Bft) 97,73 %
01.05.2017 23:06 4,4 C 12,8 C 92 % 1014,1 hPa 0,0 l/m 17,2 km/h (3 Bft) W-SW 238 0 min 0,000 mm 0,0 UV-I 0 W/m 3,2 C -2,7 C 27,4 km/h (4 Bft) 96,23 %
01.05.2017 23:08 4,3 C 12,2 C 92 % 1014,1 hPa 0,0 l/m 20,7 km/h (4 Bft) W 268 0 min 0,000 mm 0,0 UV-I 0 W/m 3,1 C -4,4 C 30,6 km/h (5 Bft) 94,00 %
01.05.2017 23:10 4,3 C 12,8 C 92 % 1014,1 hPa 0,0 l/m 14,8 km/h (3 Bft) SW 215 0 min 0,000 mm 0,0 UV-I 0 W/m 3,1 C -1,7 C 22,5 km/h (4 Bft) 92,00 %
01.05.2017 23:12 4,3 C 12,2 C 92 % 1014,1 hPa 0,0 l/m 16,3 km/h (3 Bft) W-SW 246 0 min 0,000 mm 0,0 UV-I 0 W/m 3,1 C -2,4 C 27,4 km/h (4 Bft) 100,00 %
01.05.2017 23:14 4,3 C 12,2 C 92 % 1014,2 hPa 0,0 l/m 18,1 km/h (3 Bft) S-SW 213 0 min 0,000 mm 0,0 UV-I 0 W/m 3,1 C -3,3 C 27,4 km/h (4 Bft) 94,23 %
01.05.2017 23:16 4,2 C 12,2 C 92 % 1014,2 hPa 0,0 l/m 15,8 km/h (3 Bft) W-SW 246 0 min 0,000 mm 0,0 UV-I 0 W/m 3,0 C -2,3 C 22,5 km/h (4 Bft) 88,10 %
01.05.2017 23:18 4,2 C 12,2 C 92 % 1014,2 hPa 0,0 l/m 22,7 km/h (4 Bft) W-SW 255 0 min 0,000 mm 0,0 UV-I 0 W/m 3,0 C -5,2 C 33,8 km/h (5 Bft) 98,18 %
01.05.2017 23:20 4,2 C 12,2 C 92 % 1014,2 hPa 0,2 l/m 18,6 km/h (3 Bft) W-SW 244 0 min 0,000 mm 0,0 UV-I 0 W/m 3,0 C -3,6 C 27,4 km/h (4 Bft) 94,87 %
01.05.2017 23:22 4,2 C 12,2 C 92 % 1014,2 hPa 0,0 l/m 14,5 km/h (3 Bft) SW 215 0 min 0,000 mm 0,0 UV-I 0 W/m 3,0 C -1,6 C 19,3 km/h (3 Bft) 97,87 %
01.05.2017 23:24 4,2 C 12,2 C 92 % 1014,2 hPa 0,0 l/m 18,5 km/h (3 Bft) W-SW 240 0 min 0,000 mm 0,0 UV-I 0 W/m 3,0 C -3,6 C 27,4 km/h (4 Bft) 95,74 %
01.05.2017 23:26 4,2 C 12,2 C 92 % 1014,2 hPa 0,0 l/m 22,4 km/h (4 Bft) SW 225 0 min 0,000 mm 0,0 UV-I 0 W/m 3,0 C -5,1 C 35,4 km/h (5 Bft) 93,62 %
01.05.2017 23:28 4,2 C 12,2 C 92 % 1014,2 hPa 0,0 l/m 15,2 km/h (3 Bft) W-SW 246 0 min 0,000 mm 0,0 UV-I 0 W/m 3,0 C -2,0 C 20,9 km/h (4 Bft) 90,57 %
01.05.2017 23:30 4,2 C 12,2 C 92 % 1014,2 hPa 0,2 l/m 17,5 km/h (3 Bft) SW 227 0 min 0,000 mm 0,0 UV-I 0 W/m 3,0 C -3,1 C 24,1 km/h (4 Bft) 100,00 %
01.05.2017 23:32 4,1 C 12,2 C 92 % 1014,3 hPa 0,0 l/m 16,0 km/h (3 Bft) W-SW 248 0 min 0,000 mm 0,0 UV-I 0 W/m 2,9 C -2,5 C 24,1 km/h (4 Bft) 100,00 %
01.05.2017 23:34 4,1 C 12,2 C 92 % 1014,3 hPa 0,0 l/m 18,1 km/h (3 Bft) SW 219 0 min 0,000 mm 0,0 UV-I 0 W/m 2,9 C -3,5 C 30,6 km/h (5 Bft) 97,87 %
01.05.2017 23:36 4,1 C 12,2 C 92 % 1014,4 hPa 0,0 l/m 17,2 km/h (3 Bft) W 270 0 min 0,000 mm 0,0 UV-I 0 W/m 2,9 C -3,1 C 29,0 km/h (5 Bft) 98,11 %
01.05.2017 23:38 4,1 C 12,2 C 92 % 1014,3 hPa 0,0 l/m 16,5 km/h (3 Bft) SW 218 0 min 0,000 mm 0,0 UV-I 0 W/m 2,9 C -2,8 C 27,4 km/h (4 Bft) 100,00 %
01.05.2017 23:40 4,1 C 12,2 C 92 % 1014,3 hPa 0,0 l/m 19,2 km/h (3 Bft) SW 221 0 min 0,000 mm 0,0 UV-I 0 W/m 2,9 C -4,0 C 30,6 km/h (5 Bft) 100,00 %
01.05.2017 23:42 4,1 C 12,2 C 92 % 1014,4 hPa 0,2 l/m 12,7 km/h (3 Bft) SW 225 0 min 0,000 mm 0,0 UV-I 0 W/m 2,9 C -0,7 C 17,7 km/h (3 Bft) 100,00 %
01.05.2017 23:44 4,1 C 12,2 C 92 % 1014,3 hPa 0,0 l/m 15,0 km/h (3 Bft) SW 235 0 min 0,000 mm 0,0 UV-I 0 W/m 2,9 C -2,0 C 25,7 km/h (4 Bft) 98,82 %
01.05.2017 23:46 4,1 C 12,2 C 92 % 1014,4 hPa 0,0 l/m 18,1 km/h (3 Bft) SW 221 0 min 0,000 mm 0,0 UV-I 0 W/m 2,9 C -3,5 C 24,1 km/h (4 Bft) 97,56 %
01.05.2017 23:48 4,1 C 12,2 C 92 % 1014,4 hPa 0,0 l/m 19,1 km/h (3 Bft) W-SW 250 0 min 0,000 mm 0,0 UV-I 0 W/m 2,9 C -4,0 C 30,6 km/h (5 Bft) 94,00 %
01.05.2017 23:50 4,1 C 12,2 C 92 % 1014,5 hPa 0,0 l/m 19,9 km/h (4 Bft) S-SW 207 0 min 0,000 mm 0,0 UV-I 0 W/m 2,9 C -4,3 C 29,0 km/h (5 Bft) 93,18 %
01.05.2017 23:52 4,1 C 12,2 C 92 % 1014,5 hPa 0,0 l/m 16,5 km/h (3 Bft) SW 227 0 min 0,000 mm 0,0 UV-I 0 W/m 2,9 C -2,8 C 25,7 km/h (4 Bft) 97,87 %
01.05.2017 23:54 4,1 C 12,2 C 92 % 1014,5 hPa 0,0 l/m 11,5 km/h (2 Bft) W-SW 242 0 min 0,000 mm 0,0 UV-I 0 W/m 2,9 C 0,0 C 20,9 km/h (4 Bft) 98,00 %
01.05.2017 23:56 4,2 C 12,2 C 93 % 1014,5 hPa 0,0 l/m 16,7 km/h (3 Bft) SW 236 0 min 0,000 mm 0,0 UV-I 0 W/m 3,2 C -2,7 C 30,6 km/h (5 Bft) 97,44 %
01.05.2017 23:58 4,2 C 12,2 C 92 % 1014,5 hPa 0,0 l/m 17,7 km/h (3 Bft) W-SW 239 0 min 0,000 mm 0,0 UV-I 0 W/m 3,0 C -3,2 C 27,4 km/h (4 Bft) 100,00 %
_ Min-Zeit 23:32 05:28 14:26 06:20 - 18:54 - - - - - - 14:26 21:54 18:54 07:52
Minimum _ 4,1 C 10,0 C 31 % 1006,8 hPa - 0,0 km/h (0 Bft) - - - - - - 1,1 C -5,6 C 0,0 km/h (0 Bft) 86,00 %
_ Max-Zeit 16:10 18:32 23:56 23:50 21:36 20:24 - - 13:03 13:00 12:42 12:24 13:04 16:10 20:30 00:12
Maximum _ 19,2 C 13,3 C 93 % 1014,5 hPa 0,2 l/m 36,3 km/h
W-SW (5 Bft)
- - 3 min 0,508 mm 4,7 UV-I 913 W/m 8,3 C 19,2 C 56,3 km/h
W-SW (7 Bft)
100,00 %
Durchschnitt _ 11,1 C 11,6 C 64 % 1008,5 hPa #3,6 l/m 9,8 km/h (2 Bft) O-NO - #11:56 h #4,445 mm 2,6 UV-I 469 W/m 3,8 C 8,5 C 15,1 km/h (3 Bft) 96,60 %